Provisional Data: Hunts Run near Cameron, PA


Please select a monitoring station.
Please select start date.
Please select start date.

Toggle Unit: C/F Toggle Unit: C/F
Sample Time Temperature (C) Temperature (F) Specific Conductivity (mS/cm) pH   Turbidity (NTU+) DO (mg/L)
4/13/2022 12:00:00 AM 8.69 47.642 0.029 6.7 2.28 11.35
4/13/2022 12:15:00 AM 8.62 47.516 0.029 6.7 2.29 11.36
4/13/2022 12:30:00 AM 8.55 47.39 0.029 6.71 2.35 11.38
4/13/2022 12:45:00 AM 8.48 47.264 0.029 6.7 2.27 11.4
4/13/2022 1:00:00 AM 8.41 47.138 0.029 6.7 2.27 11.42
4/13/2022 1:15:00 AM 8.34 47.012 0.029 6.7 2.15 11.44
4/13/2022 1:30:00 AM 8.27 46.886 0.029 6.7 2.34 11.46
4/13/2022 1:45:00 AM 8.21 46.778 0.029 6.7 2.23 11.48
4/13/2022 2:00:00 AM 8.14 46.652 0.029 6.7 2.36 11.5
4/13/2022 2:15:00 AM 8.07 46.526 0.029 6.7 2.25 11.52
4/13/2022 2:30:00 AM 8.01 46.418 0.029 6.71 2.27 11.53
4/13/2022 2:45:00 AM 7.94 46.292 0.029 6.7 2.46 11.55
4/13/2022 3:00:00 AM 7.88 46.184 0.029 6.7 2.21 11.57
4/13/2022 3:15:00 AM 7.82 46.076 0.029 6.7 2.17 11.58
4/13/2022 3:30:00 AM 7.76 45.968 0.029 6.71 2.23 11.6
4/13/2022 3:45:00 AM 7.7 45.86 0.029 6.7 2.27 11.62
4/13/2022 4:00:00 AM 7.64 45.752 0.029 6.7 2.17 11.64
4/13/2022 4:15:00 AM 7.6 45.68 0.029 6.7 2.13 11.65
4/13/2022 4:30:00 AM 7.57 45.626 0.029 6.7 2.15 11.67
4/13/2022 4:45:00 AM 7.53 45.554 0.029 6.7 2.2 11.69
4/13/2022 5:00:00 AM 7.5 45.5 0.029 6.71 2.13 11.7
4/13/2022 5:15:00 AM 7.47 45.446 0.029 6.71 2.2 11.71
4/13/2022 5:30:00 AM 7.44 45.392 0.029 6.71 2.16 11.72
4/13/2022 5:45:00 AM 7.41 45.338 0.029 6.72 2.19 11.72
4/13/2022 6:00:00 AM 7.39 45.302 0.029 6.72 2.16 11.73
4/13/2022 6:15:00 AM 7.37 45.266 0.029 6.71 2.13 11.74
4/13/2022 6:30:00 AM 7.34 45.212 0.029 6.71 2.16 11.74
4/13/2022 6:45:00 AM 7.31 45.158 0.029 6.72 2.17 11.76
4/13/2022 7:00:00 AM 7.29 45.122 0.029 6.72 2.21 11.77
4/13/2022 7:15:00 AM 7.28 45.104 0.029 6.73 2.19 11.79
4/13/2022 7:30:00 AM 7.26 45.068 0.029 6.73 2.05 11.81
4/13/2022 7:45:00 AM 7.24 45.032 0.029 6.74 2.23 11.83
4/13/2022 8:00:00 AM 7.25 45.05 0.029 6.76 2.06 11.87
4/13/2022 8:15:00 AM 7.28 45.104 0.029 6.77 2.06 11.91
4/13/2022 8:30:00 AM 7.3 45.14 0.029 6.78 1.99 11.91
4/13/2022 8:45:00 AM 7.32 45.176 0.029 6.79 1.96 11.92
4/13/2022 9:00:00 AM 7.35 45.23 0.029 6.79 1.95 11.91
4/13/2022 9:15:00 AM 7.38 45.284 0.029 6.79 1.94 11.9
4/13/2022 9:30:00 AM 7.41 45.338 0.029 6.8 2.02 11.9
4/13/2022 9:45:00 AM 7.46 45.428 0.029 6.8 1.98 11.9
4/13/2022 10:00:00 AM 7.53 45.554 0.029 6.81 1.97 11.89
4/13/2022 10:15:00 AM 7.62 45.716 0.029 6.82 1.97 11.89
4/13/2022 10:30:00 AM 7.72 45.896 0.029 6.83 1.9 11.87
4/13/2022 10:45:00 AM 7.87 46.166 0.029 6.84 1.88 11.85
4/13/2022 11:00:00 AM 8.04 46.472 0.029 6.85 1.92 11.8
4/13/2022 11:15:00 AM 8.26 46.868 0.029 6.85 1.96 11.76
4/13/2022 11:30:00 AM 8.43 47.174 0.029 6.86 1.97 11.71
4/13/2022 11:45:00 AM 8.57 47.426 0.029 6.86 1.88 11.67
4/13/2022 12:00:00 PM 8.77 47.786 0.029 6.87 2.02 11.62
4/13/2022 12:15:00 PM 8.95 48.11 0.029 6.87 1.91 11.56
4/13/2022 12:30:00 PM 9.02 48.236 0.029 6.88 2.09 11.51
4/13/2022 12:45:00 PM 9.17 48.506 0.029 6.88 1.92 11.46
4/13/2022 1:00:00 PM 9.35 48.83 0.029 6.88 2.05 11.42
4/13/2022 1:15:00 PM 9.44 48.992 0.029 6.88 1.86 11.38
4/13/2022 1:30:00 PM 9.58 49.244 0.028 6.88 1.95 11.35
4/13/2022 1:45:00 PM 9.73 49.514 0.028 6.88 1.88 11.32
4/13/2022 2:00:00 PM 9.81 49.658 0.028 6.88 1.84 11.29
4/13/2022 2:15:00 PM 9.86 49.748 0.028 6.88 2.32 11.24
4/13/2022 2:30:00 PM 9.95 49.91 0.028 6.87 2.02 11.22
4/13/2022 2:45:00 PM 10.05 50.09 0.028 6.88 1.9 11.18
4/13/2022 3:00:00 PM 10.09 50.162 0.028 6.88 1.95 11.17
4/13/2022 3:15:00 PM 10.16 50.288 0.028 6.88 2.1 11.16
4/13/2022 3:30:00 PM 10.23 50.414 0.028 6.89 1.93 11.14
4/13/2022 3:45:00 PM 10.28 50.504 0.028 6.88 2 11.12
4/13/2022 4:00:00 PM 10.35 50.63 0.028 6.89 1.89 11.1
4/13/2022 4:15:00 PM 10.48 50.864 0.028 6.88 2.04 11.09
4/13/2022 4:30:00 PM 10.55 50.99 0.028 6.88 2 11.06
4/13/2022 4:45:00 PM 10.62 51.116 0.028 6.88 2.07 11.04
4/13/2022 5:00:00 PM 10.67 51.206 0.028 6.88 2.03 11
4/13/2022 5:15:00 PM 10.63 51.134 0.028 6.86 2.03 10.93
4/13/2022 5:30:00 PM 10.64 51.152 0.029 6.84 2.03 10.91
4/13/2022 5:45:00 PM 10.67 51.206 0.029 6.85 2.1 10.89
4/13/2022 6:00:00 PM 10.67 51.206 0.029 6.83 2.14 10.87
4/13/2022 6:15:00 PM 10.66 51.188 0.029 6.83 1.98 10.88
4/13/2022 6:30:00 PM 10.66 51.188 0.029 6.82 2.07 10.89
4/13/2022 6:45:00 PM 10.65 51.17 0.029 6.82 1.99 10.89
4/13/2022 7:00:00 PM 10.63 51.134 0.029 6.82 1.94 10.87
4/13/2022 7:15:00 PM 10.61 51.098 0.029 6.82 2.11 10.85
4/13/2022 7:30:00 PM 10.57 51.026 0.029 6.8 2.29 10.83
4/13/2022 7:45:00 PM 10.54 50.972 0.029 6.79 2.17 10.81
4/13/2022 8:00:00 PM 10.49 50.882 0.029 6.78 2.06 10.79
4/13/2022 8:15:00 PM 10.45 50.81 0.029 6.77 2.08 10.79
4/13/2022 8:30:00 PM 10.41 50.738 0.029 6.76 2.17 10.79
4/13/2022 8:45:00 PM 10.37 50.666 0.029 6.77 2.17 10.8
4/13/2022 9:00:00 PM 10.34 50.612 0.029 6.76 2.42 10.8
4/13/2022 9:15:00 PM 10.31 50.558 0.029 6.76 2.13 10.81
4/13/2022 9:30:00 PM 10.28 50.504 0.029 6.76 2.22 10.82
4/13/2022 9:45:00 PM 10.26 50.468 0.029 6.76 2.14 10.82
4/13/2022 10:00:00 PM 10.23 50.414 0.029 6.76 2.13 10.83
4/13/2022 10:15:00 PM 10.19 50.342 0.029 6.75 2.31 10.83
4/13/2022 10:30:00 PM 10.14 50.252 0.029 6.75 2.31 10.84
4/13/2022 10:45:00 PM 10.09 50.162 0.029 6.74 2.26 10.85
4/13/2022 11:00:00 PM 10.05 50.09 0.029 6.74 2.26 10.86
4/13/2022 11:15:00 PM 10.01 50.018 0.029 6.73 2.21 10.87
4/13/2022 11:30:00 PM 9.98 49.964 0.029 6.73 2.17 10.87
4/13/2022 11:45:00 PM 9.96 49.928 0.029 6.73 2.2 10.88
4/14/2022 12:00:00 AM 9.93 49.874 0.029 6.73 2.5 10.89
4/14/2022 12:15:00 AM 9.88 49.784 0.029 6.73 2.11 10.9
4/14/2022 12:30:00 AM 9.83 49.694 0.029 6.72 2.2 10.91
4/14/2022 12:45:00 AM 9.79 49.622 0.029 6.72 2.26 10.92
4/14/2022 1:00:00 AM 9.76 49.568 0.029 6.71 2.23 10.93
4/14/2022 1:15:00 AM 9.72 49.496 0.029 6.72 2.24 10.94
4/14/2022 1:30:00 AM 9.69 49.442 0.029 6.72 2.4 10.96
4/14/2022 1:45:00 AM 9.65 49.37 0.029 6.72 2.21 10.97
4/14/2022 2:00:00 AM 9.6 49.28 0.029 6.71 2.28 10.98
4/14/2022 2:15:00 AM 9.55 49.19 0.029 6.71 2.18 10.98
4/14/2022 2:30:00 AM 9.51 49.118 0.029 6.71 2.22 10.99
4/14/2022 2:45:00 AM 9.47 49.046 0.029 6.7 2.23 11.01
4/14/2022 3:00:00 AM 9.42 48.956 0.029 6.71 2.28 11.01
4/14/2022 3:15:00 AM 9.39 48.902 0.029 6.71 2.19 11.03
4/14/2022 3:30:00 AM 9.35 48.83 0.029 6.71 2.3 11.04
4/14/2022 3:45:00 AM 9.3 48.74 0.029 6.71 2.2 11.05
4/14/2022 4:00:00 AM 9.26 48.668 0.029 6.71 2.18 11.05
4/14/2022 4:15:00 AM 9.21 48.578 0.029 6.71 2.28 11.07
4/14/2022 4:30:00 AM 9.17 48.506 0.03 6.71 2.21 11.08
4/14/2022 4:45:00 AM 9.13 48.434 0.03 6.7 2.21 11.09
4/14/2022 5:00:00 AM 9.08 48.344 0.03 6.71 2.21 11.09
4/14/2022 5:15:00 AM 9.04 48.272 0.03 6.71 2.25 11.1
4/14/2022 5:30:00 AM 8.99 48.182 0.03 6.71 2.25 11.12
4/14/2022 5:45:00 AM 8.95 48.11 0.03 6.71 2.21 11.13
4/14/2022 6:00:00 AM 8.9 48.02 0.03 6.72 2.17 11.15
4/14/2022 6:15:00 AM 8.86 47.948 0.029 6.72 2.24 11.16
4/14/2022 6:30:00 AM 8.82 47.876 0.03 6.71 2.31 11.17
4/14/2022 6:45:00 AM 8.78 47.804 0.029 6.71 2.27 11.19
4/14/2022 7:00:00 AM 8.75 47.75 0.03 6.72 2.24 11.22
4/14/2022 7:15:00 AM 8.73 47.714 0.029 6.73 2.21 11.26
4/14/2022 7:30:00 AM 8.72 47.696 0.029 6.74 2.13 11.3
4/14/2022 7:45:00 AM 8.71 47.678 0.029 6.75 2.24 11.32
4/14/2022 8:00:00 AM 8.7 47.66 0.029 6.76 2.14 11.34
4/14/2022 8:15:00 AM 8.72 47.696 0.029 6.77 2.15 11.37
4/14/2022 8:30:00 AM 8.74 47.732 0.029 6.77 2.14 11.38
4/14/2022 8:45:00 AM 8.81 47.858 0.029 6.79 2.11 11.39
4/14/2022 9:00:00 AM 8.91 48.038 0.029 6.81 2.09 11.4
4/14/2022 9:15:00 AM 9.02 48.236 0.029 6.82 2.06 11.39
4/14/2022 9:30:00 AM 9.17 48.506 0.029 6.84 1.99 11.37
4/14/2022 9:45:00 AM 9.28 48.704 0.029 6.85 2.01 11.34
4/14/2022 10:00:00 AM 9.38 48.884 0.029 6.86 2 11.32
4/14/2022 10:15:00 AM 9.48 49.064 0.029 6.87 2.01 11.29
4/14/2022 10:30:00 AM 9.64 49.352 0.029 6.88 2.05 11.26
4/14/2022 10:45:00 AM 9.72 49.496 0.029 6.88 2.05 11.22
4/14/2022 11:00:00 AM 9.75 49.55 0.029 6.88 1.99 11.19
4/14/2022 11:15:00 AM 9.83 49.694 0.029 6.89 2.06 11.17
4/14/2022 11:30:00 AM 9.89 49.802 0.029 6.88 2.07 11.14
4/14/2022 11:45:00 AM 9.96 49.928 0.029 6.88 2.06 11.12
4/14/2022 12:00:00 PM 9.97 49.946 0.029 6.88 2.03 11.11
4/14/2022 12:15:00 PM 9.94 49.892 0.029 6.87 2.13 11.11
4/14/2022 12:30:00 PM 9.94 49.892 0.029 6.87 2.06 11.13
4/14/2022 12:45:00 PM 9.94 49.892 0.029 6.88 2.21 11.14
4/14/2022 1:00:00 PM 9.9 49.82 0.029 6.87 2.12 11.15
4/14/2022 1:15:00 PM 9.89 49.802 0.029 6.88 2.27 11.17
4/14/2022 1:30:00 PM 9.89 49.802 0.029 6.89 2.16 11.19
4/14/2022 1:45:00 PM 9.88 49.784 0.029 6.89 2.2 11.21
4/14/2022 2:00:00 PM 9.88 49.784 0.029 6.89 2.12 11.21
4/14/2022 2:15:00 PM 9.89 49.802 0.029 6.89 2.21 11.22
4/14/2022 2:30:00 PM 9.87 49.766 0.029 6.9 2.08 11.23
4/14/2022 2:45:00 PM 9.91 49.838 0.029 6.9 2.11 11.23
4/14/2022 3:00:00 PM 10.07 50.126 0.029 6.9 2.18 11.24
4/14/2022 3:15:00 PM 10.24 50.432 0.029 6.89 2.06 11.21
4/14/2022 3:30:00 PM 10.21 50.378 0.029 6.89 2.28 11.19
4/14/2022 3:45:00 PM 10.25 50.45 0.029 6.9 2.15 11.18
4/14/2022 4:00:00 PM 10.37 50.666 0.029 6.9 2.11 11.15
4/14/2022 4:15:00 PM 10.44 50.792 0.029 6.89 2.31 11.12
4/14/2022 4:30:00 PM 10.45 50.81 0.028 6.89 2.08 11.11
4/14/2022 4:45:00 PM 10.44 50.792 0.028 6.9 2.1 11.09
4/14/2022 5:00:00 PM 10.36 50.648 0.029 6.9 2.05 11.09
4/14/2022 5:15:00 PM 10.33 50.594 0.029 6.89 2.25 11.09
4/14/2022 5:30:00 PM 10.27 50.486 0.029 6.88 2.06 11.09
4/14/2022 5:45:00 PM 10.18 50.324 0.029 6.88 2.2 11.1
4/14/2022 6:00:00 PM 10.08 50.144 0.029 6.86 2.29 11.1
4/14/2022 6:15:00 PM 10.01 50.018 0.029 6.86 2.12 11.11
4/14/2022 6:30:00 PM 9.92 49.856 0.029 6.85 2.16 11.11
4/14/2022 6:45:00 PM 9.84 49.712 0.029 6.85 2.16 11.11
4/14/2022 7:00:00 PM 9.74 49.532 0.029 6.84 2.17 11.12
4/14/2022 7:15:00 PM 9.62 49.316 0.029 6.84 2.12 11.13
4/14/2022 7:30:00 PM 9.52 49.136 0.029 6.83 2.1 11.13
4/14/2022 7:45:00 PM 9.43 48.974 0.029 6.81 2.04 11.13
4/14/2022 8:00:00 PM 9.34 48.812 0.029 6.79 2.4 11.14
4/14/2022 8:15:00 PM 9.26 48.668 0.029 6.78 2.25 11.14
4/14/2022 8:30:00 PM 9.17 48.506 0.029 6.78 2.3 11.16
4/14/2022 8:45:00 PM 9.09 48.362 0.029 6.78 2.16 11.18
4/14/2022 9:00:00 PM 8.99 48.182 0.029 6.77 2.23 11.21
4/14/2022 9:15:00 PM 8.91 48.038 0.029 6.77 2.3 11.23
4/14/2022 9:30:00 PM 8.81 47.858 0.029 6.76 2.22 11.26
4/14/2022 9:45:00 PM 8.72 47.696 0.029 6.76 2.29 11.29
4/14/2022 10:00:00 PM 8.62 47.516 0.029 6.76 2.25 11.32
4/14/2022 10:15:00 PM 8.52 47.336 0.029 6.75 2.3 11.35
4/14/2022 10:30:00 PM 8.43 47.174 0.029 6.75 2.13 11.38
4/14/2022 10:45:00 PM 8.33 46.994 0.029 6.73 2.15 11.4
4/14/2022 11:00:00 PM 8.24 46.832 0.029 6.73 2.08 11.43
4/14/2022 11:15:00 PM 8.16 46.688 0.029 6.73 2.23 11.46
4/14/2022 11:30:00 PM 8.07 46.526 0.029 6.73 2.07 11.48
4/14/2022 11:45:00 PM 7.99 46.382 0.029 6.72 2.25 11.5
4/15/2022 12:00:00 AM 7.91 46.238 0.029 6.72 2.24 11.53
4/15/2022 12:15:00 AM 7.83 46.094 0.029 6.73 2.09 11.55
4/15/2022 12:30:00 AM 7.75 45.95 0.029 6.73 2.08 11.58
4/15/2022 12:45:00 AM 7.67 45.806 0.029 6.72 2.14 11.6
4/15/2022 1:00:00 AM 7.59 45.662 0.029 6.71 2.54 11.63
4/15/2022 1:15:00 AM 7.51 45.518 0.029 6.72 2.12 11.66
4/15/2022 1:30:00 AM 7.44 45.392 0.029 6.72 2.08 11.68
4/15/2022 1:45:00 AM 7.36 45.248 0.029 6.72 2.04 11.7
4/15/2022 2:00:00 AM 7.29 45.122 0.029 6.71 2.16 11.72
4/15/2022 2:15:00 AM 7.21 44.978 0.029 6.72 2.54 11.75
4/15/2022 2:30:00 AM 7.14 44.852 0.029 6.72 2.06 11.77
4/15/2022 2:45:00 AM 7.07 44.726 0.029 6.72 2.03 11.79
4/15/2022 3:00:00 AM 6.99 44.582 0.029 6.72 2.03 11.81
4/15/2022 3:15:00 AM 6.92 44.456 0.029 6.71 2.16 11.84
4/15/2022 3:30:00 AM 6.85 44.33 0.029 6.71 2.11 11.86
4/15/2022 3:45:00 AM 6.78 44.204 0.029 6.71 2.16 11.89
4/15/2022 4:00:00 AM 6.7 44.06 0.029 6.72 2.35 11.91
4/15/2022 4:15:00 AM 6.63 43.934 0.029 6.71 2.17 11.93
4/15/2022 4:30:00 AM 6.57 43.826 0.029 6.71 2.51 11.95
4/15/2022 4:45:00 AM 6.5 43.7 0.029 6.71 2.03 11.98
4/15/2022 5:00:00 AM 6.43 43.574 0.029 6.72 2.03 12
4/15/2022 5:15:00 AM 6.36 43.448 0.029 6.64 2.05 12.02
4/15/2022 5:30:00 AM 6.3 43.34 0.029 6.68 2.04 12.04
4/15/2022 5:45:00 AM 6.24 43.232 0.029 6.71 1.99 12.06
4/15/2022 6:00:00 AM 6.17 43.106 0.029 6.7 2.13 12.08
4/15/2022 6:15:00 AM 6.11 42.998 0.029 6.7 1.96 12.1
4/15/2022 6:30:00 AM 6.05 42.89 0.029 6.71 2 12.13
4/15/2022 6:45:00 AM 5.99 42.782 0.029 6.71 2.04 12.15
4/15/2022 7:00:00 AM 5.94 42.692 0.029 6.71 1.96 12.19
4/15/2022 7:15:00 AM 5.9 42.62 0.029 6.7 1.9 12.22
4/15/2022 7:30:00 AM 5.85 42.53 0.029 6.73 2.03 12.25
4/15/2022 7:45:00 AM 5.81 42.458 0.029 6.74 2.04 12.29
4/15/2022 8:00:00 AM 5.78 42.404 0.029 6.74 1.95 12.31
4/15/2022 8:15:00 AM 5.76 42.368 0.029 6.61 1.9 12.34
4/15/2022 8:30:00 AM 5.77 42.386 0.029 6.76 1.83 12.36
4/15/2022 8:45:00 AM 5.79 42.422 0.029 6.77 1.91 12.38
4/15/2022 9:00:00 AM 5.83 42.494 0.029 6.79 1.86 12.39
4/15/2022 9:15:00 AM 5.87 42.566 0.029 6.71 1.85 12.39
4/15/2022 9:30:00 AM 5.94 42.692 0.029 6.8 1.83 12.38
4/15/2022 9:45:00 AM 6.03 42.854 0.029 6.8 1.8 12.37
4/15/2022 10:00:00 AM 6.14 43.052 0.029 6.81 1.81 12.36
4/15/2022 10:15:00 AM 6.28 43.304 0.029 6.82 1.85 12.33
4/15/2022 10:30:00 AM 6.44 43.592 0.029 6.84 1.79 12.29
4/15/2022 10:45:00 AM 6.61 43.898 0.029 6.85 1.81 12.26
4/15/2022 11:00:00 AM 6.8 44.24 0.029 6.85 1.81 12.2
4/15/2022 11:15:00 AM 7.01 44.618 0.029 6.86 1.74 12.15
4/15/2022 11:30:00 AM 7.22 44.996 0.029 6.87 1.74 12.09
4/15/2022 11:45:00 AM 7.44 45.392 0.029 6.87 1.76 12.03
4/15/2022 12:00:00 PM 7.68 45.824 0.029 6.87 1.86 11.96
4/15/2022 12:15:00 PM 7.96 46.328 0.029 6.88 1.84 11.9
4/15/2022 12:30:00 PM 8.11 46.598 0.029 6.88 1.77 11.82
4/15/2022 12:45:00 PM 8.28 46.904 0.029 6.89 1.75 11.77
4/15/2022 1:00:00 PM 8.48 47.264 0.029 6.89 1.92 11.72
4/15/2022 1:15:00 PM 8.77 47.786 0.029 6.9 1.75 11.66
4/15/2022 1:30:00 PM 9 48.2 0.029 6.89 1.84 11.6
4/15/2022 1:45:00 PM 9.13 48.434 0.029 6.9 1.99 11.53
4/15/2022 2:00:00 PM 9.12 48.416 0.029 6.89 1.89 11.49
4/15/2022 2:15:00 PM 9.19 48.542 0.029 6.9 1.89 11.48
4/15/2022 2:30:00 PM 9.36 48.848 0.029 6.9 1.81 11.45
4/15/2022 2:45:00 PM 9.61 49.298 0.029 6.9 1.9 11.39
4/15/2022 3:00:00 PM 9.67 49.406 0.029 6.91 1.77 11.36
4/15/2022 3:15:00 PM 9.75 49.55 0.029 6.9 1.79 11.34
4/15/2022 3:30:00 PM 9.7 49.46 0.029 6.9 1.86 11.32
4/15/2022 3:45:00 PM 9.63 49.334 0.029 6.9 2.02 11.29
4/15/2022 4:00:00 PM 9.61 49.298 0.029 6.9 1.86 11.29
4/15/2022 4:15:00 PM 9.75 49.55 0.029 6.9 1.85 11.29
4/15/2022 4:30:00 PM 9.78 49.604 0.029 6.89 1.9 11.28
4/15/2022 4:45:00 PM 9.77 49.586 0.029 6.9 1.88 11.26
4/15/2022 5:00:00 PM 9.76 49.568 0.029 6.89 1.85 11.25
4/15/2022 5:15:00 PM 9.72 49.496 0.029 6.89 1.92 11.24
4/15/2022 5:30:00 PM 9.75 49.55 0.029 6.88 1.97 11.24
4/15/2022 5:45:00 PM 9.71 49.478 0.029 6.89 1.88 11.23
4/15/2022 6:00:00 PM 9.66 49.388 0.029 6.88 1.95 11.23
4/15/2022 6:15:00 PM 9.62 49.316 0.029 6.88 1.83 11.22
4/15/2022 6:30:00 PM 9.56 49.208 0.029 6.87 2.08 11.21
4/15/2022 6:45:00 PM 9.48 49.064 0.029 6.86 2.02 11.19
4/15/2022 7:00:00 PM 9.44 48.992 0.029 6.86 1.87 11.2
4/15/2022 7:15:00 PM 9.39 48.902 0.029 6.84 1.88 11.19
4/15/2022 7:30:00 PM 9.33 48.794 0.029 6.84 1.95 11.18
4/15/2022 7:45:00 PM 9.27 48.686 0.029 6.82 2.74 11.17
4/15/2022 8:00:00 PM 9.21 48.578 0.029 6.8 2.08 11.16
4/15/2022 8:15:00 PM 9.17 48.506 0.029 6.8 1.98 11.16
4/15/2022 8:30:00 PM 9.14 48.452 0.029 6.79 2.48 11.16
4/15/2022 8:45:00 PM 9.09 48.362 0.029 6.78 2.14 11.17
4/15/2022 9:00:00 PM 9.03 48.254 0.029 6.77 2 11.18
4/15/2022 9:15:00 PM 8.98 48.164 0.029 6.77 2.05 11.19
4/15/2022 9:30:00 PM 8.93 48.074 0.029 6.77 2.01 11.21
4/15/2022 9:45:00 PM 8.88 47.984 0.029 6.76 2.14 11.21
4/15/2022 10:00:00 PM 8.84 47.912 0.03 6.76 2.21 11.22
4/15/2022 10:15:00 PM 8.8 47.84 0.03 6.76 2.07 11.24
4/15/2022 10:30:00 PM 8.75 47.75 0.03 6.75 2.23 11.25
4/15/2022 10:45:00 PM 8.71 47.678 0.03 6.76 2.07 11.26
4/15/2022 11:00:00 PM 8.67 47.606 0.03 6.76 2.14 11.28
4/15/2022 11:15:00 PM 8.64 47.552 0.03 6.75 2.04 11.28
4/15/2022 11:30:00 PM 8.6 47.48 0.03 6.75 2.05 11.3
4/15/2022 11:45:00 PM 8.57 47.426 0.03 6.75 2.21 11.3
4/16/2022 12:00:00 AM 8.54 47.372 0.03 6.76 2.07 11.31
4/16/2022 12:15:00 AM 8.51 47.318 0.03 6.75 2.04 11.32
4/16/2022 12:30:00 AM 8.48 47.264 0.03 6.75 2.21 11.32
4/16/2022 12:45:00 AM 8.45 47.21 0.03 6.76 1.97 11.33
4/16/2022 1:00:00 AM 8.42 47.156 0.03 6.75 2.03 11.34
4/16/2022 1:15:00 AM 8.39 47.102 0.03 6.75 2.26 11.35
4/16/2022 1:30:00 AM 8.37 47.066 0.03 6.75 1.99 11.36
4/16/2022 1:45:00 AM 8.35 47.03 0.03 6.76 2.02 11.37
4/16/2022 2:00:00 AM 8.33 46.994 0.03 6.77 2.13 11.38
4/16/2022 2:15:00 AM 8.32 46.976 0.03 6.75 2.01 11.39
4/16/2022 2:30:00 AM 8.3 46.94 0.03 6.75 2.07 11.39
4/16/2022 2:45:00 AM 8.28 46.904 0.03 6.76 2.06 11.4
4/16/2022 3:00:00 AM 8.26 46.868 0.03 6.75 1.89 11.41
4/16/2022 3:15:00 AM 8.24 46.832 0.03 6.75 2 11.41
4/16/2022 3:30:00 AM 8.22 46.796 0.03 6.75 2.03 11.41
4/16/2022 3:45:00 AM 8.2 46.76 0.03 6.75 2.07 11.42
4/16/2022 4:00:00 AM 8.18 46.724 0.03 6.75 1.95 11.43
4/16/2022 4:15:00 AM 8.16 46.688 0.03 6.75 1.94 11.43
4/16/2022 4:30:00 AM 8.15 46.67 0.03 6.75 1.98 11.44
4/16/2022 4:45:00 AM 8.13 46.634 0.03 6.74 2.02 11.45
4/16/2022 5:00:00 AM 8.11 46.598 0.03 6.74 2.14 11.45
4/16/2022 5:15:00 AM 8.09 46.562 0.03 6.74 2.01 11.46
4/16/2022 5:30:00 AM 8.07 46.526 0.03 6.74 2.05 11.46
4/16/2022 5:45:00 AM 8.06 46.508 0.03 6.74 1.97 11.47
4/16/2022 6:00:00 AM 8.04 46.472 0.03 6.75 1.87 11.47
4/16/2022 6:15:00 AM 8.02 46.436 0.03 6.74 2.05 11.48
4/16/2022 6:30:00 AM 8.01 46.418 0.03 6.74 2.04 11.49
4/16/2022 6:45:00 AM 8 46.4 0.03 6.75 2.07 11.49
4/16/2022 7:00:00 AM 7.98 46.364 0.03 6.75 1.97 11.51
4/16/2022 7:15:00 AM 7.97 46.346 0.03 6.76 1.88 11.53
4/16/2022 7:30:00 AM 7.98 46.364 0.03 6.77 2.11 11.56
4/16/2022 7:45:00 AM 7.98 46.364 0.03 6.78 1.85 11.59
4/16/2022 8:00:00 AM 7.99 46.382 0.03 6.79 1.88 11.6
4/16/2022 8:15:00 AM 8 46.4 0.03 6.79 1.87 11.6
4/16/2022 8:30:00 AM 8.01 46.418 0.03 6.8 1.82 11.62
4/16/2022 8:45:00 AM 8.02 46.436 0.03 6.81 1.76 11.61
4/16/2022 9:00:00 AM 8.04 46.472 0.03 6.81 1.92 11.61
4/16/2022 9:15:00 AM 8.06 46.508 0.03 6.82 1.84 11.62
4/16/2022 9:30:00 AM 8.09 46.562 0.03 6.83 1.86 11.63
4/16/2022 9:45:00 AM 8.12 46.616 0.03 6.84 1.74 11.63
4/16/2022 10:00:00 AM 8.14 46.652 0.029 6.83 1.88 11.61
4/16/2022 10:15:00 AM 8.15 46.67 0.029 6.84 1.93 11.59
4/16/2022 10:30:00 AM 8.17 46.706 0.029 6.84 1.75 11.58
4/16/2022 10:45:00 AM 8.19 46.742 0.029 6.83 1.86 11.58
4/16/2022 11:00:00 AM 8.2 46.76 0.029 6.82 1.77 11.57
4/16/2022 11:15:00 AM 8.21 46.778 0.029 6.83 1.81 11.55
4/16/2022 11:30:00 AM 8.23 46.814 0.029 6.82 1.8 11.55
4/16/2022 11:45:00 AM 8.24 46.832 0.029 6.82 2.02 11.56
4/16/2022 12:00:00 PM 8.25 46.85 0.029 6.83 2.09 11.56
4/16/2022 12:15:00 PM 8.27 46.886 0.029 6.83 2.03 11.58
4/16/2022 12:30:00 PM 8.25 46.85 0.029 6.83 2.23 11.57
4/16/2022 12:45:00 PM 8.24 46.832 0.029 6.83 3.1 11.58
4/16/2022 1:00:00 PM 8.24 46.832 0.029 6.83 2.98 11.59
4/16/2022 1:15:00 PM 8.22 46.796 0.029 6.83 3.27 11.6
4/16/2022 1:30:00 PM 8.23 46.814 0.029 6.84 3.04 11.62
4/16/2022 1:45:00 PM 8.24 46.832 0.029 6.84 3.22 11.64
4/16/2022 2:00:00 PM 8.22 46.796 0.029 6.85 3.19 11.64
4/16/2022 2:15:00 PM 8.21 46.778 0.029 6.85 3.81 11.64
4/16/2022 2:30:00 PM 8.2 46.76 0.029 6.85 2.79 11.64
4/16/2022 2:45:00 PM 8.2 46.76 0.029 6.84 2.87 11.64
4/16/2022 3:00:00 PM 8.16 46.688 0.029 6.83 3.03 11.61
4/16/2022 3:15:00 PM 8.13 46.634 0.029 6.83 2.78 11.62
4/16/2022 3:30:00 PM 8.12 46.616 0.029 6.83 2.83 11.62
4/16/2022 3:45:00 PM 8.13 46.634 0.029 6.85 3.07 11.65
4/16/2022 4:00:00 PM 8.13 46.634 0.029 6.85 3.01 11.64
4/16/2022 4:15:00 PM 8.11 46.598 0.029 6.85 2.87 11.65
4/16/2022 4:30:00 PM 8.11 46.598 0.029 6.85 3.05 11.64
4/16/2022 4:45:00 PM 8.09 46.562 0.029 6.85 2.95 11.63
4/16/2022 5:00:00 PM 8.09 46.562 0.029 6.85 2.99 11.64
4/16/2022 5:15:00 PM 8.09 46.562 0.029 6.85 3.04 11.63
4/16/2022 5:30:00 PM 8.1 46.58 0.029 6.85 3.15 11.65
4/16/2022 5:45:00 PM 8.12 46.616 0.029 6.87 3.17 11.66
4/16/2022 6:00:00 PM 8.14 46.652 0.029 6.87 2.92 11.67
4/16/2022 6:15:00 PM 8.15 46.67 0.029 6.86 2.87 11.67
4/16/2022 6:30:00 PM 8.13 46.634 0.029 6.86 2.66 11.65
4/16/2022 6:45:00 PM 8.11 46.598 0.029 6.85 2.62 11.63
4/16/2022 7:00:00 PM 8.1 46.58 0.029 6.86 2.66 11.63
4/16/2022 7:15:00 PM 8.05 46.49 0.029 6.83 2.87 11.6
4/16/2022 7:30:00 PM 8 46.4 0.029 6.82 2.61 11.58
4/16/2022 7:45:00 PM 7.95 46.31 0.029 6.8 2.66 11.57
4/16/2022 8:00:00 PM 7.9 46.22 0.029 6.79 2.58 11.55
4/16/2022 8:15:00 PM 7.85 46.13 0.029 6.78 2.87 11.56
4/16/2022 8:30:00 PM 7.8 46.04 0.029 6.76 2.69 11.56
4/16/2022 8:45:00 PM 7.75 45.95 0.029 6.76 2.71 11.57
4/16/2022 9:00:00 PM 7.69 45.842 0.029 6.76 2.73 11.59
4/16/2022 9:15:00 PM 7.64 45.752 0.029 6.75 2.71 11.6
4/16/2022 9:30:00 PM 7.58 45.644 0.029 6.75 2.67 11.62
4/16/2022 9:45:00 PM 7.52 45.536 0.029 6.74 2.81 11.64
4/16/2022 10:00:00 PM 7.46 45.428 0.029 6.76 2.84 11.65
4/16/2022 10:15:00 PM 7.4 45.32 0.029 6.75 2.52 11.67
4/16/2022 10:30:00 PM 7.33 45.194 0.029 6.74 2.73 11.69
4/16/2022 10:45:00 PM 7.26 45.068 0.029 6.69 8.27 11.72
4/16/2022 11:00:00 PM 7.2 44.96 0.029 6.74 2.57 11.73
4/16/2022 11:15:00 PM 7.14 44.852 0.029 6.73 2.42 11.75
4/16/2022 11:30:00 PM 7.07 44.726 0.029 6.73 2.38 11.77
4/16/2022 11:45:00 PM 7 44.6 0.029 6.74 2.36 11.8
4/17/2022 12:00:00 AM 6.94 44.492 0.029 6.74 2.31 11.82
4/17/2022 12:15:00 AM 6.87 44.366 0.029 6.73 2.24 11.84
4/17/2022 12:30:00 AM 6.8 44.24 0.029 6.72 2.31 11.85
4/17/2022 12:45:00 AM 6.73 44.114 0.029 6.69 2.2 11.87
4/17/2022 1:00:00 AM 6.67 44.006 0.029 6.71 2.26 11.9
4/17/2022 1:15:00 AM 6.6 43.88 0.029 6.73 2.18 11.92
4/17/2022 1:30:00 AM 6.53 43.754 0.029 6.72 2.32 11.94
4/17/2022 1:45:00 AM 6.47 43.646 0.029 6.73 2.17 11.96
4/17/2022 2:00:00 AM 6.4 43.52 0.029 6.71 2.14 11.98
4/17/2022 2:15:00 AM 6.34 43.412 0.029 6.71 2.05 12
4/17/2022 2:30:00 AM 6.28 43.304 0.029 6.71 2.3 12.02
4/17/2022 2:45:00 AM 6.22 43.196 0.029 6.72 2.34 12.05
4/17/2022 3:00:00 AM 6.17 43.106 0.029 6.7 2.21 12.06
4/17/2022 3:15:00 AM 6.14 43.052 0.029 6.71 2.12 12.07
4/17/2022 3:30:00 AM 6.1 42.98 0.029 6.6 2.13 12.09
4/17/2022 3:45:00 AM 6.07 42.926 0.029 6.71 2.08 12.1
4/17/2022 4:00:00 AM 6.03 42.854 0.029 6.72 2.02 12.11
4/17/2022 4:15:00 AM 6 42.8 0.029 6.72 2.07 12.12
4/17/2022 4:30:00 AM 5.97 42.746 0.029 6.71 2.15 12.14
4/17/2022 4:45:00 AM 5.95 42.71 0.029 6.71 2.04 12.14
4/17/2022 5:00:00 AM 5.92 42.656 0.029 6.72 2 12.15
4/17/2022 5:15:00 AM 5.9 42.62 0.029 6.71 2.01 12.17
4/17/2022 5:30:00 AM 5.88 42.584 0.029 6.71 2.02 12.18
4/17/2022 5:45:00 AM 5.86 42.548 0.029 6.72 2.01 12.18
4/17/2022 6:00:00 AM 5.83 42.494 0.029 6.72 2 12.19
4/17/2022 6:15:00 AM 5.81 42.458 0.029 6.71 1.95 12.2
4/17/2022 6:30:00 AM 5.79 42.422 0.029 6.72 1.93 12.21
4/17/2022 6:45:00 AM 5.77 42.386 0.029 6.72 2.07 12.23
4/17/2022 7:00:00 AM 5.76 42.368 0.029 6.73 1.99 12.24
4/17/2022 7:15:00 AM 5.75 42.35 0.029 6.73 1.91 12.27
4/17/2022 7:30:00 AM 5.74 42.332 0.029 6.74 2.07 12.3
4/17/2022 7:45:00 AM 5.74 42.332 0.029 6.75 1.87 12.33
4/17/2022 8:00:00 AM 5.75 42.35 0.029 6.77 1.82 12.37
4/17/2022 8:15:00 AM 5.78 42.404 0.029 6.78 1.82 12.4
4/17/2022 8:30:00 AM 5.74 42.332 0.029 6.78 1.82 12.38
4/17/2022 8:45:00 AM 5.73 42.314 0.029 6.78 1.82 12.41
4/17/2022 9:00:00 AM 5.78 42.404 0.029 6.8 1.88 12.44
4/17/2022 9:15:00 AM 5.82 42.476 0.029 6.81 1.82 12.46
4/17/2022 9:30:00 AM 5.85 42.53 0.029 6.81 1.81 12.46
4/17/2022 9:45:00 AM 5.87 42.566 0.029 6.82 1.73 12.46
4/17/2022 10:00:00 AM 5.9 42.62 0.029 6.8 1.78 12.46
4/17/2022 10:15:00 AM 5.97 42.746 0.029 6.83 1.82 12.46
4/17/2022 10:30:00 AM 6.02 42.836 0.029 6.83 1.83 12.46
4/17/2022 10:45:00 AM 6.07 42.926 0.029 6.83 1.86 12.46
4/17/2022 11:00:00 AM 6.18 43.124 0.029 6.84 1.71 12.44
4/17/2022 11:15:00 AM 6.19 43.142 0.029 6.84 1.77 12.42
4/17/2022 11:30:00 AM 6.19 43.142 0.029 6.84 1.76 12.41
4/17/2022 11:45:00 AM 6.23 43.214 0.029 6.83 1.74 12.41
4/17/2022 12:00:00 PM 6.31 43.358 0.029 6.84 1.73 12.39
4/17/2022 12:15:00 PM 6.41 43.538 0.029 6.85 1.72 12.38
4/17/2022 12:30:00 PM 6.52 43.736 0.029 6.85 1.75 12.36
4/17/2022 12:45:00 PM 6.77 44.186 0.029 6.84 1.76 12.33
4/17/2022 1:00:00 PM 6.86 44.348 0.029 6.85 1.76 12.29
4/17/2022 1:15:00 PM 6.95 44.51 0.029 6.85 1.71 12.26
4/17/2022 1:30:00 PM 7.08 44.744 0.029 6.86 1.78 12.22
4/17/2022 1:45:00 PM 7.24 45.032 0.029 6.86 1.72 12.18
4/17/2022 2:00:00 PM 7.53 45.554 0.029 6.86 1.81 12.12
4/17/2022 2:15:00 PM 7.66 45.788 0.029 6.88 2.17 12.06
4/17/2022 2:30:00 PM 7.9 46.22 0.029 6.86 1.7 11.99
4/17/2022 2:45:00 PM 8.15 46.67 0.029 6.88 1.73 11.93
4/17/2022 3:00:00 PM 8.27 46.886 0.029 6.87 1.74 11.89
4/17/2022 3:15:00 PM 8.35 47.03 0.029 6.89 1.76 11.85
4/17/2022 3:30:00 PM 8.19 46.742 0.029 6.88 1.72 11.83
4/17/2022 3:45:00 PM 8.25 46.85 0.029 6.87 1.7 11.84
4/17/2022 4:00:00 PM 8.23 46.814 0.029 6.87 1.76 11.84
4/17/2022 4:15:00 PM 8.13 46.634 0.029 6.87 1.8 11.83
4/17/2022 4:30:00 PM 8.02 46.436 0.029 6.87 1.79 11.84
4/17/2022 4:45:00 PM 8.03 46.454 0.029 6.87 1.87 11.84
4/17/2022 5:00:00 PM 8.06 46.508 0.029 6.86 1.81 11.84
4/17/2022 5:15:00 PM 8.09 46.562 0.029 6.86 1.8 11.84
4/17/2022 5:30:00 PM 8.04 46.472 0.029 6.86 1.77 11.83
4/17/2022 5:45:00 PM 7.97 46.346 0.029 6.86 1.77 11.84
4/17/2022 6:00:00 PM 7.88 46.184 0.029 6.85 1.98 11.82
4/17/2022 6:15:00 PM 7.79 46.022 0.029 6.85 1.78 11.84
4/17/2022 6:30:00 PM 7.68 45.824 0.029 6.84 1.83 11.86
4/17/2022 6:45:00 PM 7.58 45.644 0.029 6.83 1.8 11.87
4/17/2022 7:00:00 PM 7.53 45.554 0.029 6.82 1.86 11.87
4/17/2022 7:15:00 PM 7.45 45.41 0.029 6.81 1.85 11.86
4/17/2022 7:30:00 PM 7.35 45.23 0.029 6.8 1.85 11.87
4/17/2022 7:45:00 PM 7.26 45.068 0.029 6.79 1.82 11.87
4/17/2022 8:00:00 PM 7.17 44.906 0.029 6.77 1.81 11.87
4/17/2022 8:15:00 PM 7.08 44.744 0.029 6.76 1.9 11.88
4/17/2022 8:30:00 PM 6.99 44.582 0.029 6.75 1.82 11.9
4/17/2022 8:45:00 PM 6.9 44.42 0.029 6.74 1.92 11.92
4/17/2022 9:00:00 PM 6.81 44.258 0.029 6.73 1.91 11.95
4/17/2022 9:15:00 PM 6.71 44.078 0.029 6.74 1.87 11.98
4/17/2022 9:30:00 PM 6.62 43.916 0.029 6.73 2.24 12
4/17/2022 9:45:00 PM 6.52 43.736 0.029 6.72 1.95 12.03
4/17/2022 10:00:00 PM 6.43 43.574 0.029 6.72 1.97 12.07
4/17/2022 10:15:00 PM 6.34 43.412 0.029 6.72 2.04 12.1
4/17/2022 10:30:00 PM 6.25 43.25 0.029 6.72 1.95 12.12
4/17/2022 10:45:00 PM 6.17 43.106 0.029 6.72 2.07 12.15
4/17/2022 11:00:00 PM 6.09 42.962 0.029 6.71 1.89 12.18
4/17/2022 11:15:00 PM 6.01 42.818 0.029 6.69 2.04 12.2
4/17/2022 11:30:00 PM 5.93 42.674 0.03 6.64 1.89 12.22
4/17/2022 11:45:00 PM 5.85 42.53 0.029 6.65 1.97 12.25
4/18/2022 12:00:00 AM 5.78 42.404 0.03 6.71 1.87 12.27
4/18/2022 12:15:00 AM 5.7 42.26 0.03 6.71 2.04 12.3
4/18/2022 12:30:00 AM 5.63 42.134 0.03 6.62 1.88 12.32
4/18/2022 12:45:00 AM 5.57 42.026 0.03 6.71 1.93 12.34
4/18/2022 1:00:00 AM 5.5 41.9 0.03 6.68 1.93 12.36
4/18/2022 1:15:00 AM 5.44 41.792 0.03 6.68 2.32 12.38
4/18/2022 1:30:00 AM 5.38 41.684 0.03 6.71 1.97 12.4
4/18/2022 1:45:00 AM 5.32 41.576 0.03 6.7 1.96 12.42
4/18/2022 2:00:00 AM 5.25 41.45 0.03 6.71 1.9 12.44
4/18/2022 2:15:00 AM 5.2 41.36 0.03 6.71 1.87 12.46
4/18/2022 2:30:00 AM 5.14 41.252 0.03 6.71 1.89 12.48
4/18/2022 2:45:00 AM 5.08 41.144 0.03 6.7 1.92 12.5
4/18/2022 3:00:00 AM 5.02 41.036 0.03 6.71 1.89 12.52
4/18/2022 3:15:00 AM 4.96 40.928 0.03 6.69 1.9 12.54
4/18/2022 3:30:00 AM 4.91 40.838 0.03 6.7 1.89 12.55
4/18/2022 3:45:00 AM 4.85 40.73 0.03 6.71 1.78 12.57
4/18/2022 4:00:00 AM 4.8 40.64 0.03 6.66 1.99 12.59
4/18/2022 4:15:00 AM 4.74 40.532 0.03 6.7 1.93 12.6
4/18/2022 4:30:00 AM 4.68 40.424 0.03 6.7 1.78 12.62
4/18/2022 4:45:00 AM 4.63 40.334 0.03 6.7 1.93 12.63
4/18/2022 5:00:00 AM 4.58 40.244 0.03 6.69 1.79 12.65
4/18/2022 5:15:00 AM 4.52 40.136 0.03 6.66 2.03 12.67
4/18/2022 5:30:00 AM 4.47 40.046 0.03 6.67 1.79 12.68
4/18/2022 5:45:00 AM 4.42 39.956 0.03 6.71 1.78 12.7
4/18/2022 6:00:00 AM 4.37 39.866 0.03 6.71 1.83 12.71
4/18/2022 6:15:00 AM 4.32 39.776 0.03 6.7 1.74 12.73
4/18/2022 6:30:00 AM 4.27 39.686 0.03 6.7 1.93 12.75
4/18/2022 6:45:00 AM 4.22 39.596 0.03 6.72 1.86 12.78
4/18/2022 7:00:00 AM 4.19 39.542 0.03 6.65 1.78 12.82
4/18/2022 7:15:00 AM 4.16 39.488 0.03 6.72 1.77 12.85
4/18/2022 7:30:00 AM 4.14 39.452 0.03 6.72 1.71 12.88
4/18/2022 7:45:00 AM 4.12 39.416 0.03 6.67 1.78 12.93
4/18/2022 8:00:00 AM 4.12 39.416 0.03 6.74 1.69 12.94
4/18/2022 8:15:00 AM 4.12 39.416 0.03 6.69 1.73 12.97
4/18/2022 8:30:00 AM 4.15 39.47 0.03 6.78 1.71 12.98
4/18/2022 8:45:00 AM 4.2 39.56 0.03 6.78 1.71 13
4/18/2022 9:00:00 AM 4.26 39.668 0.03 6.76 1.69 12.99
4/18/2022 9:15:00 AM 4.3 39.74 0.029 6.75 1.64 12.98
4/18/2022 9:30:00 AM 4.37 39.866 0.029 6.81 1.73 12.95
4/18/2022 9:45:00 AM 4.46 40.028 0.029 6.82 1.65 12.94
4/18/2022 10:00:00 AM 4.55 40.19 0.029 6.83 1.63 12.92
4/18/2022 10:15:00 AM 4.64 40.352 0.029 6.8 1.69 12.9
4/18/2022 10:30:00 AM 4.73 40.514 0.029 6.78 1.75 12.88
4/18/2022 10:45:00 AM 4.8 40.64 0.029 6.85 1.64 12.84
4/18/2022 11:00:00 AM 4.87 40.766 0.029 6.84 1.64 12.82
4/18/2022 11:15:00 AM 4.93 40.874 0.029 6.79 1.58 12.79
4/18/2022 11:30:00 AM 4.98 40.964 0.029 6.8 1.61 12.76
4/18/2022 11:45:00 AM 5.01 41.018 0.029 6.84 1.61 12.74
4/18/2022 12:00:00 PM 5.05 41.09 0.029 6.83 1.59 12.73
4/18/2022 12:15:00 PM 5.1 41.18 0.029 6.84 1.63 12.71
4/18/2022 12:30:00 PM 5.14 41.252 0.029 6.79 1.61 12.7
4/18/2022 12:45:00 PM 5.2 41.36 0.029 6.81 1.63 12.68
4/18/2022 1:00:00 PM 5.24 41.432 0.029 6.85 1.61 12.67
4/18/2022 1:15:00 PM 5.26 41.468 0.029 6.84 1.61 12.65
4/18/2022 1:30:00 PM 5.23 41.414 0.029 6.84 1.72 12.62
4/18/2022 1:45:00 PM 5.2 41.36 0.029 6.84 1.63 12.61
4/18/2022 2:00:00 PM 5.13 41.234 0.029 6.82 1.63 12.6
4/18/2022 2:15:00 PM 5.1 41.18 0.029 6.82 1.8 12.62
4/18/2022 2:30:00 PM 5.07 41.126 0.029 6.82 1.63 12.63
4/18/2022 2:45:00 PM 5.05 41.09 0.029 6.82 1.67 12.62
4/18/2022 3:00:00 PM 4.98 40.964 0.029 6.81 1.58 12.62
4/18/2022 3:15:00 PM 4.89 40.802 0.029 6.8 1.7 12.63
4/18/2022 3:30:00 PM 4.79 40.622 0.029 6.8 1.74 12.64
4/18/2022 3:45:00 PM 4.69 40.442 0.029 6.8 1.72 12.66
4/18/2022 4:00:00 PM 4.63 40.334 0.029 6.66 1.66 12.67
4/18/2022 4:15:00 PM 4.6 40.28 0.029 6.78 1.62 12.68
4/18/2022 4:30:00 PM 4.56 40.208 0.029 6.71 1.72 12.7
4/18/2022 4:45:00 PM 4.54 40.172 0.029 6.79 1.7 12.71
4/18/2022 5:00:00 PM 4.51 40.118 0.029 6.78 1.88 12.72
4/18/2022 5:15:00 PM 4.51 40.118 0.029 6.79 1.96 12.74
4/18/2022 5:30:00 PM 4.52 40.136 0.029 6.69 1.93 12.74
4/18/2022 5:45:00 PM 4.5 40.1 0.029 6.79 1.95 12.72
4/18/2022 6:00:00 PM 4.46 40.028 0.029 6.75 1.92 12.71
4/18/2022 6:15:00 PM 4.43 39.974 0.029 6.77 2.08 12.7
4/18/2022 6:30:00 PM 4.37 39.866 0.029 6.77 2.13 12.7
4/18/2022 6:45:00 PM 4.34 39.812 0.029 6.77 2.11 12.72
4/18/2022 7:00:00 PM 4.3 39.74 0.029 6.76 2.36 12.72
4/18/2022 7:15:00 PM 4.27 39.686 0.029 6.75 2.35 12.71
4/18/2022 7:30:00 PM 4.25 39.65 0.029 6.76 2.5 12.7
4/18/2022 7:45:00 PM 4.22 39.596 0.029 6.68 2.41 12.7
4/18/2022 8:00:00 PM 4.2 39.56 0.029 6.75 2.48 12.69
4/18/2022 8:15:00 PM 4.19 39.542 0.029 6.74 2.49 12.68
4/18/2022 8:30:00 PM 4.19 39.542 0.029 6.72 2.53 12.69
4/18/2022 8:45:00 PM 4.18 39.524 0.029 6.73 2.56 12.68
4/18/2022 9:00:00 PM 4.18 39.524 0.029 6.74 2.56 12.69
4/18/2022 9:15:00 PM 4.17 39.506 0.029 6.74 2.49 12.69
4/18/2022 9:30:00 PM 4.18 39.524 0.029 6.74 2.61 12.68
4/18/2022 9:45:00 PM 4.18 39.524 0.029 6.73 2.54 12.69
4/18/2022 10:00:00 PM 4.18 39.524 0.029 6.72 2.47 12.68
4/18/2022 10:15:00 PM 4.18 39.524 0.029 6.73 2.5 12.68
4/18/2022 10:30:00 PM 4.19 39.542 0.029 6.74 2.5 12.67
4/18/2022 10:45:00 PM 4.2 39.56 0.029 6.74 2.65 12.66
4/18/2022 11:00:00 PM 4.21 39.578 0.029 6.74 2.42 12.66
4/18/2022 11:15:00 PM 4.21 39.578 0.029 6.74 2.54 12.66
4/18/2022 11:30:00 PM 4.22 39.596 0.029 6.71 2.47 12.66
4/18/2022 11:45:00 PM 4.22 39.596 0.029 6.74 2.47 12.65
4/19/2022 12:00:00 AM 4.22 39.596 0.029 6.53 2.45 12.65
4/19/2022 12:15:00 AM 4.23 39.614 0.029 6.71 2.45 12.65
4/19/2022 12:30:00 AM 4.24 39.632 0.029 6.73 2.48 12.64
4/19/2022 12:45:00 AM 4.24 39.632 0.029 6.74 2.36 12.65
4/19/2022 1:00:00 AM 4.25 39.65 0.03 6.74 2.29 12.64
4/19/2022 1:15:00 AM 4.26 39.668 0.03 6.74 2.25 12.62
4/19/2022 1:30:00 AM 4.27 39.686 0.03 6.74 2.18 12.63
4/19/2022 1:45:00 AM 4.28 39.704 0.03 6.74 2.13 12.63
4/19/2022 2:00:00 AM 4.29 39.722 0.03 6.7 2.16 12.62
4/19/2022 2:15:00 AM 4.3 39.74 0.03 6.74 2.05 12.61
4/19/2022 2:30:00 AM 4.3 39.74 0.03 6.74 2.12 12.61
4/19/2022 2:45:00 AM 4.31 39.758 0.03 6.75 2.04 12.61
4/19/2022 3:00:00 AM 4.32 39.776 0.03 6.74 2.09 12.6
4/19/2022 3:15:00 AM 4.32 39.776 0.03 6.73 2.12 12.59
4/19/2022 3:30:00 AM 4.33 39.794 0.03 6.74 2.01 12.59
4/19/2022 3:45:00 AM 4.33 39.794 0.03 6.73 1.98 12.59
4/19/2022 4:00:00 AM 4.34 39.812 0.03 6.73 2.04 12.58
4/19/2022 4:15:00 AM 4.34 39.812 0.03 6.74 2.01 12.58
4/19/2022 4:30:00 AM 4.34 39.812 0.03 6.75 1.95 12.57
4/19/2022 4:45:00 AM 4.35 39.83 0.03 6.74 1.9 12.57
4/19/2022 5:00:00 AM 4.35 39.83 0.03 6.74 1.95 12.56
4/19/2022 5:15:00 AM 4.35 39.83 0.03 6.66 1.94 12.57
4/19/2022 5:30:00 AM 4.35 39.83 0.03 6.74 1.88 12.57
4/19/2022 5:45:00 AM 4.36 39.848 0.03 6.7 1.87 12.56
4/19/2022 6:00:00 AM 4.37 39.866 0.03 6.75 2 12.55
4/19/2022 6:15:00 AM 4.37 39.866 0.03 6.75 1.97 12.56
4/19/2022 6:30:00 AM 4.37 39.866 0.03 6.75 1.85 12.55
4/19/2022 6:45:00 AM 4.37 39.866 0.03 6.64 1.83 12.55
4/19/2022 7:00:00 AM 4.38 39.884 0.03 6.72 1.92 12.57
4/19/2022 7:15:00 AM 4.39 39.902 0.03 6.75 1.85 12.58
4/19/2022 7:30:00 AM 4.39 39.902 0.03 6.77 1.81 12.61
4/19/2022 7:45:00 AM 4.4 39.92 0.03 6.64 1.79 12.65
4/19/2022 8:00:00 AM 4.43 39.974 0.03 6.79 1.84 12.67
4/19/2022 8:15:00 AM 4.47 40.046 0.03 6.8 1.74 12.68
4/19/2022 8:30:00 AM 4.5 40.1 0.03 6.8 1.71 12.68
4/19/2022 8:45:00 AM 4.53 40.154 0.03 6.81 1.75 12.7
4/19/2022 9:00:00 AM 4.59 40.262 0.03 6.81 1.79 12.7
4/19/2022 9:15:00 AM 4.6 40.28 0.03 6.82 1.74 12.69
4/19/2022 9:30:00 AM 4.61 40.298 0.03 6.82 1.81 12.69
4/19/2022 9:45:00 AM 4.66 40.388 0.03 6.83 1.81 12.69
4/19/2022 10:00:00 AM 4.7 40.46 0.03 6.83 1.81 12.68
4/19/2022 10:15:00 AM 4.7 40.46 0.03 6.83 1.73 12.67
4/19/2022 10:30:00 AM 4.73 40.514 0.03 6.83 1.86 12.68
4/19/2022 10:45:00 AM 4.85 40.73 0.03 6.8 1.66 12.66
4/19/2022 11:00:00 AM 4.86 40.748 0.029 6.84 1.81 12.64
4/19/2022 11:15:00 AM 4.92 40.856 0.029 6.84 1.76 12.65
4/19/2022 11:30:00 AM 4.97 40.946 0.029 6.85 1.78 12.63
4/19/2022 11:45:00 AM 5.02 41.036 0.029 6.85 1.78 12.62
4/19/2022 12:00:00 PM 5.03 41.054 0.029 6.85 1.78 12.6
4/19/2022 12:15:00 PM 5.17 41.306 0.029 6.8 1.72 12.6
4/19/2022 12:30:00 PM 5.29 41.522 0.029 6.85 1.79 12.56
4/19/2022 12:45:00 PM 5.37 41.666 0.029 6.86 1.79 12.54
4/19/2022 1:00:00 PM 5.36 41.648 0.029 6.85 1.83 12.53
4/19/2022 1:15:00 PM 5.45 41.81 0.029 6.85 1.76 12.51
4/19/2022 1:30:00 PM 5.55 41.99 0.029 6.84 1.72 12.49
4/19/2022 1:45:00 PM 5.57 42.026 0.029 6.86 1.93 12.47
4/19/2022 2:00:00 PM 5.66 42.188 0.029 6.87 1.79 12.44
4/19/2022 2:15:00 PM 5.82 42.476 0.029 6.86 1.84 12.42
4/19/2022 2:30:00 PM 5.91 42.638 0.029 6.87 1.79 12.39
4/19/2022 2:45:00 PM 6 42.8 0.029 6.86 1.84 12.35
4/19/2022 3:00:00 PM 5.99 42.782 0.029 6.86 1.86 12.33
4/19/2022 3:15:00 PM 5.97 42.746 0.029 6.86 1.88 12.33
4/19/2022 3:30:00 PM 6 42.8 0.029 6.86 1.84 12.31
4/19/2022 3:45:00 PM 6.14 43.052 0.029 6.86 1.98 12.29
4/19/2022 4:00:00 PM 6.14 43.052 0.029 6.86 2.14 12.27
4/19/2022 4:15:00 PM 6.11 42.998 0.029 6.86 2.06 12.26
4/19/2022 4:30:00 PM 6.02 42.836 0.029 6.86 2.14 12.24
4/19/2022 4:45:00 PM 6 42.8 0.029 6.85 2.16 12.26
4/19/2022 5:00:00 PM 5.98 42.764 0.029 6.84 2.25 12.27
4/19/2022 5:15:00 PM 5.97 42.746 0.029 6.85 2.4 12.3
4/19/2022 5:30:00 PM 5.96 42.728 0.029 6.85 2.36 12.31
4/19/2022 5:45:00 PM 5.88 42.584 0.029 6.84 2.18 12.31
4/19/2022 6:00:00 PM 5.85 42.53 0.029 6.83 2.17 12.31
4/19/2022 6:15:00 PM 5.8 42.44 0.029 6.83 2.16 12.31
4/19/2022 6:30:00 PM 5.76 42.368 0.029 6.82 2.18 12.29
4/19/2022 6:45:00 PM 5.73 42.314 0.029 6.8 2.06 12.3
4/19/2022 7:00:00 PM 5.71 42.278 0.029 6.81 2.15 12.31
4/19/2022 7:15:00 PM 5.67 42.206 0.029 6.81 2.05 12.32
4/19/2022 7:30:00 PM 5.62 42.116 0.029 6.81 2.07 12.32
4/19/2022 7:45:00 PM 5.58 42.044 0.029 6.8 2.04 12.31
4/19/2022 8:00:00 PM 5.53 41.954 0.029 6.79 2.17 12.31
4/19/2022 8:15:00 PM 5.5 41.9 0.029 6.77 2.27 12.3
4/19/2022 8:30:00 PM 5.47 41.846 0.029 6.76 2.14 12.3
4/19/2022 8:45:00 PM 5.43 41.774 0.029 6.76 2.14 12.31
4/19/2022 9:00:00 PM 5.39 41.702 0.03 6.76 2.13 12.32
4/19/2022 9:15:00 PM 5.36 41.648 0.029 6.76 2.2 12.33
4/19/2022 9:30:00 PM 5.32 41.576 0.029 6.65 2.06 12.35
4/19/2022 9:45:00 PM 5.29 41.522 0.029 6.75 2.15 12.36
4/19/2022 10:00:00 PM 5.26 41.468 0.029 6.75 2.08 12.37
4/19/2022 10:15:00 PM 5.24 41.432 0.029 6.74 2.13 12.38
4/19/2022 10:30:00 PM 5.21 41.378 0.029 6.73 2.04 12.39
4/19/2022 10:45:00 PM 5.19 41.342 0.029 6.74 1.97 12.4
4/19/2022 11:00:00 PM 5.17 41.306 0.029 6.73 1.98 12.41
4/19/2022 11:15:00 PM 5.14 41.252 0.03 6.75 1.99 12.42
4/19/2022 11:30:00 PM 5.13 41.234 0.029 6.73 2.05 12.44
4/19/2022 11:45:00 PM 5.12 41.216 0.029 6.73 1.95 12.44
4/20/2022 12:00:00 AM 5.1 41.18 0.029 6.74 1.99 12.45
4/20/2022 12:15:00 AM 5.09 41.162 0.029 6.74 1.99 12.45
4/20/2022 12:30:00 AM 5.08 41.144 0.029 6.66 1.95 12.46
4/20/2022 12:45:00 AM 5.06 41.108 0.029 6.73 1.99 12.47
4/20/2022 1:00:00 AM 5.05 41.09 0.029 6.73 1.96 12.48
4/20/2022 1:15:00 AM 5.04 41.072 0.029 6.73 2.03 12.48
4/20/2022 1:30:00 AM 5.03 41.054 0.029 6.73 2.05 12.49
4/20/2022 1:45:00 AM 5.02 41.036 0.03 6.73 2 12.5
4/20/2022 2:00:00 AM 5.01 41.018 0.029 6.74 1.97 12.51
4/20/2022 2:15:00 AM 4.99 40.982 0.029 6.73 1.96 12.51
4/20/2022 2:30:00 AM 4.98 40.964 0.029 6.67 2 12.52
4/20/2022 2:45:00 AM 4.97 40.946 0.029 6.74 2.3 12.53
4/20/2022 3:00:00 AM 4.94 40.892 0.029 6.73 2 12.53
4/20/2022 3:15:00 AM 4.91 40.838 0.029 6.74 1.86 12.54
4/20/2022 3:30:00 AM 4.88 40.784 0.029 6.72 2.07 12.55
4/20/2022 3:45:00 AM 4.86 40.748 0.029 6.73 1.81 12.56
4/20/2022 4:00:00 AM 4.83 40.694 0.029 6.73 1.88 12.57
4/20/2022 4:15:00 AM 4.79 40.622 0.029 6.67 1.89 12.58
4/20/2022 4:30:00 AM 4.75 40.55 0.029 6.63 1.89 12.6
4/20/2022 4:45:00 AM 4.71 40.478 0.029 6.73 1.86 12.61
4/20/2022 5:00:00 AM 4.67 40.406 0.029 6.71 1.99 12.63
4/20/2022 5:15:00 AM 4.63 40.334 0.029 6.71 1.92 12.64
4/20/2022 5:30:00 AM 4.6 40.28 0.029 6.71 1.9 12.66
4/20/2022 5:45:00 AM 4.56 40.208 0.029 6.71 1.9 12.67
4/20/2022 6:00:00 AM 4.52 40.136 0.029 6.65 1.92 12.69
4/20/2022 6:15:00 AM 4.48 40.064 0.029 6.64 1.84 12.7
4/20/2022 6:30:00 AM 4.44 39.992 0.03 6.72 1.78 12.73
4/20/2022 6:45:00 AM 4.4 39.92 0.03 6.71 1.84 12.76
4/20/2022 7:00:00 AM 4.37 39.866 0.03 6.72 1.82 12.78
4/20/2022 7:15:00 AM 4.35 39.83 0.03 6.72 1.85 12.82
4/20/2022 7:30:00 AM 4.34 39.812 0.029 6.64 1.79 12.86
4/20/2022 7:45:00 AM 4.33 39.794 0.029 6.73 1.81 12.89
4/20/2022 8:00:00 AM 4.32 39.776 0.029 6.66 1.76 12.91
4/20/2022 8:15:00 AM 4.36 39.848 0.029 6.77 1.75 12.94
4/20/2022 8:30:00 AM 4.39 39.902 0.029 6.75 1.72 12.94
4/20/2022 8:45:00 AM 4.43 39.974 0.029 6.8 1.71 12.95
4/20/2022 9:00:00 AM 4.49 40.082 0.029 6.78 1.66 12.95
4/20/2022 9:15:00 AM 4.56 40.208 0.029 6.76 1.7 12.95
4/20/2022 9:30:00 AM 4.62 40.316 0.029 6.8 1.7 12.94
4/20/2022 9:45:00 AM 4.72 40.496 0.029 6.81 1.72 12.92
4/20/2022 10:00:00 AM 4.82 40.676 0.029 6.81 1.71 12.9
4/20/2022 10:15:00 AM 4.93 40.874 0.029 6.7 1.63 12.87
4/20/2022 10:30:00 AM 5.08 41.144 0.029 6.83 1.64 12.85
4/20/2022 10:45:00 AM 5.23 41.414 0.029 6.71 1.62 12.8
4/20/2022 11:00:00 AM 5.4 41.72 0.029 6.81 1.66 12.77
4/20/2022 11:15:00 AM 5.59 42.062 0.029 6.81 1.66 12.71
4/20/2022 11:30:00 AM 5.77 42.386 0.029 6.84 1.62 12.67
4/20/2022 11:45:00 AM 5.97 42.746 0.029 6.79 1.68 12.62
4/20/2022 12:00:00 PM 6.17 43.106 0.029 6.85 1.62 12.56
4/20/2022 12:15:00 PM 6.38 43.484 0.029 6.85 1.61 12.5
4/20/2022 12:30:00 PM 6.61 43.898 0.029 6.79 1.64 12.44
4/20/2022 12:45:00 PM 6.85 44.33 0.029 6.87 1.66 12.37
4/20/2022 1:00:00 PM 7.06 44.708 0.029 6.87 1.91 12.31
4/20/2022 1:15:00 PM 7.27 45.086 0.029 6.86 1.73 12.25
4/20/2022 1:30:00 PM 7.51 45.518 0.029 6.87 1.66 12.18
4/20/2022 1:45:00 PM 7.77 45.986 0.029 6.88 1.61 12.12
4/20/2022 2:00:00 PM 8.02 46.436 0.029 6.88 1.77 12.05
4/20/2022 2:15:00 PM 8.24 46.832 0.029 6.89 1.62 11.99
4/20/2022 2:30:00 PM 8.44 47.192 0.029 6.88 1.86 11.92
4/20/2022 2:45:00 PM 8.6 47.48 0.029 6.89 1.66 11.87
4/20/2022 3:00:00 PM 8.74 47.732 0.029 6.88 1.66 11.82
4/20/2022 3:15:00 PM 8.85 47.93 0.029 6.88 1.71 11.77
4/20/2022 3:30:00 PM 8.94 48.092 0.029 6.89 1.84 11.74
4/20/2022 3:45:00 PM 9.02 48.236 0.029 6.89 1.65 11.7
4/20/2022 4:00:00 PM 9.05 48.29 0.029 6.89 1.87 11.68
4/20/2022 4:15:00 PM 9.05 48.29 0.029 6.89 1.7 11.66
4/20/2022 4:30:00 PM 9.04 48.272 0.029 6.9 1.67 11.65
4/20/2022 4:45:00 PM 9.01 48.218 0.029 6.88 1.75 11.64
4/20/2022 5:00:00 PM 8.95 48.11 0.029 6.88 1.72 11.64
4/20/2022 5:15:00 PM 8.86 47.948 0.029 6.88 1.74 11.65
4/20/2022 5:30:00 PM 8.78 47.804 0.029 6.87 1.75 11.66
4/20/2022 5:45:00 PM 8.7 47.66 0.029 6.87 1.88 11.66
4/20/2022 6:00:00 PM 8.62 47.516 0.029 6.87 1.81 11.66
4/20/2022 6:15:00 PM 8.54 47.372 0.029 6.86 2.13 11.67
4/20/2022 6:30:00 PM 8.45 47.21 0.029 6.86 1.78 11.68
4/20/2022 6:45:00 PM 8.37 47.066 0.029 6.85 1.86 11.68
4/20/2022 7:00:00 PM 8.29 46.922 0.029 6.83 1.98 11.68
4/20/2022 7:15:00 PM 8.22 46.796 0.029 6.83 1.99 11.7
4/20/2022 7:30:00 PM 8.13 46.634 0.029 6.83 1.85 11.71
4/20/2022 7:45:00 PM 8.03 46.454 0.029 6.81 2.02 11.7
4/20/2022 8:00:00 PM 7.95 46.31 0.029 6.8 2.12 11.7
4/20/2022 8:15:00 PM 7.86 46.148 0.029 6.79 2.07 11.7
4/20/2022 8:30:00 PM 7.77 45.986 0.029 6.78 2.48 11.71
4/20/2022 8:45:00 PM 7.68 45.824 0.029 6.77 2.2 11.73
4/20/2022 9:00:00 PM 7.6 45.68 0.029 6.77 2.15 11.76
4/20/2022 9:15:00 PM 7.51 45.518 0.029 6.76 2.1 11.77
4/20/2022 9:30:00 PM 7.42 45.356 0.029 6.76 2.07 11.8
4/20/2022 9:45:00 PM 7.34 45.212 0.029 6.75 2.03 11.82
4/20/2022 10:00:00 PM 7.25 45.05 0.029 6.74 2.03 11.85
4/20/2022 10:15:00 PM 7.17 44.906 0.029 6.74 2.02 11.87
4/20/2022 10:30:00 PM 7.1 44.78 0.029 6.74 2 11.89
4/20/2022 10:45:00 PM 7.04 44.672 0.029 6.74 1.99 11.91
4/20/2022 11:00:00 PM 6.98 44.564 0.029 6.74 1.95 11.94
4/20/2022 11:15:00 PM 6.91 44.438 0.029 6.74 1.87 11.96
4/20/2022 11:30:00 PM 6.84 44.312 0.029 6.73 1.95 11.98
4/20/2022 11:45:00 PM 6.77 44.186 0.029 6.73 1.93 11.98
4/21/2022 12:00:00 AM 6.72 44.096 0.029 6.74 1.98 12.01
4/21/2022 12:15:00 AM 6.66 43.988 0.029 6.73 1.96 12.03
4/21/2022 12:30:00 AM 6.6 43.88 0.029 6.74 1.94 12.05
4/21/2022 12:45:00 AM 6.55 43.79 0.029 6.73 1.9 12.06
4/21/2022 1:00:00 AM 6.49 43.682 0.029 6.73 1.95 12.07
4/21/2022 1:15:00 AM 6.43 43.574 0.029 6.73 1.94 12.09
4/21/2022 1:30:00 AM 6.37 43.466 0.029 6.73 1.96 12.1
4/21/2022 1:45:00 AM 6.3 43.34 0.029 6.73 1.96 12.12
4/21/2022 2:00:00 AM 6.24 43.232 0.029 6.73 1.95 12.14
4/21/2022 2:15:00 AM 6.18 43.124 0.029 6.74 1.9 12.16
4/21/2022 2:30:00 AM 6.14 43.052 0.029 6.73 1.98 12.17
4/21/2022 2:45:00 AM 6.1 42.98 0.029 6.73 2 12.19
4/21/2022 3:00:00 AM 6.06 42.908 0.029 6.73 2.04 12.2
4/21/2022 3:15:00 AM 6.02 42.836 0.029 6.74 1.92 12.21
4/21/2022 3:30:00 AM 5.99 42.782 0.029 6.73 1.93 12.22
4/21/2022 3:45:00 AM 5.96 42.728 0.03 6.73 1.9 12.23
4/21/2022 4:00:00 AM 5.93 42.674 0.029 6.73 1.83 12.24
4/21/2022 4:15:00 AM 5.91 42.638 0.03 6.74 1.95 12.25
4/21/2022 4:30:00 AM 5.9 42.62 0.03 6.73 1.84 12.26
4/21/2022 4:45:00 AM 5.88 42.584 0.03 6.74 1.91 12.27
4/21/2022 5:00:00 AM 5.87 42.566 0.03 6.74 1.82 12.27
4/21/2022 5:15:00 AM 5.86 42.548 0.03 6.74 1.85 12.27
4/21/2022 5:30:00 AM 5.84 42.512 0.03 6.71 1.88 12.27
4/21/2022 5:45:00 AM 5.83 42.494 0.03 6.75 1.92 12.27
4/21/2022 6:00:00 AM 5.8 42.44 0.03 6.75 1.82 12.28
4/21/2022 6:15:00 AM 5.78 42.404 0.03 6.74 1.82 12.28
4/21/2022 6:30:00 AM 5.75 42.35 0.03 6.74 1.88 12.29
4/21/2022 6:45:00 AM 5.73 42.314 0.03 6.75 1.79 12.31
4/21/2022 7:00:00 AM 5.73 42.314 0.03 6.75 1.81 12.33
4/21/2022 7:15:00 AM 5.75 42.35 0.03 6.76 1.9 12.36
4/21/2022 7:30:00 AM 5.76 42.368 0.03 6.78 1.81 12.39
4/21/2022 7:45:00 AM 5.77 42.386 0.03 6.78 1.73 12.4
4/21/2022 8:00:00 AM 5.79 42.422 0.03 6.78 1.74 12.4
4/21/2022 8:15:00 AM 5.83 42.494 0.029 6.8 1.76 12.42
4/21/2022 8:30:00 AM 5.91 42.638 0.029 6.8 1.75 12.45
4/21/2022 8:45:00 AM 5.99 42.782 0.029 6.83 1.73 12.45
4/21/2022 9:00:00 AM 6.05 42.89 0.029 6.84 1.73 12.45
4/21/2022 9:15:00 AM 6.12 43.016 0.029 6.85 1.7 12.44
4/21/2022 9:30:00 AM 6.2 43.16 0.029 6.85 1.79 12.42
4/21/2022 9:45:00 AM 6.25 43.25 0.029 6.85 1.66 12.4
4/21/2022 10:00:00 AM 6.29 43.322 0.029 6.86 1.76 12.37
4/21/2022 10:15:00 AM 6.33 43.394 0.029 6.77 1.68 12.34
4/21/2022 10:30:00 AM 6.37 43.466 0.029 6.83 1.7 12.31
4/21/2022 10:45:00 AM 6.4 43.52 0.029 6.84 1.74 12.29
4/21/2022 11:00:00 AM 6.44 43.592 0.029 6.76 1.7 12.27
4/21/2022 11:15:00 AM 6.47 43.646 0.029 6.85 1.73 12.25
4/21/2022 11:30:00 AM 6.49 43.682 0.029 6.84 1.74 12.23
4/21/2022 11:45:00 AM 6.51 43.718 0.029 6.83 1.76 12.21
4/21/2022 12:00:00 PM 6.53 43.754 0.029 6.83 1.73 12.19
4/21/2022 12:15:00 PM 6.55 43.79 0.029 6.83 1.73 12.19
4/21/2022 12:30:00 PM 6.58 43.844 0.029 6.83 1.74 12.18
4/21/2022 12:45:00 PM 6.6 43.88 0.029 6.78 1.85 12.18
4/21/2022 1:00:00 PM 6.63 43.934 0.029 6.83 1.91 12.18
4/21/2022 1:15:00 PM 6.66 43.988 0.029 6.83 2.01 12.18
4/21/2022 1:30:00 PM 6.68 44.024 0.029 6.83 2.01 12.16
4/21/2022 1:45:00 PM 6.71 44.078 0.029 6.83 2.03 12.16
4/21/2022 2:00:00 PM 6.74 44.132 0.029 6.83 2.15 12.14
4/21/2022 2:15:00 PM 6.77 44.186 0.029 6.83 2.46 12.14
4/21/2022 2:30:00 PM 6.8 44.24 0.029 6.84 2.83 12.13
4/21/2022 2:45:00 PM 6.83 44.294 0.029 6.84 3.08 12.12
4/21/2022 3:00:00 PM 6.86 44.348 0.029 6.84 3.27 12.11
4/21/2022 3:15:00 PM 6.89 44.402 0.029 6.83 2.98 12.1
4/21/2022 3:30:00 PM 6.92 44.456 0.029 6.84 2.95 12.09
4/21/2022 3:45:00 PM 6.95 44.51 0.029 6.84 2.65 12.08
4/21/2022 4:00:00 PM 6.97 44.546 0.029 6.84 2.48 12.07
4/21/2022 4:15:00 PM 6.99 44.582 0.029 6.83 2.38 12.06
4/21/2022 4:30:00 PM 7.01 44.618 0.029 6.83 2.36 12.05
4/21/2022 4:45:00 PM 7.04 44.672 0.029 6.83 2.39 12.04
4/21/2022 5:00:00 PM 7.08 44.744 0.029 6.83 2.33 12.04
4/21/2022 5:15:00 PM 7.1 44.78 0.029 6.83 2.38 12.02
4/21/2022 5:30:00 PM 7.11 44.798 0.029 6.83 2.36 12.02
4/21/2022 5:45:00 PM 7.15 44.87 0.029 6.83 2.52 12.03
4/21/2022 6:00:00 PM 7.19 44.942 0.029 6.83 2.41 12.03
4/21/2022 6:15:00 PM 7.23 45.014 0.029 6.84 2.44 12.04
4/21/2022 6:30:00 PM 7.25 45.05 0.029 6.84 2.45 12.03
4/21/2022 6:45:00 PM 7.26 45.068 0.029 6.84 2.32 12.01
4/21/2022 7:00:00 PM 7.27 45.086 0.029 6.83 2.36 11.99
4/21/2022 7:15:00 PM 7.28 45.104 0.029 6.83 2.26 11.97
4/21/2022 7:30:00 PM 7.27 45.086 0.029 6.81 2.23 11.95
4/21/2022 7:45:00 PM 7.26 45.068 0.029 6.8 2.15 11.92
4/21/2022 8:00:00 PM 7.26 45.068 0.029 6.79 2.19 11.89
4/21/2022 8:15:00 PM 7.26 45.068 0.029 6.78 2.22 11.87
4/21/2022 8:30:00 PM 7.26 45.068 0.029 6.77 2.06 11.86
4/21/2022 8:45:00 PM 7.26 45.068 0.029 6.76 2.07 11.86
4/21/2022 9:00:00 PM 7.24 45.032 0.029 6.75 2.1 11.86
4/21/2022 9:15:00 PM 7.22 44.996 0.029 6.75 2.21 11.86
4/21/2022 9:30:00 PM 7.21 44.978 0.029 6.74 2.16 11.86
4/21/2022 9:45:00 PM 7.21 44.978 0.03 6.74 2.17 11.86
4/21/2022 10:00:00 PM 7.21 44.978 0.029 6.74 2.16 11.87
4/21/2022 10:15:00 PM 7.21 44.978 0.03 6.74 2.13 11.87
4/21/2022 10:30:00 PM 7.2 44.96 0.03 6.74 2.05 11.87
4/21/2022 10:45:00 PM 7.19 44.942 0.03 6.74 2.04 11.88
4/21/2022 11:00:00 PM 7.18 44.924 0.03 6.74 2.12 11.88
4/21/2022 11:15:00 PM 7.18 44.924 0.03 6.73 2.06 11.88
4/21/2022 11:30:00 PM 7.18 44.924 0.03 6.73 2.06 11.88
4/21/2022 11:45:00 PM 7.17 44.906 0.03 6.74 2.04 11.88
4/22/2022 12:00:00 AM 7.16 44.888 0.03 6.74 1.99 11.89
4/22/2022 12:15:00 AM 7.14 44.852 0.03 6.75 2.08 11.89
4/22/2022 12:30:00 AM 7.14 44.852 0.03 6.74 1.99 11.9
4/22/2022 12:45:00 AM 7.12 44.816 0.03 6.75 1.94 11.9
4/22/2022 1:00:00 AM 7.1 44.78 0.03 6.75 2.01 11.91
4/22/2022 1:15:00 AM 7.08 44.744 0.03 6.74 2.06 11.92
4/22/2022 1:30:00 AM 7.06 44.708 0.03 6.74 1.97 11.93
4/22/2022 1:45:00 AM 7.03 44.654 0.03 6.74 1.99 11.94
4/22/2022 2:00:00 AM 7.01 44.618 0.03 6.74 1.99 11.94
4/22/2022 2:15:00 AM 6.99 44.582 0.03 6.75 1.96 11.95
4/22/2022 2:30:00 AM 6.98 44.564 0.03 6.75 1.97 11.95
4/22/2022 2:45:00 AM 6.96 44.528 0.03 6.71 1.99 11.96
4/22/2022 3:00:00 AM 6.94 44.492 0.03 6.75 1.97 11.97
4/22/2022 3:15:00 AM 6.93 44.474 0.03 6.75 1.96 11.97
4/22/2022 3:30:00 AM 6.91 44.438 0.03 6.74 1.91 11.98
4/22/2022 3:45:00 AM 6.89 44.402 0.03 6.76 2 11.98
4/22/2022 4:00:00 AM 6.88 44.384 0.03 6.75 1.95 11.99
4/22/2022 4:15:00 AM 6.86 44.348 0.03 6.76 1.9 12
4/22/2022 4:30:00 AM 6.85 44.33 0.03 6.74 2.04 12
4/22/2022 4:45:00 AM 6.83 44.294 0.03 6.75 2.02 12.01
4/22/2022 5:00:00 AM 6.82 44.276 0.03 6.75 2.02 12.01
4/22/2022 5:15:00 AM 6.81 44.258 0.03 6.76 1.89 12.02
4/22/2022 5:30:00 AM 6.8 44.24 0.03 6.74 1.93 12.03
4/22/2022 5:45:00 AM 6.78 44.204 0.03 6.76 1.87 12.04
4/22/2022 6:00:00 AM 6.76 44.168 0.03 6.76 1.97 12.04
4/22/2022 6:15:00 AM 6.75 44.15 0.03 6.76 1.89 12.05
4/22/2022 6:30:00 AM 6.73 44.114 0.03 6.76 1.9 12.06
4/22/2022 6:45:00 AM 6.71 44.078 0.03 6.77 1.92 12.08
4/22/2022 7:00:00 AM 6.7 44.06 0.03 6.75 1.9 12.11
4/22/2022 7:15:00 AM 6.68 44.024 0.03 6.77 1.83 12.15
4/22/2022 7:30:00 AM 6.67 44.006 0.03 6.75 1.88 12.18
4/22/2022 7:45:00 AM 6.67 44.006 0.03 6.72 1.83 12.21
4/22/2022 8:00:00 AM 6.68 44.024 0.03 6.76 1.93 12.24
4/22/2022 8:15:00 AM 6.69 44.042 0.03 6.82 1.9 12.27
4/22/2022 8:30:00 AM 6.71 44.078 0.03 6.83 1.82 12.29
4/22/2022 8:45:00 AM 6.77 44.186 0.03 6.84 1.82 12.31
4/22/2022 9:00:00 AM 6.85 44.33 0.03 6.85 1.84 12.31
4/22/2022 9:15:00 AM 6.9 44.42 0.03 6.84 1.77 12.29
4/22/2022 9:30:00 AM 6.94 44.492 0.03 6.85 1.86 12.28
4/22/2022 9:45:00 AM 7.01 44.618 0.03 6.85 1.81 12.26
4/22/2022 10:00:00 AM 7.11 44.798 0.03 6.83 1.82 12.24
4/22/2022 10:15:00 AM 7.2 44.96 0.029 6.86 1.87 12.22
4/22/2022 10:30:00 AM 7.32 45.176 0.029 6.87 1.76 12.2
4/22/2022 10:45:00 AM 7.46 45.428 0.029 6.88 1.77 12.17
4/22/2022 11:00:00 AM 7.62 45.716 0.029 6.89 1.76 12.13
4/22/2022 11:15:00 AM 7.78 46.004 0.029 6.88 1.89 12.09
4/22/2022 11:30:00 AM 7.96 46.328 0.029 6.89 1.74 12.05
4/22/2022 11:45:00 AM 8.14 46.652 0.029 6.91 1.76 12.01
4/22/2022 12:00:00 PM 8.33 46.994 0.029 6.9 1.73 11.96
4/22/2022 12:15:00 PM 8.54 47.372 0.029 6.91 1.72 11.9
4/22/2022 12:30:00 PM 8.77 47.786 0.029 6.92 1.87 11.84
4/22/2022 12:45:00 PM 8.98 48.164 0.029 6.91 1.68 11.78
4/22/2022 1:00:00 PM 9.2 48.56 0.029 6.92 1.73 11.74
4/22/2022 1:15:00 PM 9.41 48.938 0.029 6.92 1.78 11.67
4/22/2022 1:30:00 PM 9.62 49.316 0.029 6.93 1.71 11.62
4/22/2022 1:45:00 PM 9.84 49.712 0.029 6.93 1.85 11.56
4/22/2022 2:00:00 PM 10.07 50.126 0.029 6.94 1.85 11.5
4/22/2022 2:15:00 PM 10.28 50.504 0.029 6.94 1.83 11.45
4/22/2022 2:30:00 PM 10.45 50.81 0.029 6.94 1.87 11.4
4/22/2022 2:45:00 PM 10.61 51.098 0.029 6.94 1.77 11.35
4/22/2022 3:00:00 PM 10.73 51.314 0.029 6.96 1.83 11.31
4/22/2022 3:15:00 PM 10.82 51.476 0.029 6.95 1.82 11.27
4/22/2022 3:30:00 PM 10.88 51.584 0.029 6.95 1.86 11.24
4/22/2022 3:45:00 PM 10.93 51.674 0.029 6.95 1.88 11.22
4/22/2022 4:00:00 PM 10.92 51.656 0.029 6.95 1.86 11.2
4/22/2022 4:15:00 PM 10.92 51.656 0.029 6.95 1.86 11.19
4/22/2022 4:30:00 PM 10.92 51.656 0.029 6.93 1.83 11.19
4/22/2022 4:45:00 PM 10.88 51.584 0.029 6.95 1.89 11.18
4/22/2022 5:00:00 PM 10.78 51.404 0.029 6.93 2.07 11.18
4/22/2022 5:15:00 PM 10.7 51.26 0.029 6.94 1.79 11.18
4/22/2022 5:30:00 PM 10.63 51.134 0.029 6.93 1.82 11.19
4/22/2022 5:45:00 PM 10.56 51.008 0.029 6.92 1.9 11.19
4/22/2022 6:00:00 PM 10.48 50.864 0.029 6.92 1.88 11.2
4/22/2022 6:15:00 PM 10.41 50.738 0.029 6.91 2.05 11.21
4/22/2022 6:30:00 PM 10.36 50.648 0.029 6.91 1.82 11.2
4/22/2022 6:45:00 PM 10.29 50.522 0.029 6.9 1.86 11.2
4/22/2022 7:00:00 PM 10.23 50.414 0.029 6.88 1.87 11.19
4/22/2022 7:15:00 PM 10.17 50.306 0.03 6.87 1.84 11.18
4/22/2022 7:30:00 PM 10.1 50.18 0.03 6.87 1.89 11.17
4/22/2022 7:45:00 PM 10.02 50.036 0.03 6.85 1.87 11.15
4/22/2022 8:00:00 PM 9.94 49.892 0.03 6.83 1.9 11.15
4/22/2022 8:15:00 PM 9.86 49.748 0.03 6.82 1.98 11.15
4/22/2022 8:30:00 PM 9.78 49.604 0.03 6.81 1.99 11.16
4/22/2022 8:45:00 PM 9.71 49.478 0.03 6.81 1.92 11.17
4/22/2022 9:00:00 PM 9.63 49.334 0.03 6.81 1.95 11.19
4/22/2022 9:15:00 PM 9.56 49.208 0.03 6.81 2.02 11.2
4/22/2022 9:30:00 PM 9.49 49.082 0.03 6.8 2.02 11.22
4/22/2022 9:45:00 PM 9.41 48.938 0.03 6.8 2.05 11.24
4/22/2022 10:00:00 PM 9.34 48.812 0.03 6.8 2.05 11.26
4/22/2022 10:15:00 PM 9.27 48.686 0.03 6.79 1.96 11.29
4/22/2022 10:30:00 PM 9.2 48.56 0.03 6.79 2.04 11.3
4/22/2022 10:45:00 PM 9.14 48.452 0.03 6.79 2.13 11.32
4/22/2022 11:00:00 PM 9.09 48.362 0.03 6.79 2.02 11.34
4/22/2022 11:15:00 PM 9.03 48.254 0.03 6.79 2.07 11.36
4/22/2022 11:30:00 PM 8.98 48.164 0.03 6.79 2.05 11.37
4/22/2022 11:45:00 PM 8.94 48.092 0.03 6.79 2.06 11.39
4/23/2022 12:00:00 AM 8.89 48.002 0.03 6.79 2.04 11.41
4/23/2022 12:15:00 AM 8.85 47.93 0.03 6.79 2.11 11.42
4/23/2022 12:30:00 AM 8.81 47.858 0.03 6.79 2 11.42
4/23/2022 12:45:00 AM 8.77 47.786 0.03 6.78 2.07 11.43
4/23/2022 1:00:00 AM 8.73 47.714 0.03 6.78 2.09 11.44
4/23/2022 1:15:00 AM 8.69 47.642 0.03 6.78 2.2 11.45
4/23/2022 1:30:00 AM 8.66 47.588 0.03 6.78 2.04 11.46
4/23/2022 1:45:00 AM 8.62 47.516 0.03 6.79 2.16 11.47
4/23/2022 2:00:00 AM 8.58 47.444 0.03 6.79 2.28 11.48
4/23/2022 2:15:00 AM 8.55 47.39 0.03 6.79 2.12 11.49
4/23/2022 2:30:00 AM 8.51 47.318 0.03 6.79 2.57 11.5
4/23/2022 2:45:00 AM 8.48 47.264 0.03 6.79 2 11.51
4/23/2022 3:00:00 AM 8.45 47.21 0.03 6.8 2.04 11.52
4/23/2022 3:15:00 AM 8.42 47.156 0.03 6.79 2.11 11.52
4/23/2022 3:30:00 AM 8.39 47.102 0.03 6.79 2.18 11.53
4/23/2022 3:45:00 AM 8.36 47.048 0.03 6.79 2.08 11.54
4/23/2022 4:00:00 AM 8.33 46.994 0.03 6.8 2.23 11.55
4/23/2022 4:15:00 AM 8.31 46.958 0.03 6.79 2.1 11.56
4/23/2022 4:30:00 AM 8.28 46.904 0.03 6.79 2.11 11.56
4/23/2022 4:45:00 AM 8.25 46.85 0.03 6.8 2.19 11.57
4/23/2022 5:00:00 AM 8.22 46.796 0.03 6.8 2.1 11.58
4/23/2022 5:15:00 AM 8.19 46.742 0.03 6.8 2.03 11.59
4/23/2022 5:30:00 AM 8.17 46.706 0.03 6.8 3.17 11.6
4/23/2022 5:45:00 AM 8.14 46.652 0.03 6.8 2.07 11.6
4/23/2022 6:00:00 AM 8.12 46.616 0.03 6.81 1.99 11.61
4/23/2022 6:15:00 AM 8.1 46.58 0.03 6.8 2.11 11.61
4/23/2022 6:30:00 AM 8.07 46.526 0.03 6.81 2.02 11.62
4/23/2022 6:45:00 AM 8.06 46.508 0.03 6.8 2.02 11.63
4/23/2022 7:00:00 AM 8.04 46.472 0.03 6.81 1.99 11.65
4/23/2022 7:15:00 AM 8.03 46.454 0.03 6.81 2.15 11.68
4/23/2022 7:30:00 AM 8.02 46.436 0.03 6.81 2.09 11.71
4/23/2022 7:45:00 AM 8.02 46.436 0.03 6.82 1.83 11.73
4/23/2022 8:00:00 AM 8.01 46.418 0.03 6.83 1.85 11.75
4/23/2022 8:15:00 AM 8.03 46.454 0.03 6.84 1.82 11.78
4/23/2022 8:30:00 AM 8.07 46.526 0.03 6.86 1.93 11.82
4/23/2022 8:45:00 AM 8.11 46.598 0.03 6.88 1.91 11.83
4/23/2022 9:00:00 AM 8.15 46.67 0.03 6.89 1.79 11.84
4/23/2022 9:15:00 AM 8.17 46.706 0.03 6.89 1.86 11.83
4/23/2022 9:30:00 AM 8.23 46.814 0.03 6.9 1.87 11.83
4/23/2022 9:45:00 AM 8.32 46.976 0.03 6.91 1.82 11.83
4/23/2022 10:00:00 AM 8.33 46.994 0.03 6.91 1.78 11.81
4/23/2022 10:15:00 AM 8.33 46.994 0.03 6.91 1.88 11.79
4/23/2022 10:30:00 AM 8.35 47.03 0.03 6.91 1.82 11.78
4/23/2022 10:45:00 AM 8.43 47.174 0.03 6.92 1.76 11.78
4/23/2022 11:00:00 AM 8.48 47.264 0.03 6.93 1.86 11.77
4/23/2022 11:15:00 AM 8.47 47.246 0.03 6.92 2.03 11.75
4/23/2022 11:30:00 AM 8.49 47.282 0.03 6.93 1.8 11.75
4/23/2022 11:45:00 AM 8.51 47.318 0.03 6.92 1.81 11.72
4/23/2022 12:00:00 PM 8.52 47.336 0.03 6.91 1.79 11.72
4/23/2022 12:15:00 PM 8.55 47.39 0.03 6.91 1.78 11.71
4/23/2022 12:30:00 PM 8.64 47.552 0.03 6.91 1.8 11.73
4/23/2022 12:45:00 PM 8.72 47.696 0.03 6.92 1.81 11.72
4/23/2022 1:00:00 PM 8.73 47.714 0.03 6.94 1.8 11.7
4/23/2022 1:15:00 PM 8.73 47.714 0.03 6.92 1.73 11.67
4/23/2022 1:30:00 PM 8.86 47.948 0.03 6.91 1.82 11.67
4/23/2022 1:45:00 PM 9 48.2 0.03 6.93 1.8 11.65
4/23/2022 2:00:00 PM 9.04 48.272 0.03 6.93 1.83 11.63
4/23/2022 2:15:00 PM 9.11 48.398 0.03 6.94 1.86 11.62
4/23/2022 2:30:00 PM 9.22 48.596 0.03 6.95 1.83 11.59
4/23/2022 2:45:00 PM 9.35 48.83 0.03 6.95 1.81 11.57
4/23/2022 3:00:00 PM 9.43 48.974 0.03 6.95 1.95 11.54
4/23/2022 3:15:00 PM 9.52 49.136 0.03 6.96 1.81 11.52
4/23/2022 3:30:00 PM 9.65 49.37 0.03 6.96 1.8 11.48
4/23/2022 3:45:00 PM 9.79 49.622 0.029 6.97 1.9 11.46
4/23/2022 4:00:00 PM 9.9 49.82 0.03 6.96 1.86 11.42
4/23/2022 4:15:00 PM 9.98 49.964 0.03 6.97 1.85 11.38
4/23/2022 4:30:00 PM 10.09 50.162 0.03 6.97 1.87 11.35
4/23/2022 4:45:00 PM 10.17 50.306 0.03 6.97 1.88 11.3
4/23/2022 5:00:00 PM 10.21 50.378 0.03 6.96 1.85 11.28
4/23/2022 5:15:00 PM 10.24 50.432 0.03 6.95 1.92 11.25
4/23/2022 5:30:00 PM 10.24 50.432 0.03 6.96 1.85 11.23
4/23/2022 5:45:00 PM 10.22 50.396 0.03 6.94 1.9 11.22
4/23/2022 6:00:00 PM 10.19 50.342 0.03 6.93 1.81 11.2
4/23/2022 6:15:00 PM 10.16 50.288 0.03 6.93 1.89 11.19
4/23/2022 6:30:00 PM 10.12 50.216 0.03 6.92 1.82 11.18
4/23/2022 6:45:00 PM 10.08 50.144 0.03 6.92 1.85 11.17
4/23/2022 7:00:00 PM 10.04 50.072 0.03 6.9 1.9 11.16
4/23/2022 7:15:00 PM 9.98 49.964 0.03 6.89 1.87 11.14
4/23/2022 7:30:00 PM 9.93 49.874 0.03 6.88 1.99 11.13
4/23/2022 7:45:00 PM 9.87 49.766 0.03 6.87 2.1 11.11
4/23/2022 8:00:00 PM 9.81 49.658 0.03 6.86 1.95 11.11
4/23/2022 8:15:00 PM 9.75 49.55 0.03 6.84 2 11.1
4/23/2022 8:30:00 PM 9.7 49.46 0.03 6.83 2.12 11.1
4/23/2022 8:45:00 PM 9.65 49.37 0.03 6.83 2.1 11.11
4/23/2022 9:00:00 PM 9.6 49.28 0.03 6.82 2.24 11.11
4/23/2022 9:15:00 PM 9.55 49.19 0.03 6.82 1.97 11.12
4/23/2022 9:30:00 PM 9.49 49.082 0.03 6.81 2.06 11.13
4/23/2022 9:45:00 PM 9.43 48.974 0.03 6.81 2.1 11.15
4/23/2022 10:00:00 PM 9.37 48.866 0.03 6.8 2.11 11.16
4/23/2022 10:15:00 PM 9.32 48.776 0.03 6.81 2.09 11.18
4/23/2022 10:30:00 PM 9.26 48.668 0.03 6.8 2.03 11.2
4/23/2022 10:45:00 PM 9.2 48.56 0.03 6.8 2.01 11.21
4/23/2022 11:00:00 PM 9.14 48.452 0.03 6.8 1.9 11.22
4/23/2022 11:15:00 PM 9.09 48.362 0.03 6.79 2.1 11.24
4/23/2022 11:30:00 PM 9.04 48.272 0.03 6.79 2.04 11.26
4/23/2022 11:45:00 PM 8.99 48.182 0.03 6.79 1.96 11.28
4/24/2022 12:00:00 AM 8.94 48.092 0.03 6.79 1.98 11.28
4/24/2022 12:15:00 AM 8.89 48.002 0.03 6.79 2.02 11.3
4/24/2022 12:30:00 AM 8.85 47.93 0.03 6.79 2.06 11.31
4/24/2022 12:45:00 AM 8.82 47.876 0.03 6.78 1.92 11.32
4/24/2022 1:00:00 AM 8.78 47.804 0.03 6.78 2.01 11.33
4/24/2022 1:15:00 AM 8.73 47.714 0.03 6.78 1.96 11.34
4/24/2022 1:30:00 AM 8.69 47.642 0.03 6.78 2.04 11.35
4/24/2022 1:45:00 AM 8.65 47.57 0.03 6.79 2.15 11.36
4/24/2022 2:00:00 AM 8.61 47.498 0.03 6.79 2 11.38
4/24/2022 2:15:00 AM 8.57 47.426 0.03 6.79 2.04 11.38
4/24/2022 2:30:00 AM 8.54 47.372 0.03 6.79 2.08 11.39
4/24/2022 2:45:00 AM 8.5 47.3 0.03 6.78 2.04 11.4
4/24/2022 3:00:00 AM 8.48 47.264 0.03 6.78 1.97 11.41
4/24/2022 3:15:00 AM 8.45 47.21 0.03 6.78 1.98 11.41
4/24/2022 3:30:00 AM 8.42 47.156 0.03 6.78 2.08 11.43
4/24/2022 3:45:00 AM 8.39 47.102 0.03 6.78 2.04 11.44
4/24/2022 4:00:00 AM 8.36 47.048 0.03 6.78 1.97 11.45
4/24/2022 4:15:00 AM 8.32 46.976 0.03 6.78 1.93 11.46
4/24/2022 4:30:00 AM 8.28 46.904 0.03 6.78 2.01 11.47
4/24/2022 4:45:00 AM 8.25 46.85 0.03 6.78 1.98 11.48
4/24/2022 5:00:00 AM 8.2 46.76 0.03 6.77 2.02 11.49
4/24/2022 5:15:00 AM 8.16 46.688 0.03 6.78 2.04 11.5
4/24/2022 5:30:00 AM 8.12 46.616 0.03 6.78 1.96 11.51
4/24/2022 5:45:00 AM 8.08 46.544 0.03 6.78 2 11.52
4/24/2022 6:00:00 AM 8.04 46.472 0.03 6.75 2.03 11.53
4/24/2022 6:15:00 AM 8 46.4 0.03 6.78 2 11.55
4/24/2022 6:30:00 AM 7.96 46.328 0.03 6.78 1.9 11.57
4/24/2022 6:45:00 AM 7.93 46.274 0.03 6.79 1.95 11.59
4/24/2022 7:00:00 AM 7.89 46.202 0.03 6.79 2.08 11.63
4/24/2022 7:15:00 AM 7.86 46.148 0.03 6.8 1.91 11.66
4/24/2022 7:30:00 AM 7.84 46.112 0.03 6.81 1.89 11.7
4/24/2022 7:45:00 AM 7.83 46.094 0.03 6.81 1.85 11.73
4/24/2022 8:00:00 AM 7.83 46.094 0.03 6.82 1.88 11.76
4/24/2022 8:15:00 AM 7.85 46.13 0.03 6.83 1.87 11.78
4/24/2022 8:30:00 AM 7.88 46.184 0.03 6.85 1.85 11.8
4/24/2022 8:45:00 AM 7.92 46.256 0.03 6.85 1.95 11.8
4/24/2022 9:00:00 AM 7.97 46.346 0.03 6.87 1.85 11.8
4/24/2022 9:15:00 AM 8.03 46.454 0.03 6.87 1.83 11.8
4/24/2022 9:30:00 AM 8.12 46.616 0.03 6.88 1.87 11.79
4/24/2022 9:45:00 AM 8.23 46.814 0.03 6.89 1.79 11.78
4/24/2022 10:00:00 AM 8.36 47.048 0.03 6.9 1.81 11.76
4/24/2022 10:15:00 AM 8.5 47.3 0.03 6.91 1.78 11.73
4/24/2022 10:30:00 AM 8.67 47.606 0.03 6.92 1.87 11.7
4/24/2022 10:45:00 AM 8.86 47.948 0.03 6.92 1.81 11.66
4/24/2022 11:00:00 AM 9.06 48.308 0.03 6.93 1.81 11.61
4/24/2022 11:15:00 AM 9.28 48.704 0.03 6.93 1.76 11.56
4/24/2022 11:30:00 AM 9.51 49.118 0.03 6.93 1.83 11.5
4/24/2022 11:45:00 AM 9.76 49.568 0.03 6.94 1.8 11.44
4/24/2022 12:00:00 PM 10.04 50.072 0.03 6.95 1.75 11.38
4/24/2022 12:15:00 PM 10.34 50.612 0.03 6.96 1.76 11.31
4/24/2022 12:30:00 PM 10.63 51.134 0.03 6.97 1.81 11.23
4/24/2022 12:45:00 PM 10.94 51.692 0.03 6.97 1.79 11.16
4/24/2022 1:00:00 PM 11.23 52.214 0.03 6.98 1.77 11.09
4/24/2022 1:15:00 PM 11.54 52.772 0.03 6.98 1.88 11.01
4/24/2022 1:30:00 PM 11.79 53.222 0.03 6.99 1.86 10.94
4/24/2022 1:45:00 PM 12.08 53.744 0.03 6.99 2.1 10.88
4/24/2022 2:00:00 PM 12.39 54.302 0.03 7 2.27 10.8
4/24/2022 2:15:00 PM 12.64 54.752 0.03 7 1.97 10.75
4/24/2022 2:30:00 PM 12.82 55.076 0.03 7 1.95 10.69
4/24/2022 2:45:00 PM 12.96 55.328 0.029 7.01 1.93 10.65
4/24/2022 3:00:00 PM 13.15 55.67 0.03 6.99 1.86 10.6
4/24/2022 3:15:00 PM 13.28 55.904 0.03 6.99 1.84 10.56
4/24/2022 3:30:00 PM 13.35 56.03 0.03 7 1.8 10.53
4/24/2022 3:45:00 PM 13.45 56.21 0.03 6.99 2.33 10.5
4/24/2022 4:00:00 PM 13.55 56.39 0.029 7 1.95 10.47
4/24/2022 4:15:00 PM 13.61 56.498 0.029 7 1.88 10.43
4/24/2022 4:30:00 PM 13.65 56.57 0.029 7 2.02 10.41
4/24/2022 4:45:00 PM 13.66 56.588 0.029 7 1.9 10.4
4/24/2022 5:00:00 PM 13.63 56.534 0.029 6.99 2 10.37
4/24/2022 5:15:00 PM 13.59 56.462 0.03 6.99 1.96 10.37
4/24/2022 5:30:00 PM 13.56 56.408 0.03 6.99 1.91 10.36
4/24/2022 5:45:00 PM 13.5 56.3 0.03 6.98 1.88 10.35
4/24/2022 6:00:00 PM 13.43 56.174 0.03 6.98 1.93 10.35
4/24/2022 6:15:00 PM 13.36 56.048 0.03 6.96 1.95 10.35
4/24/2022 6:30:00 PM 13.26 55.868 0.03 6.96 1.94 10.34
4/24/2022 6:45:00 PM 13.14 55.652 0.03 6.94 1.93 10.31
4/24/2022 7:00:00 PM 13.03 55.454 0.03 6.92 1.94 10.31
4/24/2022 7:15:00 PM 12.93 55.274 0.03 6.9 2 10.33
4/24/2022 7:30:00 PM 12.82 55.076 0.03 6.89 1.92 10.33
4/24/2022 7:45:00 PM 12.72 54.896 0.03 6.88 1.88 10.33
4/24/2022 8:00:00 PM 12.61 54.698 0.03 6.85 2.01 10.33
4/24/2022 8:15:00 PM 12.51 54.518 0.03 6.83 1.95 10.32
4/24/2022 8:30:00 PM 12.41 54.338 0.03 6.82 2.09 10.33
4/24/2022 8:45:00 PM 12.32 54.176 0.03 6.82 2.04 10.35
4/24/2022 9:00:00 PM 12.23 54.014 0.03 6.82 2.06 10.37
4/24/2022 9:15:00 PM 12.14 53.852 0.03 6.82 2.08 10.39
4/24/2022 9:30:00 PM 12.07 53.726 0.03 6.81 2.13 10.41
4/24/2022 9:45:00 PM 11.99 53.582 0.03 6.81 2.25 10.43
4/24/2022 10:00:00 PM 11.92 53.456 0.03 6.81 2.35 10.44
4/24/2022 10:15:00 PM 11.85 53.33 0.03 6.81 2.11 10.46
4/24/2022 10:30:00 PM 11.78 53.204 0.03 6.81 2.24 10.48
4/24/2022 10:45:00 PM 11.72 53.096 0.03 6.81 2.11 10.49
4/24/2022 11:00:00 PM 11.66 52.988 0.03 6.81 2.16 10.51
4/24/2022 11:15:00 PM 11.6 52.88 0.03 6.82 2.1 10.53
4/24/2022 11:30:00 PM 11.55 52.79 0.03 6.82 2.12 10.55
4/24/2022 11:45:00 PM 11.5 52.7 0.03 6.81 2.05 10.55
4/25/2022 12:00:00 AM 11.44 52.592 0.031 6.81 2.29 10.56
4/25/2022 12:15:00 AM 11.38 52.484 0.031 6.8 2.11 10.57
4/25/2022 12:30:00 AM 11.32 52.376 0.031 6.79 2.03 10.59
4/25/2022 12:45:00 AM 11.26 52.268 0.031 6.79 2.21 10.61
4/25/2022 1:00:00 AM 11.2 52.16 0.031 6.79 2.22 10.62
4/25/2022 1:15:00 AM 11.15 52.07 0.031 6.8 2.2 10.63
4/25/2022 1:30:00 AM 11.1 51.98 0.031 6.79 2.14 10.65
4/25/2022 1:45:00 AM 11.04 51.872 0.031 6.79 2.14 10.66
4/25/2022 2:00:00 AM 10.99 51.782 0.031 6.79 2.09 10.68
4/25/2022 2:15:00 AM 10.94 51.692 0.031 6.79 2.1 10.69
4/25/2022 2:30:00 AM 10.88 51.584 0.031 6.79 2.22 10.7
4/25/2022 2:45:00 AM 10.83 51.494 0.031 6.78 2.11 10.72
4/25/2022 3:00:00 AM 10.78 51.404 0.031 6.78 2.15 10.73
4/25/2022 3:15:00 AM 10.73 51.314 0.031 6.78 2.17 10.75
4/25/2022 3:30:00 AM 10.67 51.206 0.031 6.78 2.33 10.76
4/25/2022 3:45:00 AM 10.62 51.116 0.031 6.78 2.19 10.77
4/25/2022 4:00:00 AM 10.57 51.026 0.031 6.78 2.1 10.79
4/25/2022 4:15:00 AM 10.52 50.936 0.031 6.78 2.16 10.81
4/25/2022 4:30:00 AM 10.47 50.846 0.031 6.78 2.29 10.82
4/25/2022 4:45:00 AM 10.42 50.756 0.031 6.78 2.19 10.83
4/25/2022 5:00:00 AM 10.37 50.666 0.031 6.77 2.14 10.85
4/25/2022 5:15:00 AM 10.32 50.576 0.031 6.77 2.17 10.85
4/25/2022 5:30:00 AM 10.28 50.504 0.031 6.77 2.18 10.86
4/25/2022 5:45:00 AM 10.23 50.414 0.031 6.77 2.09 10.88
4/25/2022 6:00:00 AM 10.18 50.324 0.031 6.76 2.22 10.89
4/25/2022 6:15:00 AM 10.13 50.234 0.031 6.77 2.13 10.91
4/25/2022 6:30:00 AM 10.09 50.162 0.031 6.77 2.24 10.93
4/25/2022 6:45:00 AM 10.05 50.09 0.031 6.77 2.16 10.96
4/25/2022 7:00:00 AM 10.02 50.036 0.031 6.78 1.99 10.99
4/25/2022 7:15:00 AM 10 50 0.03 6.78 2.14 11.03
4/25/2022 7:30:00 AM 9.98 49.964 0.03 6.79 2.05 11.07
4/25/2022 7:45:00 AM 9.98 49.964 0.03 6.8 1.96 11.11
4/25/2022 8:00:00 AM 9.97 49.946 0.03 6.81 2.03 11.14
4/25/2022 8:15:00 AM 9.98 49.964 0.03 6.83 1.97 11.18
4/25/2022 8:30:00 AM 10.02 50.036 0.03 6.84 1.94 11.2
4/25/2022 8:45:00 AM 10.06 50.108 0.03 6.86 1.99 11.21
4/25/2022 9:00:00 AM 10.09 50.162 0.03 6.87 1.97 11.21
4/25/2022 9:15:00 AM 10.14 50.252 0.03 6.89 1.89 11.2
4/25/2022 9:30:00 AM 10.23 50.414 0.03 6.9 2.06 11.19
4/25/2022 9:45:00 AM 10.33 50.594 0.03 6.91 1.92 11.18
4/25/2022 10:00:00 AM 10.45 50.81 0.03 6.91 1.9 11.16
4/25/2022 10:15:00 AM 10.58 51.044 0.03 6.93 1.93 11.14
4/25/2022 10:30:00 AM 10.75 51.35 0.03 6.94 1.88 11.12
4/25/2022 10:45:00 AM 10.92 51.656 0.03 6.95 1.94 11.08
4/25/2022 11:00:00 AM 11.13 52.034 0.03 6.96 2.01 11.04
4/25/2022 11:15:00 AM 11.34 52.412 0.03 6.97 2.02 11
4/25/2022 11:30:00 AM 11.55 52.79 0.03 6.98 1.92 10.95
4/25/2022 11:45:00 AM 11.79 53.222 0.03 6.98 2.08 10.91
4/25/2022 12:00:00 PM 12.03 53.654 0.03 6.97 2.04 10.85
4/25/2022 12:15:00 PM 12.3 54.14 0.03 6.98 1.88 10.8
4/25/2022 12:30:00 PM 12.59 54.662 0.03 6.99 1.99 10.74
4/25/2022 12:45:00 PM 12.88 55.184 0.03 7 1.95 10.67
4/25/2022 1:00:00 PM 13.07 55.526 0.03 7 2.04 10.61
4/25/2022 1:15:00 PM 13.21 55.778 0.03 7 2.13 10.56
4/25/2022 1:30:00 PM 13.27 55.886 0.03 7 1.93 10.51
4/25/2022 1:45:00 PM 13.38 56.084 0.03 7 1.9 10.48
4/25/2022 2:00:00 PM 13.47 56.246 0.03 7 1.86 10.45
4/25/2022 2:15:00 PM 13.54 56.372 0.03 7 1.9 10.42
4/25/2022 2:30:00 PM 13.86 56.948 0.03 7.01 2.09 10.41
4/25/2022 2:45:00 PM 14.09 57.362 0.03 7.01 2 10.37
4/25/2022 3:00:00 PM 14.23 57.614 0.03 7.02 1.98 10.34
4/25/2022 3:15:00 PM 14.36 57.848 0.03 7.02 1.99 10.3
4/25/2022 3:30:00 PM 14.35 57.83 0.03 7.02 2.01 10.27
4/25/2022 3:45:00 PM 14.34 57.812 0.03 7.01 2.06 10.24
4/25/2022 4:00:00 PM 14.34 57.812 0.03 7.01 1.99 10.22
4/25/2022 4:15:00 PM 14.37 57.866 0.03 7 1.93 10.2
4/25/2022 4:30:00 PM 14.37 57.866 0.03 7 1.96 10.19
4/25/2022 4:45:00 PM 14.3 57.74 0.03 6.99 1.93 10.17
4/25/2022 5:00:00 PM 14.27 57.686 0.03 6.99 2.01 10.19
4/25/2022 5:15:00 PM 14.34 57.812 0.03 7 2.05 10.2
4/25/2022 5:30:00 PM 14.34 57.812 0.03 7 2.19 10.2
4/25/2022 5:45:00 PM 14.29 57.722 0.03 7 2.03 10.19
4/25/2022 6:00:00 PM 14.25 57.65 0.03 7 2.02 10.17
4/25/2022 6:15:00 PM 14.2 57.56 0.03 6.98 2.04 10.15
4/25/2022 6:30:00 PM 14.14 57.452 0.03 6.97 2.1 10.13
4/25/2022 6:45:00 PM 14.05 57.29 0.03 6.96 2.05 10.1
4/25/2022 7:00:00 PM 13.97 57.146 0.03 6.94 2.05 10.09
4/25/2022 7:15:00 PM 13.87 56.966 0.03 6.92 1.94 10.07
4/25/2022 7:30:00 PM 13.77 56.786 0.03 6.92 2.08 10.06
4/25/2022 7:45:00 PM 13.68 56.624 0.03 6.91 2.07 10.06
4/25/2022 8:00:00 PM 13.59 56.462 0.03 6.89 1.98 10.07
4/25/2022 8:15:00 PM 13.51 56.318 0.03 6.89 2.09 10.07
4/25/2022 8:30:00 PM 13.44 56.192 0.03 6.88 2.92 10.08
4/25/2022 8:45:00 PM 13.37 56.066 0.03 6.88 2.05 10.09
4/25/2022 9:00:00 PM 13.29 55.922 0.03 6.87 2.17 10.1
4/25/2022 9:15:00 PM 13.21 55.778 0.03 6.87 2.46 10.11
4/25/2022 9:30:00 PM 13.13 55.634 0.03 6.87 2.16 10.14
4/25/2022 9:45:00 PM 13.06 55.508 0.03 6.87 2.19 10.16
4/25/2022 10:00:00 PM 12.99 55.382 0.03 6.86 2.27 10.19
4/25/2022 10:15:00 PM 12.91 55.238 0.03 6.86 2.12 10.2
4/25/2022 10:30:00 PM 12.84 55.112 0.031 6.85 2.17 10.21
4/25/2022 10:45:00 PM 12.77 54.986 0.031 6.86 2.18 10.23
4/25/2022 11:00:00 PM 12.71 54.878 0.031 6.85 2.25 10.24
4/25/2022 11:15:00 PM 12.64 54.752 0.031 6.86 2.17 10.26
4/25/2022 11:30:00 PM 12.58 54.644 0.031 6.84 2.47 10.27
4/25/2022 11:45:00 PM 12.52 54.536 0.031 6.85 2.23 10.29
4/26/2022 12:00:00 AM 12.46 54.428 0.031 6.84 2.28 10.31
4/26/2022 12:15:00 AM 12.39 54.302 0.031 6.84 2.36 10.32
4/26/2022 12:30:00 AM 12.34 54.212 0.031 6.84 2.31 10.33
4/26/2022 12:45:00 AM 12.28 54.104 0.031 6.83 4.66 10.34
4/26/2022 1:00:00 AM 12.22 53.996 0.031 6.83 2.26 10.35
4/26/2022 1:15:00 AM 12.17 53.906 0.031 6.82 2.35 10.37
4/26/2022 1:30:00 AM 12.13 53.834 0.031 6.82 2.33 10.38
4/26/2022 1:45:00 AM 12.08 53.744 0.031 6.82 2.2 10.39
4/26/2022 2:00:00 AM 12.03 53.654 0.031 6.82 2.28 10.4
4/26/2022 2:15:00 AM 11.99 53.582 0.031 6.81 2.4 10.41
4/26/2022 2:30:00 AM 11.94 53.492 0.031 6.81 2.25 10.42
4/26/2022 2:45:00 AM 11.91 53.438 0.031 6.81 2.78 10.44
4/26/2022 3:00:00 AM 11.87 53.366 0.031 6.81 2.49 10.44
4/26/2022 3:15:00 AM 11.83 53.294 0.031 6.81 2.4 10.44
4/26/2022 3:30:00 AM 11.79 53.222 0.031 6.8 2.25 10.44
4/26/2022 3:45:00 AM 11.75 53.15 0.031 6.8 2.47 10.47
4/26/2022 4:00:00 AM 11.71 53.078 0.031 6.79 2.34 10.47
4/26/2022 4:15:00 AM 11.68 53.024 0.031 6.79 2.44 10.49
4/26/2022 4:30:00 AM 11.64 52.952 0.031 6.79 3.03 10.5
4/26/2022 4:45:00 AM 11.61 52.898 0.031 6.79 2.42 10.51
4/26/2022 5:00:00 AM 11.57 52.826 0.031 6.79 2.48 10.51
4/26/2022 5:15:00 AM 11.53 52.754 0.031 6.78 2.91 10.52
4/26/2022 5:30:00 AM 11.5 52.7 0.031 6.78 5.07 10.53
4/26/2022 5:45:00 AM 11.46 52.628 0.031 6.79 2.46 10.55
4/26/2022 6:00:00 AM 11.43 52.574 0.031 6.8 2.5 10.56
4/26/2022 6:15:00 AM 11.39 52.502 0.031 6.81 2.36 10.58
4/26/2022 6:30:00 AM 11.35 52.43 0.031 6.82 2.61 10.59
4/26/2022 6:45:00 AM 11.32 52.376 0.031 6.81 2.34 10.6
4/26/2022 7:00:00 AM 11.28 52.304 0.031 6.82 2.21 10.63
4/26/2022 7:15:00 AM 11.25 52.25 0.03 6.82 2.31 10.66
4/26/2022 7:30:00 AM 11.23 52.214 0.03 6.84 2.18 10.71
4/26/2022 7:45:00 AM 11.21 52.178 0.03 6.86 2.35 10.75
4/26/2022 8:00:00 AM 11.19 52.142 0.03 6.86 2.33 10.76
4/26/2022 8:15:00 AM 11.16 52.088 0.03 6.87 2.15 10.78
4/26/2022 8:30:00 AM 11.15 52.07 0.03 6.88 2.29 10.81
4/26/2022 8:45:00 AM 11.14 52.052 0.03 6.88 2.11 10.83
4/26/2022 9:00:00 AM 11.13 52.034 0.03 6.89 2.17 10.84
4/26/2022 9:15:00 AM 11.14 52.052 0.03 6.9 2.31 10.88
4/26/2022 9:30:00 AM 11.16 52.088 0.03 6.91 2.17 10.9
4/26/2022 9:45:00 AM 11.15 52.07 0.03 6.92 2.05 10.9
4/26/2022 10:00:00 AM 11.15 52.07 0.03 6.93 2.27 10.91
4/26/2022 10:15:00 AM 11.16 52.088 0.03 6.92 2.21 10.91
4/26/2022 10:30:00 AM 11.15 52.07 0.03 6.93 2.2 10.9
4/26/2022 10:45:00 AM 11.13 52.034 0.03 6.92 2.04 10.88
4/26/2022 11:00:00 AM 11.15 52.07 0.03 6.93 1.99 10.91
4/26/2022 11:15:00 AM 11.21 52.178 0.03 6.94 2.04 10.94
4/26/2022 11:30:00 AM 11.21 52.178 0.03 6.94 1.83 10.93
4/26/2022 11:45:00 AM 11.21 52.178 0.03 6.94 2.02 10.94
4/26/2022 12:00:00 PM 11.25 52.25 0.03 6.95 1.9 10.95
4/26/2022 12:15:00 PM 11.29 52.322 0.03 6.96 1.94 10.95
4/26/2022 12:30:00 PM 11.27 52.286 0.03 6.95 1.9 10.92
4/26/2022 12:45:00 PM 11.25 52.25 0.03 6.94 1.99 10.88
4/26/2022 1:00:00 PM 11.26 52.268 0.03 6.94 1.89 10.89
4/26/2022 1:15:00 PM 11.25 52.25 0.03 6.94 1.94 10.89
4/26/2022 1:30:00 PM 11.27 52.286 0.03 6.95 1.94 10.9
4/26/2022 1:45:00 PM 11.26 52.268 0.03 6.95 1.91 10.88
4/26/2022 2:00:00 PM 11.22 52.196 0.03 6.93 1.91 10.85
4/26/2022 2:15:00 PM 11.22 52.196 0.03 6.93 3.19 10.87
4/26/2022 2:30:00 PM 11.23 52.214 0.03 6.93 1.94 10.89
4/26/2022 2:45:00 PM 11.21 52.178 0.03 6.94 1.81 10.87
4/26/2022 3:00:00 PM 11.19 52.142 0.03 6.93 2.2 10.87
4/26/2022 3:15:00 PM 11.18 52.124 0.03 6.94 1.86 10.87
4/26/2022 3:30:00 PM 11.17 52.106 0.03 6.93 1.9 10.88
4/26/2022 3:45:00 PM 11.16 52.088 0.03 6.94 2 10.89
4/26/2022 4:00:00 PM 11.12 52.016 0.03 6.93 1.91 10.87
4/26/2022 4:15:00 PM 11.1 51.98 0.03 6.93 1.91 10.89
4/26/2022 4:30:00 PM 11.1 51.98 0.03 6.94 1.98 10.91
4/26/2022 4:45:00 PM 11.09 51.962 0.03 6.94 1.91 10.92
4/26/2022 5:00:00 PM 11.08 51.944 0.03 6.94 2.06 10.93
4/26/2022 5:15:00 PM 11.06 51.908 0.03 6.95 2 10.93
4/26/2022 5:30:00 PM 11.05 51.89 0.03 6.95 1.96 10.94
4/26/2022 5:45:00 PM 11.03 51.854 0.03 6.94 2 10.93
4/26/2022 6:00:00 PM 10.98 51.764 0.03 6.94 2.06 10.92
4/26/2022 6:15:00 PM 10.93 51.674 0.03 6.93 1.87 10.91
4/26/2022 6:30:00 PM 10.88 51.584 0.03 6.92 1.86 10.91
4/26/2022 6:45:00 PM 10.83 51.494 0.03 6.92 1.87 10.92
4/26/2022 7:00:00 PM 10.78 51.404 0.03 6.92 1.85 10.9
4/26/2022 7:15:00 PM 10.73 51.314 0.03 6.9 1.79 10.88
4/26/2022 7:30:00 PM 10.67 51.206 0.03 6.89 1.93 10.86
4/26/2022 7:45:00 PM 10.6 51.08 0.03 6.88 2.03 10.86
4/26/2022 8:00:00 PM 10.54 50.972 0.03 6.87 2 10.85
4/26/2022 8:15:00 PM 10.47 50.846 0.03 6.86 1.95 10.84
4/26/2022 8:30:00 PM 10.41 50.738 0.03 6.86 1.9 10.84
4/26/2022 8:45:00 PM 10.35 50.63 0.03 6.85 2.01 10.85
4/26/2022 9:00:00 PM 10.3 50.54 0.03 6.85 2.12 10.85
4/26/2022 9:15:00 PM 10.22 50.396 0.03 6.85 2.13 10.88
4/26/2022 9:30:00 PM 10.16 50.288 0.03 6.84 2.16 10.89
4/26/2022 9:45:00 PM 10.09 50.162 0.03 6.84 2.03 10.91
4/26/2022 10:00:00 PM 10.03 50.054 0.03 6.84 2.14 10.92
4/26/2022 10:15:00 PM 9.96 49.928 0.03 6.84 2.04 10.95
4/26/2022 10:30:00 PM 9.9 49.82 0.03 6.83 1.99 10.96
4/26/2022 10:45:00 PM 9.83 49.694 0.03 6.83 2.06 10.99
4/26/2022 11:00:00 PM 9.76 49.568 0.03 6.83 1.97 11
4/26/2022 11:15:00 PM 9.68 49.424 0.03 6.82 2.1 11.02
4/26/2022 11:30:00 PM 9.6 49.28 0.03 6.82 2.22 11.04
4/26/2022 11:45:00 PM 9.54 49.172 0.03 6.82 1.99 11.06
4/27/2022 12:00:00 AM 9.47 49.046 0.03 6.81 2.36 11.08
4/27/2022 12:15:00 AM 9.41 48.938 0.03 6.81 2.28 11.1
4/27/2022 12:30:00 AM 9.35 48.83 0.03 6.8 2.11 11.11
4/27/2022 12:45:00 AM 9.27 48.686 0.03 6.8 2.06 11.13
4/27/2022 1:00:00 AM 9.22 48.596 0.03 6.81 2.09 11.15
4/27/2022 1:15:00 AM 9.16 48.488 0.03 6.8 1.98 11.16
4/27/2022 1:30:00 AM 9.1 48.38 0.03 6.8 2.05 11.18
4/27/2022 1:45:00 AM 9.05 48.29 0.03 6.8 2.05 11.19
4/27/2022 2:00:00 AM 8.99 48.182 0.03 6.81 1.93 11.21
4/27/2022 2:15:00 AM 8.93 48.074 0.03 6.81 2.27 11.23
4/27/2022 2:30:00 AM 8.88 47.984 0.03 6.8 2.06 11.24
4/27/2022 2:45:00 AM 8.81 47.858 0.03 6.8 1.95 11.26
4/27/2022 3:00:00 AM 8.75 47.75 0.03 6.8 2.07 11.28
4/27/2022 3:15:00 AM 8.7 47.66 0.03 6.8 1.98 11.29
4/27/2022 3:30:00 AM 8.64 47.552 0.03 6.8 1.98 11.3
4/27/2022 3:45:00 AM 8.58 47.444 0.03 6.8 2.01 11.32
4/27/2022 4:00:00 AM 8.52 47.336 0.03 6.81 1.98 11.34
4/27/2022 4:15:00 AM 8.48 47.264 0.03 6.8 2.01 11.35
4/27/2022 4:30:00 AM 8.44 47.192 0.03 6.8 1.9 11.36
4/27/2022 4:45:00 AM 8.39 47.102 0.03 6.8 1.91 11.37
4/27/2022 5:00:00 AM 8.31 46.958 0.03 6.8 2.25 11.39
4/27/2022 5:15:00 AM 8.21 46.778 0.03 6.8 2.11 11.41
4/27/2022 5:30:00 AM 8.15 46.67 0.03 6.8 2.03 11.44
4/27/2022 5:45:00 AM 8.11 46.598 0.03 6.8 2.04 11.45
4/27/2022 6:00:00 AM 8.06 46.508 0.03 6.8 2.02 11.47
4/27/2022 6:15:00 AM 8 46.4 0.03 6.79 1.89 11.48
4/27/2022 6:30:00 AM 7.95 46.31 0.03 6.8 1.96 11.51
4/27/2022 6:45:00 AM 7.91 46.238 0.03 6.81 1.93 11.54
4/27/2022 7:00:00 AM 7.87 46.166 0.03 6.82 1.98 11.58
4/27/2022 7:15:00 AM 7.84 46.112 0.03 6.83 1.96 11.63
4/27/2022 7:30:00 AM 7.82 46.076 0.03 6.83 1.85 11.63
4/27/2022 7:45:00 AM 7.78 46.004 0.03 6.83 1.9 11.65
4/27/2022 8:00:00 AM 7.75 45.95 0.03 6.83 1.87 11.66
4/27/2022 8:15:00 AM 7.72 45.896 0.03 6.84 1.86 11.69
4/27/2022 8:30:00 AM 7.68 45.824 0.03 6.84 1.77 11.7
4/27/2022 8:45:00 AM 7.67 45.806 0.03 6.86 2.41 11.75
4/27/2022 9:00:00 AM 7.69 45.842 0.03 6.87 1.97 11.8
4/27/2022 9:15:00 AM 7.69 45.842 0.03 6.88 1.75 11.83
4/27/2022 9:30:00 AM 7.63 45.734 0.03 6.89 1.77 11.83
4/27/2022 9:45:00 AM 7.62 45.716 0.03 6.89 1.78 11.86
4/27/2022 10:00:00 AM 7.67 45.806 0.03 6.9 1.8 11.88
4/27/2022 10:15:00 AM 7.69 45.842 0.03 6.91 1.7 11.89
4/27/2022 10:30:00 AM 7.66 45.788 0.03 6.91 1.76 11.89
4/27/2022 10:45:00 AM 7.78 46.004 0.03 6.91 1.83 11.89
4/27/2022 11:00:00 AM 7.91 46.238 0.03 6.93 1.92 11.87
4/27/2022 11:15:00 AM 7.89 46.202 0.03 6.93 1.65 11.85
4/27/2022 11:30:00 AM 7.9 46.22 0.03 6.93 1.73 11.86
4/27/2022 11:45:00 AM 7.89 46.202 0.03 6.93 1.7 11.83
4/27/2022 12:00:00 PM 7.89 46.202 0.03 6.93 1.72 11.83
4/27/2022 12:15:00 PM 7.89 46.202 0.03 6.93 1.71 11.82
4/27/2022 12:30:00 PM 7.88 46.184 0.03 6.93 1.65 11.83
4/27/2022 12:45:00 PM 7.94 46.292 0.03 6.93 1.69 11.84
4/27/2022 1:00:00 PM 7.92 46.256 0.03 6.93 1.69 11.82
4/27/2022 1:15:00 PM 7.85 46.13 0.03 6.93 1.79 11.81
4/27/2022 1:30:00 PM 7.93 46.274 0.03 6.93 1.71 11.84
4/27/2022 1:45:00 PM 8.01 46.418 0.03 6.93 1.64 11.83
4/27/2022 2:00:00 PM 7.98 46.364 0.03 6.94 1.72 11.82
4/27/2022 2:15:00 PM 7.92 46.256 0.03 6.93 1.69 11.81
4/27/2022 2:30:00 PM 7.85 46.13 0.03 6.93 1.84 11.81
4/27/2022 2:45:00 PM 7.82 46.076 0.03 6.93 1.7 11.82
4/27/2022 3:00:00 PM 7.78 46.004 0.03 6.92 1.85 11.83
4/27/2022 3:15:00 PM 7.75 45.95 0.03 6.92 1.72 11.85
4/27/2022 3:30:00 PM 7.78 46.004 0.03 6.93 1.84 11.87
4/27/2022 3:45:00 PM 7.76 45.968 0.03 6.92 1.76 11.86
4/27/2022 4:00:00 PM 7.67 45.806 0.03 6.91 1.71 11.86
4/27/2022 4:15:00 PM 7.6 45.68 0.03 6.91 1.71 11.87
4/27/2022 4:30:00 PM 7.56 45.608 0.03 6.91 1.75 11.88
4/27/2022 4:45:00 PM 7.51 45.518 0.03 6.91 1.7 11.88
4/27/2022 5:00:00 PM 7.49 45.482 0.03 6.9 1.8 11.9
4/27/2022 5:15:00 PM 7.44 45.392 0.03 6.9 1.71 11.9
4/27/2022 5:30:00 PM 7.41 45.338 0.03 6.9 1.68 11.91
4/27/2022 5:45:00 PM 7.36 45.248 0.03 6.89 1.69 11.9
4/27/2022 6:00:00 PM 7.32 45.176 0.03 6.89 1.63 11.92
4/27/2022 6:15:00 PM 7.28 45.104 0.03 6.87 1.75 11.9
4/27/2022 6:30:00 PM 7.2 44.96 0.03 6.87 1.78 11.91
4/27/2022 6:45:00 PM 7.14 44.852 0.03 6.87 1.98 11.92
4/27/2022 7:00:00 PM 7.08 44.744 0.03 6.86 1.74 11.9
4/27/2022 7:15:00 PM 7.01 44.618 0.03 6.85 1.7 11.9
4/27/2022 7:30:00 PM 6.95 44.51 0.03 6.84 1.77 11.89
4/27/2022 7:45:00 PM 6.88 44.384 0.03 6.83 1.75 11.9
4/27/2022 8:00:00 PM 6.83 44.294 0.03 6.79 1.67 11.9
4/27/2022 8:15:00 PM 6.79 44.222 0.03 6.82 1.75 11.9
4/27/2022 8:30:00 PM 6.76 44.168 0.03 6.81 1.67 11.91
4/27/2022 8:45:00 PM 6.71 44.078 0.03 6.81 1.75 11.92
4/27/2022 9:00:00 PM 6.65 43.97 0.03 6.81 1.81 11.93
4/27/2022 9:15:00 PM 6.61 43.898 0.03 6.8 1.75 11.95
4/27/2022 9:30:00 PM 6.57 43.826 0.03 6.8 1.79 11.96
4/27/2022 9:45:00 PM 6.52 43.736 0.03 6.8 1.83 11.98
4/27/2022 10:00:00 PM 6.47 43.646 0.03 6.72 1.76 11.99
4/27/2022 10:15:00 PM 6.42 43.556 0.03 6.8 1.85 11.99
4/27/2022 10:30:00 PM 6.37 43.466 0.03 6.79 1.92 12.01
4/27/2022 10:45:00 PM 6.33 43.394 0.03 6.78 1.78 12.03
4/27/2022 11:00:00 PM 6.3 43.34 0.03 6.79 1.83 12.04
4/27/2022 11:15:00 PM 6.26 43.268 0.03 6.8 1.76 12.05
4/27/2022 11:30:00 PM 6.23 43.214 0.031 6.79 1.72 12.06
4/27/2022 11:45:00 PM 6.2 43.16 0.03 6.8 1.97 12.07
4/28/2022 12:00:00 AM 6.16 43.088 0.031 6.79 1.76 12.09
4/28/2022 12:15:00 AM 6.13 43.034 0.03 6.8 1.77 12.1
4/28/2022 12:30:00 AM 6.09 42.962 0.031 6.8 1.76 12.11
4/28/2022 12:45:00 AM 6.05 42.89 0.031 6.8 1.75 12.12
4/28/2022 1:00:00 AM 6.02 42.836 0.03 6.8 1.79 12.13
4/28/2022 1:15:00 AM 5.98 42.764 0.03 6.79 1.83 12.15
4/28/2022 1:30:00 AM 5.95 42.71 0.031 6.77 1.86 12.16
4/28/2022 1:45:00 AM 5.91 42.638 0.031 6.79 2.38 12.17
4/28/2022 2:00:00 AM 5.88 42.584 0.03 6.79 1.94 12.19
4/28/2022 2:15:00 AM 5.84 42.512 0.03 6.78 1.83 12.2
4/28/2022 2:30:00 AM 5.81 42.458 0.031 6.79 1.73 12.21
4/28/2022 2:45:00 AM 5.77 42.386 0.03 6.79 1.7 12.22
4/28/2022 3:00:00 AM 5.75 42.35 0.031 6.79 1.74 12.23
4/28/2022 3:15:00 AM 5.72 42.296 0.031 6.79 1.9 12.23
4/28/2022 3:30:00 AM 5.7 42.26 0.031 6.78 1.76 12.24
4/28/2022 3:45:00 AM 5.68 42.224 0.031 6.79 1.83 12.24
4/28/2022 4:00:00 AM 5.66 42.188 0.031 6.79 1.71 12.25
4/28/2022 4:15:00 AM 5.63 42.134 0.031 6.79 1.73 12.26
4/28/2022 4:30:00 AM 5.61 42.098 0.031 6.7 1.75 12.27
4/28/2022 4:45:00 AM 5.59 42.062 0.031 6.67 1.8 12.28
4/28/2022 5:00:00 AM 5.57 42.026 0.031 6.77 1.7 12.29
4/28/2022 5:15:00 AM 5.55 41.99 0.031 6.79 1.78 12.29
4/28/2022 5:30:00 AM 5.53 41.954 0.031 6.79 1.79 12.3
4/28/2022 5:45:00 AM 5.5 41.9 0.031 6.79 1.75 12.31
4/28/2022 6:00:00 AM 5.48 41.864 0.031 6.79 1.64 12.32
4/28/2022 6:15:00 AM 5.45 41.81 0.031 6.79 1.66 12.33
4/28/2022 6:30:00 AM 5.44 41.792 0.031 6.79 1.76 12.34
4/28/2022 6:45:00 AM 5.42 41.756 0.031 6.79 1.64 12.37
4/28/2022 7:00:00 AM 5.41 41.738 0.03 6.81 1.8 12.4
4/28/2022 7:15:00 AM 5.4 41.72 0.03 6.82 1.73 12.45
4/28/2022 7:30:00 AM 5.39 41.702 0.03 6.83 1.64 12.5
4/28/2022 7:45:00 AM 5.39 41.702 0.03 6.84 1.61 12.53
4/28/2022 8:00:00 AM 5.4 41.72 0.03 6.8 1.65 12.56
4/28/2022 8:15:00 AM 5.4 41.72 0.03 6.86 1.64 12.56
4/28/2022 8:30:00 AM 5.42 41.756 0.03 6.86 1.65 12.57
4/28/2022 8:45:00 AM 5.43 41.774 0.03 6.86 1.66 12.58
4/28/2022 9:00:00 AM 5.46 41.828 0.03 6.87 1.68 12.58
4/28/2022 9:15:00 AM 5.51 41.918 0.03 6.88 1.62 12.59
4/28/2022 9:30:00 AM 5.59 42.062 0.03 6.88 1.69 12.58
4/28/2022 9:45:00 AM 5.69 42.242 0.03 6.88 1.7 12.57
4/28/2022 10:00:00 AM 5.8 42.44 0.03 6.89 1.86 12.55
4/28/2022 10:15:00 AM 5.92 42.656 0.03 6.9 1.78 12.52
4/28/2022 10:30:00 AM 6.07 42.926 0.03 6.9 1.64 12.49
4/28/2022 10:45:00 AM 6.23 43.214 0.03 6.91 1.68 12.46
4/28/2022 11:00:00 AM 6.4 43.52 0.03 6.92 1.69 12.42
4/28/2022 11:15:00 AM 6.58 43.844 0.03 6.92 1.56 12.37
4/28/2022 11:30:00 AM 6.78 44.204 0.03 6.92 1.52 12.32
4/28/2022 11:45:00 AM 6.98 44.564 0.03 6.93 1.62 12.27
4/28/2022 12:00:00 PM 7.2 44.96 0.03 6.92 1.54 12.2
4/28/2022 12:15:00 PM 7.45 45.41 0.03 6.93 1.68 12.14
4/28/2022 12:30:00 PM 7.72 45.896 0.03 6.94 1.59 12.07
4/28/2022 12:45:00 PM 7.99 46.382 0.03 6.94 1.59 12
4/28/2022 1:00:00 PM 8.25 46.85 0.03 6.95 1.61 11.92
4/28/2022 1:15:00 PM 8.51 47.318 0.03 6.95 1.82 11.86
4/28/2022 1:30:00 PM 8.78 47.804 0.03 6.96 1.56 11.78
4/28/2022 1:45:00 PM 9.05 48.29 0.03 6.95 1.52 11.71
4/28/2022 2:00:00 PM 9.29 48.722 0.03 6.96 1.54 11.64
4/28/2022 2:15:00 PM 9.52 49.136 0.03 6.96 1.55 11.58
4/28/2022 2:30:00 PM 9.71 49.478 0.03 6.96 1.61 11.51
4/28/2022 2:45:00 PM 9.89 49.802 0.03 6.96 1.57 11.45
4/28/2022 3:00:00 PM 10.02 50.036 0.03 6.97 1.53 11.41
4/28/2022 3:15:00 PM 10.13 50.234 0.03 6.97 1.56 11.37
4/28/2022 3:30:00 PM 10.19 50.342 0.03 6.97 1.64 11.34
4/28/2022 3:45:00 PM 10.23 50.414 0.03 6.98 1.55 11.31
4/28/2022 4:00:00 PM 10.26 50.468 0.03 6.98 1.6 11.29
4/28/2022 4:15:00 PM 10.25 50.45 0.03 6.97 1.65 11.27
4/28/2022 4:30:00 PM 10.22 50.396 0.03 6.97 1.64 11.26
4/28/2022 4:45:00 PM 10.17 50.306 0.03 6.97 1.6 11.27
4/28/2022 5:00:00 PM 10.07 50.126 0.03 6.97 1.68 11.28
4/28/2022 5:15:00 PM 9.96 49.928 0.03 6.96 1.74 11.28
4/28/2022 5:30:00 PM 9.83 49.694 0.03 6.96 1.67 11.29
4/28/2022 5:45:00 PM 9.71 49.478 0.03 6.97 1.63 11.31
4/28/2022 6:00:00 PM 9.56 49.208 0.03 6.96 1.62 11.33
4/28/2022 6:15:00 PM 9.44 48.992 0.03 6.95 1.75 11.34
4/28/2022 6:30:00 PM 9.33 48.794 0.03 6.94 1.68 11.35
4/28/2022 6:45:00 PM 9.19 48.542 0.03 6.94 1.72 11.37
4/28/2022 7:00:00 PM 9.07 48.326 0.03 6.93 1.67 11.38
4/28/2022 7:15:00 PM 8.95 48.11 0.03 6.92 1.71 11.39
4/28/2022 7:30:00 PM 8.83 47.894 0.03 6.91 1.7 11.39
4/28/2022 7:45:00 PM 8.71 47.678 0.03 6.89 1.68 11.4
4/28/2022 8:00:00 PM 8.6 47.48 0.03 6.87 1.67 11.41
4/28/2022 8:15:00 PM 8.49 47.282 0.03 6.86 2.18 11.41
4/28/2022 8:30:00 PM 8.38 47.084 0.031 6.84 1.77 11.42
4/28/2022 8:45:00 PM 8.27 46.886 0.031 6.83 1.7 11.43
4/28/2022 9:00:00 PM 8.17 46.706 0.031 6.83 1.75 11.46
4/28/2022 9:15:00 PM 8.06 46.508 0.031 6.82 1.73 11.49
4/28/2022 9:30:00 PM 7.96 46.328 0.031 6.82 1.66 11.52
4/28/2022 9:45:00 PM 7.85 46.13 0.031 6.82 2.52 11.56
4/28/2022 10:00:00 PM 7.75 45.95 0.031 6.81 1.69 11.58
4/28/2022 10:15:00 PM 7.65 45.77 0.031 6.81 1.93 11.62
4/28/2022 10:30:00 PM 7.55 45.59 0.031 6.8 1.84 11.63
4/28/2022 10:45:00 PM 7.45 45.41 0.031 6.8 1.7 11.68
4/28/2022 11:00:00 PM 7.35 45.23 0.031 6.8 1.76 11.71
4/28/2022 11:15:00 PM 7.25 45.05 0.031 6.8 1.84 11.73
4/28/2022 11:30:00 PM 7.15 44.87 0.031 6.8 1.79 11.76
4/28/2022 11:45:00 PM 7.05 44.69 0.031 6.79 1.72 11.8
4/29/2022 12:00:00 AM 6.94 44.492 0.031 6.79 1.74 11.83
4/29/2022 12:15:00 AM 6.85 44.33 0.031 6.79 1.8 11.85
4/29/2022 12:30:00 AM 6.75 44.15 0.031 6.79 1.78 11.89
4/29/2022 12:45:00 AM 6.66 43.988 0.031 6.79 1.75 11.92
4/29/2022 1:00:00 AM 6.56 43.808 0.031 6.78 1.73 11.94
4/29/2022 1:15:00 AM 6.47 43.646 0.031 6.78 1.75 11.98
4/29/2022 1:30:00 AM 6.38 43.484 0.031 6.78 1.72 12.01
4/29/2022 1:45:00 AM 6.3 43.34 0.031 6.78 1.88 12.03
4/29/2022 2:00:00 AM 6.22 43.196 0.031 6.78 1.88 12.06
4/29/2022 2:15:00 AM 6.14 43.052 0.031 6.77 1.77 12.08
4/29/2022 2:30:00 AM 6.06 42.908 0.031 6.77 1.67 12.11
4/29/2022 2:45:00 AM 5.98 42.764 0.031 6.77 1.74 12.14
4/29/2022 3:00:00 AM 5.91 42.638 0.031 6.77 1.7 12.15
4/29/2022 3:15:00 AM 5.83 42.494 0.031 6.77 1.71 12.18
4/29/2022 3:30:00 AM 5.76 42.368 0.031 6.77 1.75 12.2
4/29/2022 3:45:00 AM 5.69 42.242 0.031 6.77 1.78 12.22
4/29/2022 4:00:00 AM 5.62 42.116 0.031 6.76 1.7 12.25
4/29/2022 4:15:00 AM 5.55 41.99 0.031 6.77 1.63 12.27
4/29/2022 4:30:00 AM 5.48 41.864 0.031 6.77 1.82 12.3
4/29/2022 4:45:00 AM 5.42 41.756 0.031 6.77 1.73 12.31
4/29/2022 5:00:00 AM 5.35 41.63 0.031 6.77 1.69 12.34
4/29/2022 5:15:00 AM 5.29 41.522 0.031 6.76 1.73 12.36
4/29/2022 5:30:00 AM 5.23 41.414 0.031 6.76 2.12 12.37
4/29/2022 5:45:00 AM 5.17 41.306 0.031 6.77 1.71 12.4
4/29/2022 6:00:00 AM 5.1 41.18 0.031 6.76 1.61 12.42
4/29/2022 6:15:00 AM 5.04 41.072 0.031 6.76 1.71 12.44
4/29/2022 6:30:00 AM 4.98 40.964 0.031 6.77 1.62 12.48
4/29/2022 6:45:00 AM 4.93 40.874 0.031 6.77 1.63 12.52
4/29/2022 7:00:00 AM 4.88 40.784 0.031 6.78 1.66 12.57
4/29/2022 7:15:00 AM 4.83 40.694 0.031 6.79 1.6 12.61
4/29/2022 7:30:00 AM 4.79 40.622 0.031 6.79 1.6 12.64
4/29/2022 7:45:00 AM 4.76 40.568 0.031 6.8 1.6 12.69
4/29/2022 8:00:00 AM 4.75 40.55 0.031 6.81 1.55 12.73
4/29/2022 8:15:00 AM 4.77 40.586 0.031 6.82 1.69 12.75
4/29/2022 8:30:00 AM 4.8 40.64 0.031 6.83 1.59 12.77
4/29/2022 8:45:00 AM 4.84 40.712 0.031 6.84 1.59 12.78
4/29/2022 9:00:00 AM 4.9 40.82 0.031 6.85 1.57 12.79
4/29/2022 9:15:00 AM 4.97 40.946 0.031 6.84 1.54 12.78
4/29/2022 9:30:00 AM 5.08 41.144 0.031 6.8 1.65 12.76
4/29/2022 9:45:00 AM 5.2 41.36 0.031 6.88 1.58 12.75
4/29/2022 10:00:00 AM 5.34 41.612 0.031 6.84 1.56 12.72
4/29/2022 10:15:00 AM 5.49 41.882 0.031 6.9 1.48 12.69
4/29/2022 10:30:00 AM 5.67 42.206 0.03 6.9 1.53 12.64
4/29/2022 10:45:00 AM 5.87 42.566 0.03 6.91 1.49 12.6
4/29/2022 11:00:00 AM 6.09 42.962 0.03 6.88 1.59 12.54
4/29/2022 11:15:00 AM 6.32 43.376 0.03 6.93 1.55 12.48
4/29/2022 11:30:00 AM 6.56 43.808 0.03 6.93 1.46 12.41
4/29/2022 11:45:00 AM 6.81 44.258 0.03 6.92 1.47 12.35
4/29/2022 12:00:00 PM 7.07 44.726 0.03 6.94 1.51 12.28
4/29/2022 12:15:00 PM 7.36 45.248 0.03 6.94 1.51 12.19
4/29/2022 12:30:00 PM 7.64 45.752 0.03 6.95 1.45 12.12
4/29/2022 12:45:00 PM 7.96 46.328 0.03 6.96 1.67 12.04
4/29/2022 1:00:00 PM 8.27 46.886 0.03 6.96 1.53 11.95
4/29/2022 1:15:00 PM 8.58 47.444 0.03 6.96 1.51 11.86
4/29/2022 1:30:00 PM 8.9 48.02 0.03 6.96 1.49 11.77
4/29/2022 1:45:00 PM 9.2 48.56 0.03 6.97 1.5 11.69
4/29/2022 2:00:00 PM 9.48 49.064 0.03 6.97 1.5 11.62
4/29/2022 2:15:00 PM 9.72 49.496 0.03 6.97 1.51 11.54
4/29/2022 2:30:00 PM 9.94 49.892 0.03 6.98 1.72 11.48
4/29/2022 2:45:00 PM 10.14 50.252 0.03 6.98 1.53 11.42
4/29/2022 3:00:00 PM 10.32 50.576 0.03 6.99 1.61 11.36
4/29/2022 3:15:00 PM 10.45 50.81 0.03 6.99 1.54 11.31
4/29/2022 3:30:00 PM 10.55 50.99 0.03 6.99 1.52 11.27
4/29/2022 3:45:00 PM 10.63 51.134 0.03 6.99 1.48 11.23
4/29/2022 4:00:00 PM 10.67 51.206 0.03 6.99 1.5 11.2
4/29/2022 4:15:00 PM 10.7 51.26 0.03 6.99 1.5 11.18
4/29/2022 4:30:00 PM 10.69 51.242 0.03 6.99 1.54 11.16
4/29/2022 4:45:00 PM 10.67 51.206 0.03 6.99 1.55 11.15
4/29/2022 5:00:00 PM 10.6 51.08 0.03 6.98 1.82 11.15
4/29/2022 5:15:00 PM 10.52 50.936 0.03 6.99 1.58 11.16
4/29/2022 5:30:00 PM 10.4 50.72 0.03 6.98 1.67 11.16
4/29/2022 5:45:00 PM 10.28 50.504 0.03 6.98 1.58 11.17
4/29/2022 6:00:00 PM 10.18 50.324 0.03 6.97 1.59 11.17
4/29/2022 6:15:00 PM 10.08 50.144 0.03 6.95 1.54 11.18
4/29/2022 6:30:00 PM 9.96 49.928 0.03 6.96 1.6 11.19
4/29/2022 6:45:00 PM 9.85 49.73 0.03 6.95 1.59 11.2
4/29/2022 7:00:00 PM 9.72 49.496 0.03 6.94 1.68 11.21
4/29/2022 7:15:00 PM 9.59 49.262 0.03 6.93 1.54 11.21
4/29/2022 7:30:00 PM 9.47 49.046 0.031 6.92 1.6 11.22
4/29/2022 7:45:00 PM 9.35 48.83 0.031 6.91 1.64 11.22
4/29/2022 8:00:00 PM 9.24 48.632 0.031 6.89 1.63 11.21
4/29/2022 8:15:00 PM 9.13 48.434 0.031 6.88 1.67 11.21
4/29/2022 8:30:00 PM 9.02 48.236 0.031 6.86 1.93 11.22
4/29/2022 8:45:00 PM 8.92 48.056 0.031 6.85 1.98 11.24
4/29/2022 9:00:00 PM 8.83 47.894 0.031 6.84 1.67 11.25
4/29/2022 9:15:00 PM 8.73 47.714 0.031 6.83 1.76 11.28
4/29/2022 9:30:00 PM 8.63 47.534 0.031 6.83 1.73 11.31
4/29/2022 9:45:00 PM 8.53 47.354 0.031 6.82 1.77 11.33
4/29/2022 10:00:00 PM 8.44 47.192 0.031 6.82 1.83 11.36
4/29/2022 10:15:00 PM 8.34 47.012 0.031 6.82 1.88 11.4
4/29/2022 10:30:00 PM 8.24 46.832 0.031 6.81 1.7 11.43
4/29/2022 10:45:00 PM 8.14 46.652 0.031 6.81 1.76 11.45
4/29/2022 11:00:00 PM 8.04 46.472 0.031 6.81 1.85 11.48
4/29/2022 11:15:00 PM 7.95 46.31 0.031 6.81 1.68 11.51
4/29/2022 11:30:00 PM 7.85 46.13 0.031 6.8 1.84 11.54
4/29/2022 11:45:00 PM 7.75 45.95 0.031 6.8 1.64 11.57
4/30/2022 12:00:00 AM 7.66 45.788 0.031 6.8 1.67 11.6
4/30/2022 12:15:00 AM 7.56 45.608 0.031 6.79 1.85 11.63
4/30/2022 12:30:00 AM 7.46 45.428 0.031 6.79 1.83 11.65
4/30/2022 12:45:00 AM 7.36 45.248 0.031 6.8 1.77 11.69
4/30/2022 1:00:00 AM 7.26 45.068 0.031 6.8 1.8 11.72
4/30/2022 1:15:00 AM 7.17 44.906 0.031 6.79 1.72 11.74
4/30/2022 1:30:00 AM 7.07 44.726 0.031 6.78 1.7 11.78
4/30/2022 1:45:00 AM 6.97 44.546 0.031 6.79 1.62 11.8
4/30/2022 2:00:00 AM 6.88 44.384 0.031 6.79 1.71 11.84
4/30/2022 2:15:00 AM 6.79 44.222 0.031 6.78 1.67 11.86
4/30/2022 2:30:00 AM 6.7 44.06 0.031 6.79 1.74 11.89
4/30/2022 2:45:00 AM 6.61 43.898 0.031 6.78 1.69 11.91
4/30/2022 3:00:00 AM 6.52 43.736 0.031 6.78 1.64 11.94
4/30/2022 3:15:00 AM 6.44 43.592 0.031 6.78 1.81 11.97
4/30/2022 3:30:00 AM 6.36 43.448 0.031 6.78 1.66 11.99
4/30/2022 3:45:00 AM 6.28 43.304 0.031 6.75 1.66 12.02
4/30/2022 4:00:00 AM 6.2 43.16 0.031 6.78 1.68 12.04
4/30/2022 4:15:00 AM 6.13 43.034 0.031 6.77 1.76 12.07
4/30/2022 4:30:00 AM 6.06 42.908 0.031 6.76 1.63 12.09
4/30/2022 4:45:00 AM 5.98 42.764 0.031 6.78 1.81 12.12
4/30/2022 5:00:00 AM 5.91 42.638 0.031 6.72 1.72 12.14
4/30/2022 5:15:00 AM 5.84 42.512 0.031 6.78 1.69 12.16
4/30/2022 5:30:00 AM 5.77 42.386 0.031 6.66 1.57 12.18
4/30/2022 5:45:00 AM 5.71 42.278 0.031 6.78 1.62 12.2
4/30/2022 6:00:00 AM 5.64 42.152 0.031 6.76 1.68 12.23
4/30/2022 6:15:00 AM 5.58 42.044 0.031 6.75 1.68 12.25
4/30/2022 6:30:00 AM 5.52 41.936 0.031 6.78 1.67 12.27
4/30/2022 6:45:00 AM 5.46 41.828 0.031 6.79 1.62 12.33
4/30/2022 7:00:00 AM 5.41 41.738 0.031 6.79 1.71 12.38
4/30/2022 7:15:00 AM 5.37 41.666 0.031 6.8 1.59 12.42
4/30/2022 7:30:00 AM 5.33 41.594 0.031 6.81 1.58 12.46
4/30/2022 7:45:00 AM 5.3 41.54 0.031 6.82 1.56 12.5
4/30/2022 8:00:00 AM 5.3 41.54 0.031 6.84 1.51 12.53
4/30/2022 8:15:00 AM 5.31 41.558 0.031 6.85 1.55 12.56
4/30/2022 8:30:00 AM 5.34 41.612 0.031 6.85 1.51 12.57
4/30/2022 8:45:00 AM 5.39 41.702 0.031 6.86 1.95 12.59
4/30/2022 9:00:00 AM 5.45 41.81 0.031 6.87 1.45 12.59
4/30/2022 9:15:00 AM 5.53 41.954 0.031 6.88 1.58 12.58
4/30/2022 9:30:00 AM 5.65 42.17 0.031 6.89 1.55 12.57
4/30/2022 9:45:00 AM 5.78 42.404 0.031 6.89 1.49 12.55
4/30/2022 10:00:00 AM 5.93 42.674 0.031 6.91 1.48 12.52
4/30/2022 10:15:00 AM 6.11 42.998 0.031 6.92 1.43 12.49
4/30/2022 10:30:00 AM 6.3 43.34 0.031 6.92 1.48 12.44
4/30/2022 10:45:00 AM 6.52 43.736 0.031 6.92 1.43 12.39
4/30/2022 11:00:00 AM 6.77 44.186 0.031 6.94 1.5 12.32
4/30/2022 11:15:00 AM 7.02 44.636 0.031 6.96 1.55 12.26
4/30/2022 11:30:00 AM 7.29 45.122 0.031 6.96 1.48 12.19
4/30/2022 11:45:00 AM 7.57 45.626 0.031 6.98 1.46 12.11
4/30/2022 12:00:00 PM 7.84 46.112 0.031 6.98 1.43 12.04
4/30/2022 12:15:00 PM 8.12 46.616 0.031 6.97 1.45 11.97
4/30/2022 12:30:00 PM 8.42 47.156 0.03 6.98 1.49 11.89
4/30/2022 12:45:00 PM 8.77 47.786 0.031 6.99 1.41 11.8
4/30/2022 1:00:00 PM 9.1 48.38 0.03 6.99 1.45 11.71
4/30/2022 1:15:00 PM 9.42 48.956 0.03 7 1.51 11.63
4/30/2022 1:30:00 PM 9.74 49.532 0.03 6.99 1.53 11.55
4/30/2022 1:45:00 PM 10.05 50.09 0.03 7 1.52 11.46
4/30/2022 2:00:00 PM 10.34 50.612 0.03 7.01 1.47 11.39
4/30/2022 2:15:00 PM 10.6 51.08 0.03 7.02 1.44 11.31
4/30/2022 2:30:00 PM 10.82 51.476 0.03 7.02 1.47 11.25
4/30/2022 2:45:00 PM 11.03 51.854 0.03 7.02 1.48 11.18
4/30/2022 3:00:00 PM 11.22 52.196 0.03 7.02 1.59 11.12
4/30/2022 3:15:00 PM 11.36 52.448 0.03 7.02 1.52 11.07
4/30/2022 3:30:00 PM 11.45 52.61 0.03 7.02 1.48 11.03
4/30/2022 3:45:00 PM 11.54 52.772 0.03 7.02 1.47 10.99
4/30/2022 4:00:00 PM 11.55 52.79 0.03 7.02 1.58 10.96
4/30/2022 4:15:00 PM 11.53 52.754 0.03 7.02 1.49 10.94
4/30/2022 4:30:00 PM 11.53 52.754 0.03 7.02 1.51 10.92
4/30/2022 4:45:00 PM 11.5 52.7 0.03 7.02 1.51 10.92
4/30/2022 5:00:00 PM 11.42 52.556 0.03 7.02 1.54 10.93
4/30/2022 5:15:00 PM 11.35 52.43 0.03 7.02 1.66 10.92
4/30/2022 5:30:00 PM 11.27 52.286 0.03 7.03 1.7 10.93
4/30/2022 5:45:00 PM 11.21 52.178 0.03 7.02 1.54 10.94
4/30/2022 6:00:00 PM 11.14 52.052 0.03 7.01 1.6 10.94
4/30/2022 6:15:00 PM 11.03 51.854 0.03 7 1.62 10.94
4/30/2022 6:30:00 PM 10.91 51.638 0.031 6.99 1.55 10.94
4/30/2022 6:45:00 PM 10.82 51.476 0.031 6.98 1.56 10.95
4/30/2022 7:00:00 PM 10.72 51.296 0.031 6.97 1.53 10.94
4/30/2022 7:15:00 PM 10.62 51.116 0.031 6.94 1.57 10.93
4/30/2022 7:30:00 PM 10.51 50.918 0.031 6.93 1.51 10.92
4/30/2022 7:45:00 PM 10.41 50.738 0.031 6.92 1.63 10.91
4/30/2022 8:00:00 PM 10.31 50.558 0.031 6.9 1.64 10.91
4/30/2022 8:15:00 PM 10.21 50.378 0.031 6.89 1.52 10.9
4/30/2022 8:30:00 PM 10.11 50.198 0.031 6.88 1.68 10.9
4/30/2022 8:45:00 PM 10.02 50.036 0.031 6.87 1.57 10.91
4/30/2022 9:00:00 PM 9.92 49.856 0.031 6.86 1.69 10.93
4/30/2022 9:15:00 PM 9.82 49.676 0.031 6.86 1.83 10.95
4/30/2022 9:30:00 PM 9.73 49.514 0.031 6.86 1.71 10.97
4/30/2022 9:45:00 PM 9.63 49.334 0.031 6.85 1.61 11
4/30/2022 10:00:00 PM 9.54 49.172 0.031 6.85 1.71 11.02
4/30/2022 10:15:00 PM 9.44 48.992 0.031 6.84 1.66 11.04
4/30/2022 10:30:00 PM 9.33 48.794 0.031 6.84 1.78 11.07
4/30/2022 10:45:00 PM 9.23 48.614 0.031 6.83 1.65 11.1
4/30/2022 11:00:00 PM 9.13 48.434 0.032 6.83 1.69 11.12
4/30/2022 11:15:00 PM 9.03 48.254 0.032 6.83 1.68 11.15
4/30/2022 11:30:00 PM 8.93 48.074 0.032 6.83 1.69 11.18
4/30/2022 11:45:00 PM 8.83 47.894 0.032 6.82 1.69 11.21
5/1/2022 12:00:00 AM 8.73 47.714 0.032 6.82 1.64 11.24
5/1/2022 12:15:00 AM 8.63 47.534 0.032 6.82 1.61 11.26
5/1/2022 12:30:00 AM 8.52 47.336 0.032 6.82 1.84 11.3
5/1/2022 12:45:00 AM 8.42 47.156 0.032 6.82 1.74 11.33
5/1/2022 1:00:00 AM 8.32 46.976 0.032 6.81 1.8 11.36
5/1/2022 1:15:00 AM 8.23 46.814 0.032 6.81 1.71 11.39
5/1/2022 1:30:00 AM 8.13 46.634 0.032 6.81 1.68 11.42
5/1/2022 1:45:00 AM 8.04 46.472 0.032 6.81 1.65 11.45
5/1/2022 2:00:00 AM 7.95 46.31 0.032 6.81 1.76 11.47
5/1/2022 2:15:00 AM 7.86 46.148 0.032 6.82 1.64 11.5
5/1/2022 2:30:00 AM 7.77 45.986 0.032 6.81 1.73 11.53
5/1/2022 2:45:00 AM 7.69 45.842 0.032 6.81 1.77 11.55
5/1/2022 3:00:00 AM 7.61 45.698 0.032 6.81 1.69 11.57
5/1/2022 3:15:00 AM 7.54 45.572 0.032 6.81 1.61 11.59
5/1/2022 3:30:00 AM 7.46 45.428 0.032 6.81 1.71 11.61
5/1/2022 3:45:00 AM 7.4 45.32 0.032 6.81 1.67 11.64
5/1/2022 4:00:00 AM 7.33 45.194 0.032 6.8 1.67 11.65
5/1/2022 4:15:00 AM 7.27 45.086 0.032 6.81 1.67 11.68
5/1/2022 4:30:00 AM 7.22 44.996 0.032 6.82 1.72 11.69
5/1/2022 4:45:00 AM 7.18 44.924 0.032 6.82 1.65 11.7
5/1/2022 5:00:00 AM 7.14 44.852 0.032 6.81 1.62 11.71
5/1/2022 5:15:00 AM 7.1 44.78 0.032 6.81 1.72 11.73
5/1/2022 5:30:00 AM 7.06 44.708 0.032 6.81 1.75 11.75
5/1/2022 5:45:00 AM 7.03 44.654 0.032 6.82 1.7 11.76
5/1/2022 6:00:00 AM 7 44.6 0.032 6.81 1.67 11.77
5/1/2022 6:15:00 AM 6.95 44.51 0.032 6.82 1.6 11.78
5/1/2022 6:30:00 AM 6.91 44.438 0.032 6.82 1.64 11.81
5/1/2022 6:45:00 AM 6.87 44.366 0.032 6.83 1.62 11.84
5/1/2022 7:00:00 AM 6.85 44.33 0.032 6.84 1.63 11.89
5/1/2022 7:15:00 AM 6.85 44.33 0.032 6.85 1.54 11.93
5/1/2022 7:30:00 AM 6.87 44.366 0.032 6.87 1.57 11.98
5/1/2022 7:45:00 AM 6.9 44.42 0.031 6.88 1.7 12
5/1/2022 8:00:00 AM 6.91 44.438 0.031 6.89 1.53 12.01
5/1/2022 8:15:00 AM 6.93 44.474 0.031 6.89 1.55 12.02
5/1/2022 8:30:00 AM 6.94 44.492 0.031 6.9 1.59 12.03
5/1/2022 8:45:00 AM 6.98 44.564 0.031 6.91 1.52 12.04
5/1/2022 9:00:00 AM 7.03 44.654 0.031 6.91 1.59 12.04
5/1/2022 9:15:00 AM 7.12 44.816 0.031 6.92 1.52 12.05
5/1/2022 9:30:00 AM 7.3 45.14 0.031 6.93 1.5 12.04
5/1/2022 9:45:00 AM 7.39 45.302 0.031 6.94 1.52 12.02
5/1/2022 10:00:00 AM 7.42 45.356 0.031 6.95 1.55 12
5/1/2022 10:15:00 AM 7.44 45.392 0.031 6.94 1.52 11.97
5/1/2022 10:30:00 AM 7.52 45.536 0.031 6.95 1.54 11.96
5/1/2022 10:45:00 AM 7.63 45.734 0.031 6.96 1.56 11.93
5/1/2022 11:00:00 AM 7.79 46.022 0.031 6.96 1.5 11.92
5/1/2022 11:15:00 AM 7.94 46.292 0.031 6.97 1.48 11.89
5/1/2022 11:30:00 AM 8.05 46.49 0.031 6.98 1.44 11.86
5/1/2022 11:45:00 AM 8.15 46.67 0.031 6.98 1.54 11.83
5/1/2022 12:00:00 PM 8.15 46.67 0.031 6.97 1.48 11.76
5/1/2022 12:15:00 PM 8.13 46.634 0.031 6.96 1.49 11.72
5/1/2022 12:30:00 PM 8.13 46.634 0.031 6.95 1.63 11.69
5/1/2022 12:45:00 PM 8.17 46.706 0.031 6.94 1.56 11.67
5/1/2022 1:00:00 PM 8.21 46.778 0.031 6.95 1.6 11.67
5/1/2022 1:15:00 PM 8.23 46.814 0.031 6.95 1.62 11.65
5/1/2022 1:30:00 PM 8.25 46.85 0.031 6.95 1.58 11.65
5/1/2022 1:45:00 PM 8.26 46.868 0.031 6.95 1.58 11.64
5/1/2022 2:00:00 PM 8.3 46.94 0.031 6.95 1.56 11.65
5/1/2022 2:15:00 PM 8.36 47.048 0.031 6.95 1.64 11.66
5/1/2022 2:30:00 PM 8.42 47.156 0.031 6.96 1.68 11.64
5/1/2022 2:45:00 PM 8.43 47.174 0.031 6.96 1.69 11.63
5/1/2022 3:00:00 PM 8.45 47.21 0.031 6.96 1.67 11.62
5/1/2022 3:15:00 PM 8.45 47.21 0.031 6.96 1.72 11.6
5/1/2022 3:30:00 PM 8.46 47.228 0.031 6.95 1.76 11.58
5/1/2022 3:45:00 PM 8.48 47.264 0.031 6.94 2.07 11.57
5/1/2022 4:00:00 PM 8.51 47.318 0.031 6.94 2.31 11.57
5/1/2022 4:15:00 PM 8.55 47.39 0.031 6.94 2.34 11.57
5/1/2022 4:30:00 PM 8.56 47.408 0.031 6.94 2.19 11.55
5/1/2022 4:45:00 PM 8.57 47.426 0.031 6.95 2.15 11.54
5/1/2022 5:00:00 PM 8.56 47.408 0.031 6.94 2.19 11.51
5/1/2022 5:15:00 PM 8.56 47.408 0.031 6.93 2.59 11.48
5/1/2022 5:30:00 PM 8.57 47.426 0.031 6.93 3.44 11.48
5/1/2022 5:45:00 PM 8.6 47.48 0.031 6.93 3.92 11.5
5/1/2022 6:00:00 PM 8.63 47.534 0.031 6.94 3.77 11.51
5/1/2022 6:15:00 PM 8.66 47.588 0.031 6.95 3.55 11.52
5/1/2022 6:30:00 PM 8.69 47.642 0.031 6.95 3.2 11.52
5/1/2022 6:45:00 PM 8.69 47.642 0.031 6.95 3.47 11.48
5/1/2022 7:00:00 PM 8.68 47.624 0.031 6.93 3.68 11.45
5/1/2022 7:15:00 PM 8.68 47.624 0.031 6.92 3.42 11.41
5/1/2022 7:30:00 PM 8.67 47.606 0.031 6.91 3.23 11.39
5/1/2022 7:45:00 PM 8.67 47.606 0.031 6.9 3.25 11.34
5/1/2022 8:00:00 PM 8.66 47.588 0.031 6.88 2.75 11.32
5/1/2022 8:15:00 PM 8.65 47.57 0.031 6.88 2.85 11.3
5/1/2022 8:30:00 PM 8.65 47.57 0.031 6.87 2.6 11.29
5/1/2022 8:45:00 PM 8.64 47.552 0.031 6.86 2.62 11.28
5/1/2022 9:00:00 PM 8.63 47.534 0.031 6.87 2.56 11.27
5/1/2022 9:15:00 PM 8.63 47.534 0.031 6.87 2.41 11.28
5/1/2022 9:30:00 PM 8.63 47.534 0.031 6.86 2.3 11.27
5/1/2022 9:45:00 PM 8.63 47.534 0.031 6.86 2.29 11.27
5/1/2022 10:00:00 PM 8.63 47.534 0.031 6.86 2.24 11.27
5/1/2022 10:15:00 PM 8.63 47.534 0.031 6.86 2.35 11.27
5/1/2022 10:30:00 PM 8.62 47.516 0.031 6.85 2.23 11.27
5/1/2022 10:45:00 PM 8.62 47.516 0.031 6.84 2.34 11.28
5/1/2022 11:00:00 PM 8.62 47.516 0.031 6.84 2.22 11.27
5/1/2022 11:15:00 PM 8.62 47.516 0.031 6.84 2.21 11.28
5/1/2022 11:30:00 PM 8.62 47.516 0.031 6.84 2.29 11.27
5/1/2022 11:45:00 PM 8.61 47.498 0.031 6.84 2.24 11.27
5/2/2022 12:00:00 AM 8.61 47.498 0.031 6.84 2.39 11.27
5/2/2022 12:15:00 AM 8.64 47.552 0.031 6.84 2.1 11.27
5/2/2022 12:30:00 AM 8.65 47.57 0.031 6.83 2.27 11.27
5/2/2022 12:45:00 AM 8.64 47.552 0.031 6.83 2.15 11.27
5/2/2022 1:00:00 AM 8.63 47.534 0.031 6.83 2.2 11.27
5/2/2022 1:15:00 AM 8.63 47.534 0.031 6.83 2.05 11.27
5/2/2022 1:30:00 AM 8.62 47.516 0.031 6.82 2.02 11.27
5/2/2022 1:45:00 AM 8.61 47.498 0.031 6.82 2.21 11.27
5/2/2022 2:00:00 AM 8.61 47.498 0.031 6.82 3.24 11.26
5/2/2022 2:15:00 AM 8.61 47.498 0.031 6.81 4.15 11.26
5/2/2022 2:30:00 AM 8.61 47.498 0.031 6.81 3.45 11.26
5/2/2022 2:45:00 AM 8.61 47.498 0.031 6.81 3.16 11.26
5/2/2022 3:00:00 AM 8.6 47.48 0.031 6.81 3.31 11.27
5/2/2022 3:15:00 AM 8.6 47.48 0.031 6.81 3.55 11.26
5/2/2022 3:30:00 AM 8.6 47.48 0.031 6.8 3.57 11.26
5/2/2022 3:45:00 AM 8.59 47.462 0.031 6.8 2.73 11.27
5/2/2022 4:00:00 AM 8.59 47.462 0.031 6.79 2.56 11.26
5/2/2022 4:15:00 AM 8.59 47.462 0.031 6.8 2.5 11.27
5/2/2022 4:30:00 AM 8.58 47.444 0.031 6.79 2.16 11.27
5/2/2022 4:45:00 AM 8.58 47.444 0.031 6.78 2.3 11.27
5/2/2022 5:00:00 AM 8.58 47.444 0.031 6.78 2.16 11.27
5/2/2022 5:15:00 AM 8.58 47.444 0.031 6.79 2.04 11.27
5/2/2022 5:30:00 AM 8.58 47.444 0.031 6.78 2.12 11.28
5/2/2022 5:45:00 AM 8.58 47.444 0.031 6.79 2.12 11.28
5/2/2022 6:00:00 AM 8.58 47.444 0.031 6.78 2.08 11.28
5/2/2022 6:15:00 AM 8.57 47.426 0.031 6.78 2.01 11.28
5/2/2022 6:30:00 AM 8.58 47.444 0.031 6.78 2.13 11.29
5/2/2022 6:45:00 AM 8.58 47.444 0.031 6.79 2.01 11.31
5/2/2022 7:00:00 AM 8.58 47.444 0.031 6.79 2.07 11.32
5/2/2022 7:15:00 AM 8.6 47.48 0.031 6.8 1.98 11.38
5/2/2022 7:30:00 AM 8.62 47.516 0.031 6.82 2.2 11.43
5/2/2022 7:45:00 AM 8.66 47.588 0.031 6.85 1.95 11.47
5/2/2022 8:00:00 AM 8.7 47.66 0.031 6.87 1.99 11.49
5/2/2022 8:15:00 AM 8.73 47.714 0.031 6.88 1.96 11.48
5/2/2022 8:30:00 AM 8.75 47.75 0.031 6.89 1.99 11.49
5/2/2022 8:45:00 AM 8.84 47.912 0.031 6.91 1.95 11.52
5/2/2022 9:00:00 AM 8.9 48.02 0.031 6.92 1.9 11.52
5/2/2022 9:15:00 AM 9.01 48.218 0.031 6.93 1.91 11.52
5/2/2022 9:30:00 AM 9.08 48.344 0.031 6.94 1.83 11.51
5/2/2022 9:45:00 AM 9.09 48.362 0.031 6.95 2.21 11.45
5/2/2022 10:00:00 AM 9.08 48.344 0.031 6.93 1.94 11.39
5/2/2022 10:15:00 AM 9.08 48.344 0.031 6.93 1.95 11.38
5/2/2022 10:30:00 AM 9.14 48.452 0.031 6.94 2.34 11.41
5/2/2022 10:45:00 AM 9.18 48.524 0.031 6.95 2.28 11.4
5/2/2022 11:00:00 AM 9.2 48.56 0.031 6.96 1.94 11.41
5/2/2022 11:15:00 AM 9.19 48.542 0.031 6.95 1.83 11.38
5/2/2022 11:30:00 AM 9.27 48.686 0.031 6.96 2.47 11.42
5/2/2022 11:45:00 AM 9.35 48.83 0.031 6.96 1.88 11.42
5/2/2022 12:00:00 PM 9.49 49.082 0.031 6.98 1.71 11.44
5/2/2022 12:15:00 PM 9.71 49.478 0.031 7 1.67 11.43
5/2/2022 12:30:00 PM 9.99 49.982 0.031 7 1.82 11.37
5/2/2022 12:45:00 PM 10.09 50.162 0.031 7.02 2.02 11.33
5/2/2022 1:00:00 PM 10.17 50.306 0.031 7.02 2.7 11.29
5/2/2022 1:15:00 PM 10.15 50.27 0.03 7.02 2.1 11.27
5/2/2022 1:30:00 PM 10.14 50.252 0.031 7.03 2.82 11.26
5/2/2022 1:45:00 PM 10.24 50.432 0.03 7.03 2.15 11.26
5/2/2022 2:00:00 PM 10.34 50.612 0.03 7.03 1.92 11.24
5/2/2022 2:15:00 PM 10.41 50.738 0.03 7.03 1.9 11.22
5/2/2022 2:30:00 PM 10.51 50.918 0.03 7.04 1.77 11.2
5/2/2022 2:45:00 PM 10.59 51.062 0.03 7.04 1.97 11.18
5/2/2022 3:00:00 PM 10.65 51.17 0.03 7.03 1.79 11.16
5/2/2022 3:15:00 PM 10.71 51.278 0.03 7.04 1.83 11.15
5/2/2022 3:30:00 PM 10.75 51.35 0.03 7.04 1.72 11.13
5/2/2022 3:45:00 PM 10.81 51.458 0.03 7.04 1.74 11.12
5/2/2022 4:00:00 PM 10.83 51.494 0.03 7.04 1.7 11.1
5/2/2022 4:15:00 PM 10.8 51.44 0.03 7.03 1.75 11.07
5/2/2022 4:30:00 PM 10.78 51.404 0.03 7.03 1.77 11.07
5/2/2022 4:45:00 PM 10.76 51.368 0.03 7.03 1.67 11.05
5/2/2022 5:00:00 PM 10.74 51.332 0.03 7.02 1.66 11.03
5/2/2022 5:15:00 PM 10.71 51.278 0.03 7.01 1.72 11.02
5/2/2022 5:30:00 PM 10.68 51.224 0.03 7 1.73 11.02
5/2/2022 5:45:00 PM 10.66 51.188 0.031 7 1.75 11.02
5/2/2022 6:00:00 PM 10.62 51.116 0.031 6.99 1.68 11.01
5/2/2022 6:15:00 PM 10.57 51.026 0.031 6.98 1.83 10.98
5/2/2022 6:30:00 PM 10.54 50.972 0.031 6.97 1.75 10.98
5/2/2022 6:45:00 PM 10.5 50.9 0.031 6.96 2.17 10.98
5/2/2022 7:00:00 PM 10.47 50.846 0.031 6.96 1.74 10.99
5/2/2022 7:15:00 PM 10.43 50.774 0.031 6.96 1.67 10.97
5/2/2022 7:30:00 PM 10.39 50.702 0.031 6.94 1.69 10.95
5/2/2022 7:45:00 PM 10.34 50.612 0.031 6.93 1.75 10.94
5/2/2022 8:00:00 PM 10.29 50.522 0.031 6.92 1.69 10.92
5/2/2022 8:15:00 PM 10.22 50.396 0.031 6.9 1.65 10.92
5/2/2022 8:30:00 PM 10.14 50.252 0.031 6.89 1.79 10.91
5/2/2022 8:45:00 PM 10.06 50.108 0.031 6.88 1.89 10.91
5/2/2022 9:00:00 PM 9.98 49.964 0.031 6.87 1.78 10.92
5/2/2022 9:15:00 PM 9.91 49.838 0.031 6.87 1.76 10.93
5/2/2022 9:30:00 PM 9.84 49.712 0.031 6.87 1.81 10.95
5/2/2022 9:45:00 PM 9.76 49.568 0.031 6.86 1.76 10.97
5/2/2022 10:00:00 PM 9.69 49.442 0.031 6.86 1.7 10.99
5/2/2022 10:15:00 PM 9.61 49.298 0.031 6.86 1.8 11.01
5/2/2022 10:30:00 PM 9.53 49.154 0.031 6.86 1.76 11.03
5/2/2022 10:45:00 PM 9.46 49.028 0.031 6.85 1.88 11.05
5/2/2022 11:00:00 PM 9.38 48.884 0.031 6.85 1.76 11.07
5/2/2022 11:15:00 PM 9.31 48.758 0.032 6.86 1.73 11.09
5/2/2022 11:30:00 PM 9.24 48.632 0.031 6.85 1.8 11.11
5/2/2022 11:45:00 PM 9.16 48.488 0.031 6.85 1.82 11.14
5/3/2022 12:00:00 AM 9.09 48.362 0.032 6.84 1.73 11.15
5/3/2022 12:15:00 AM 9.02 48.236 0.031 6.84 1.82 11.17
5/3/2022 12:30:00 AM 8.95 48.11 0.032 6.84 1.77 11.19
5/3/2022 12:45:00 AM 8.88 47.984 0.032 6.83 1.8 11.2
5/3/2022 1:00:00 AM 8.81 47.858 0.032 6.83 1.78 11.23
5/3/2022 1:15:00 AM 8.74 47.732 0.032 6.83 1.74 11.25
5/3/2022 1:30:00 AM 8.67 47.606 0.032 6.83 1.79 11.27
5/3/2022 1:45:00 AM 8.61 47.498 0.032 6.83 1.79 11.29
5/3/2022 2:00:00 AM 8.54 47.372 0.032 6.84 1.76 11.31
5/3/2022 2:15:00 AM 8.47 47.246 0.032 6.83 1.89 11.33
5/3/2022 2:30:00 AM 8.41 47.138 0.032 6.84 1.73 11.34
5/3/2022 2:45:00 AM 8.34 47.012 0.032 6.85 1.81 11.36
5/3/2022 3:00:00 AM 8.29 46.922 0.032 6.84 1.81 11.38
5/3/2022 3:15:00 AM 8.24 46.832 0.032 6.85 1.76 11.39
5/3/2022 3:30:00 AM 8.2 46.76 0.032 6.85 1.77 11.41
5/3/2022 3:45:00 AM 8.15 46.67 0.032 6.85 1.78 11.42
5/3/2022 4:00:00 AM 8.1 46.58 0.032 6.85 1.78 11.45
5/3/2022 4:15:00 AM 8.03 46.454 0.032 6.85 1.77 11.46
5/3/2022 4:30:00 AM 7.96 46.328 0.032 6.84 1.8 11.48
5/3/2022 4:45:00 AM 7.91 46.238 0.032 6.84 1.79 11.49
5/3/2022 5:00:00 AM 7.86 46.148 0.032 6.83 1.71 11.51
5/3/2022 5:15:00 AM 7.81 46.058 0.032 6.84 1.84 11.53
5/3/2022 5:30:00 AM 7.75 45.95 0.032 6.84 1.71 11.55
5/3/2022 5:45:00 AM 7.71 45.878 0.032 6.84 1.79 11.56
5/3/2022 6:00:00 AM 7.66 45.788 0.032 6.84 1.65 11.58
5/3/2022 6:15:00 AM 7.62 45.716 0.032 6.84 1.64 11.6
5/3/2022 6:30:00 AM 7.59 45.662 0.032 6.84 1.75 11.62
5/3/2022 6:45:00 AM 7.56 45.608 0.032 6.85 1.68 11.66
5/3/2022 7:00:00 AM 7.54 45.572 0.032 6.87 1.68 11.71
5/3/2022 7:15:00 AM 7.53 45.554 0.032 6.88 1.68 11.77
5/3/2022 7:30:00 AM 7.52 45.536 0.032 6.89 1.7 11.81
5/3/2022 7:45:00 AM 7.51 45.518 0.031 6.9 1.64 11.83
5/3/2022 8:00:00 AM 7.52 45.536 0.031 6.92 1.58 11.87
5/3/2022 8:15:00 AM 7.55 45.59 0.031 6.93 1.68 11.9
5/3/2022 8:30:00 AM 7.59 45.662 0.031 6.95 1.58 11.91
5/3/2022 8:45:00 AM 7.64 45.752 0.031 6.96 1.62 11.93
5/3/2022 9:00:00 AM 7.69 45.842 0.031 6.97 1.59 11.93
5/3/2022 9:15:00 AM 7.74 45.932 0.031 6.98 1.6 11.92
5/3/2022 9:30:00 AM 7.82 46.076 0.031 6.98 1.6 11.92
5/3/2022 9:45:00 AM 7.92 46.256 0.031 6.99 1.61 11.9
5/3/2022 10:00:00 AM 8.01 46.418 0.031 7 1.59 11.88
5/3/2022 10:15:00 AM 8.1 46.58 0.031 7 1.57 11.86
5/3/2022 10:30:00 AM 8.22 46.796 0.031 7.01 1.65 11.84
5/3/2022 10:45:00 AM 8.36 47.048 0.031 7.02 1.6 11.81
5/3/2022 11:00:00 AM 8.48 47.264 0.031 7.02 1.59 11.77
5/3/2022 11:15:00 AM 8.62 47.516 0.031 7.02 1.54 11.74
5/3/2022 11:30:00 AM 8.74 47.732 0.031 7.02 1.6 11.71
5/3/2022 11:45:00 AM 8.87 47.966 0.031 7.03 1.53 11.68
5/3/2022 12:00:00 PM 9.04 48.272 0.031 7.05 1.57 11.64
5/3/2022 12:15:00 PM 9.18 48.524 0.031 7.05 1.62 11.61
5/3/2022 12:30:00 PM 9.3 48.74 0.031 7.05 1.56 11.56
5/3/2022 12:45:00 PM 9.4 48.92 0.031 7.05 1.59 11.52
5/3/2022 1:00:00 PM 9.51 49.118 0.031 7.05 1.55 11.5
5/3/2022 1:15:00 PM 9.62 49.316 0.031 7.06 1.55 11.46
5/3/2022 1:30:00 PM 9.67 49.406 0.031 7.07 1.56 11.41
5/3/2022 1:45:00 PM 9.68 49.424 0.031 7.06 1.54 11.36
5/3/2022 2:00:00 PM 9.75 49.55 0.031 7.07 1.6 11.36
5/3/2022 2:15:00 PM 9.87 49.766 0.031 7.06 1.58 11.34
5/3/2022 2:30:00 PM 9.93 49.874 0.031 7.05 1.6 11.31
5/3/2022 2:45:00 PM 9.97 49.946 0.031 7.04 1.6 11.29
5/3/2022 3:00:00 PM 10.02 50.036 0.031 7.04 1.61 11.28
5/3/2022 3:15:00 PM 10.09 50.162 0.031 7.04 1.82 11.27
5/3/2022 3:30:00 PM 10.13 50.234 0.031 7.03 1.63 11.24
5/3/2022 3:45:00 PM 10.19 50.342 0.031 7.03 1.56 11.23
5/3/2022 4:00:00 PM 10.26 50.468 0.031 7.03 1.55 11.21
5/3/2022 4:15:00 PM 10.29 50.522 0.031 7.03 1.58 11.18
5/3/2022 4:30:00 PM 10.32 50.576 0.031 7.02 1.92 11.16
5/3/2022 4:45:00 PM 10.36 50.648 0.031 7.02 1.65 11.14
5/3/2022 5:00:00 PM 10.45 50.81 0.031 7.02 1.71 11.1
5/3/2022 5:15:00 PM 10.55 50.99 0.031 7.03 1.56 11.12
5/3/2022 5:30:00 PM 10.6 51.08 0.031 7.03 2.09 11.09
5/3/2022 5:45:00 PM 10.63 51.134 0.031 7.04 1.87 11.06
5/3/2022 6:00:00 PM 10.65 51.17 0.031 7.03 1.57 11.05
5/3/2022 6:15:00 PM 10.7 51.26 0.031 7.04 1.71 11.04
5/3/2022 6:30:00 PM 10.72 51.296 0.031 7.03 1.55 11.01
5/3/2022 6:45:00 PM 10.71 51.278 0.031 7.02 1.51 10.98
5/3/2022 7:00:00 PM 10.69 51.242 0.031 7 1.57 10.93
5/3/2022 7:15:00 PM 10.67 51.206 0.031 6.98 1.61 10.89
5/3/2022 7:30:00 PM 10.65 51.17 0.031 6.97 1.62 10.82
5/3/2022 7:45:00 PM 10.64 51.152 0.031 6.95 1.55 10.77
5/3/2022 8:00:00 PM 10.64 51.152 0.031 6.94 1.68 10.75
5/3/2022 8:15:00 PM 10.62 51.116 0.031 6.92 1.74 10.73
5/3/2022 8:30:00 PM 10.59 51.062 0.032 6.9 1.71 10.73
5/3/2022 8:45:00 PM 10.57 51.026 0.032 6.89 1.77 10.72
5/3/2022 9:00:00 PM 10.54 50.972 0.032 6.88 1.81 10.72
5/3/2022 9:15:00 PM 10.51 50.918 0.032 6.88 2 10.72
5/3/2022 9:30:00 PM 10.49 50.882 0.032 6.87 1.88 10.72
5/3/2022 9:45:00 PM 10.47 50.846 0.032 6.87 1.88 10.72
5/3/2022 10:00:00 PM 10.44 50.792 0.032 6.88 1.98 10.73
5/3/2022 10:15:00 PM 10.41 50.738 0.032 6.87 2.58 10.74
5/3/2022 10:30:00 PM 10.41 50.738 0.032 6.87 3.17 10.76
5/3/2022 10:45:00 PM 10.39 50.702 0.032 6.86 3.13 10.76
5/3/2022 11:00:00 PM 10.37 50.666 0.032 6.86 3.06 10.76
5/3/2022 11:15:00 PM 10.35 50.63 0.032 6.86 3.14 10.76
5/3/2022 11:30:00 PM 10.33 50.594 0.032 6.86 3.16 10.75
5/3/2022 11:45:00 PM 10.31 50.558 0.032 6.87 3.53 10.76
5/4/2022 12:00:00 AM 10.28 50.504 0.032 6.87 4.13 10.76
5/4/2022 12:15:00 AM 10.25 50.45 0.032 6.86 4.88 10.77
5/4/2022 12:30:00 AM 10.23 50.414 0.032 6.86 5.08 10.78
5/4/2022 12:45:00 AM 10.22 50.396 0.032 6.85 4.35 10.78
5/4/2022 1:00:00 AM 10.19 50.342 0.032 6.85 4.29 10.79
5/4/2022 1:15:00 AM 10.18 50.324 0.032 6.86 4.07 10.79
5/4/2022 1:30:00 AM 10.15 50.27 0.032 6.85 4.29 10.8
5/4/2022 1:45:00 AM 10.14 50.252 0.032 6.85 4.55 10.81
5/4/2022 2:00:00 AM 10.12 50.216 0.032 6.85 4.24 10.81
5/4/2022 2:15:00 AM 10.1 50.18 0.032 6.85 4.25 10.82
5/4/2022 2:30:00 AM 10.09 50.162 0.032 6.84 4 10.82
5/4/2022 2:45:00 AM 10.07 50.126 0.032 6.84 4 10.83
5/4/2022 3:00:00 AM 10.05 50.09 0.032 6.84 3.53 10.83
5/4/2022 3:15:00 AM 10.05 50.09 0.032 6.84 3.5 10.83
5/4/2022 3:30:00 AM 10.05 50.09 0.032 6.85 3.28 10.84
5/4/2022 3:45:00 AM 10.06 50.108 0.032 6.86 3.3 10.84
5/4/2022 4:00:00 AM 10.06 50.108 0.031 6.86 3.19 10.84
5/4/2022 4:15:00 AM 10.05 50.09 0.031 6.86 3.2 10.84
5/4/2022 4:30:00 AM 10.04 50.072 0.031 6.85 3.06 10.84
5/4/2022 4:45:00 AM 10.03 50.054 0.031 6.86 3.02 10.84
5/4/2022 5:00:00 AM 10.03 50.054 0.031 6.85 4.12 10.84
5/4/2022 5:15:00 AM 10.02 50.036 0.031 6.86 3.24 10.84
5/4/2022 5:30:00 AM 10.01 50.018 0.031 6.85 4 10.83
5/4/2022 5:45:00 AM 9.99 49.982 0.031 6.85 3.16 10.84
5/4/2022 6:00:00 AM 9.99 49.982 0.031 6.84 3.1 10.85
5/4/2022 6:15:00 AM 9.97 49.946 0.031 6.84 2.68 10.86
5/4/2022 6:30:00 AM 9.97 49.946 0.031 6.85 2.62 10.86
5/4/2022 6:45:00 AM 9.96 49.928 0.031 6.85 2.42 10.87
5/4/2022 7:00:00 AM 9.96 49.928 0.031 6.85 2.41 10.88
5/4/2022 7:15:00 AM 9.96 49.928 0.031 6.84 2.29 10.9
5/4/2022 7:30:00 AM 9.95 49.91 0.031 6.84 2.51 10.91
5/4/2022 7:45:00 AM 9.97 49.946 0.031 6.86 2.23 10.97
5/4/2022 8:00:00 AM 9.98 49.964 0.031 6.87 2.24 11
5/4/2022 8:15:00 AM 9.99 49.982 0.031 6.88 2.22 11.01
5/4/2022 8:30:00 AM 10 50 0.031 6.89 2.46 11.04
5/4/2022 8:45:00 AM 10.04 50.072 0.031 6.91 2.19 11.08
5/4/2022 9:00:00 AM 10.1 50.18 0.031 6.93 2.25 11.11
5/4/2022 9:15:00 AM 10.14 50.252 0.031 6.94 2.19 11.09
5/4/2022 9:30:00 AM 10.14 50.252 0.031 6.95 2.18 11.07
5/4/2022 9:45:00 AM 10.15 50.27 0.031 6.95 2.11 11.07
5/4/2022 10:00:00 AM 10.21 50.378 0.031 6.96 2.29 11.1
5/4/2022 10:15:00 AM 10.26 50.468 0.031 6.97 2.05 11.09
5/4/2022 10:30:00 AM 10.28 50.504 0.031 6.96 2.41 11.07
5/4/2022 10:45:00 AM 10.32 50.576 0.031 6.97 2.11 11.08
5/4/2022 11:00:00 AM 10.39 50.702 0.031 6.99 2.17 11.09
5/4/2022 11:15:00 AM 10.58 51.044 0.031 7 2.15 11.1
5/4/2022 11:30:00 AM 10.87 51.566 0.03 7.01 2.22 11.07
5/4/2022 11:45:00 AM 10.93 51.674 0.03 7.01 2.32 10.98
5/4/2022 12:00:00 PM 10.82 51.476 0.031 6.99 3 10.94
5/4/2022 12:15:00 PM 10.98 51.764 0.03 7 3.27 10.97
5/4/2022 12:30:00 PM 11.34 52.412 0.03 7.02 3.12 10.96
5/4/2022 12:45:00 PM 11.46 52.628 0.03 7.02 3.15 10.91
5/4/2022 1:00:00 PM 11.47 52.646 0.03 7.03 4.3 10.86
5/4/2022 1:15:00 PM 11.46 52.628 0.03 7.03 4.48 10.84
5/4/2022 1:30:00 PM 11.48 52.664 0.03 7.03 4.03 10.83
5/4/2022 1:45:00 PM 11.52 52.736 0.03 7.01 3.37 10.8
5/4/2022 2:00:00 PM 11.59 52.862 0.03 7.02 2.92 10.8
5/4/2022 2:15:00 PM 11.83 53.294 0.03 7.03 2.72 10.81
5/4/2022 2:30:00 PM 11.89 53.402 0.03 7.03 2.59 10.77
5/4/2022 2:45:00 PM 11.79 53.222 0.03 7.03 2.75 10.74
5/4/2022 3:00:00 PM 11.73 53.114 0.03 7.01 2.84 10.75
5/4/2022 3:15:00 PM 11.77 53.186 0.03 7.02 2.7 10.78
5/4/2022 3:30:00 PM 11.78 53.204 0.03 7.02 2.6 10.78
5/4/2022 3:45:00 PM 11.73 53.114 0.03 7.02 2.68 10.76
5/4/2022 4:00:00 PM 11.68 53.024 0.03 7.01 2.44 10.76
5/4/2022 4:15:00 PM 11.65 52.97 0.03 7.01 2.52 10.75
5/4/2022 4:30:00 PM 11.63 52.934 0.03 7 2.39 10.76
5/4/2022 4:45:00 PM 11.66 52.988 0.03 7.02 2.49 10.79
5/4/2022 5:00:00 PM 11.72 53.096 0.03 7.02 2.39 10.81
5/4/2022 5:15:00 PM 11.7 53.06 0.03 7.02 2.43 10.8
5/4/2022 5:30:00 PM 11.64 52.952 0.03 7.02 2.46 10.78
5/4/2022 5:45:00 PM 11.58 52.844 0.03 7 2.36 10.75
5/4/2022 6:00:00 PM 11.52 52.736 0.03 6.99 2.25 10.74
5/4/2022 6:15:00 PM 11.48 52.664 0.03 6.98 2.34 10.72
5/4/2022 6:30:00 PM 11.44 52.592 0.03 6.97 2.08 10.7
5/4/2022 6:45:00 PM 11.39 52.502 0.03 6.96 2.12 10.69
5/4/2022 7:00:00 PM 11.35 52.43 0.03 6.96 2.41 10.71
5/4/2022 7:15:00 PM 11.31 52.358 0.031 6.95 2.17 10.69
5/4/2022 7:30:00 PM 11.26 52.268 0.031 6.94 2.06 10.68
5/4/2022 7:45:00 PM 11.21 52.178 0.031 6.93 2.17 10.66
5/4/2022 8:00:00 PM 11.17 52.106 0.031 6.92 2.05 10.66
5/4/2022 8:15:00 PM 11.13 52.034 0.031 6.91 2.08 10.66
5/4/2022 8:30:00 PM 11.08 51.944 0.031 6.9 1.92 10.65
5/4/2022 8:45:00 PM 11.04 51.872 0.031 6.9 2.07 10.66
5/4/2022 9:00:00 PM 11 51.8 0.031 6.89 2.09 10.67
5/4/2022 9:15:00 PM 10.96 51.728 0.031 6.89 2.05 10.68
5/4/2022 9:30:00 PM 10.92 51.656 0.031 6.88 2.04 10.69
5/4/2022 9:45:00 PM 10.88 51.584 0.031 6.87 2.08 10.7
5/4/2022 10:00:00 PM 10.84 51.512 0.031 6.87 2.15 10.71
5/4/2022 10:15:00 PM 10.81 51.458 0.031 6.86 2.06 10.72
5/4/2022 10:30:00 PM 10.77 51.386 0.031 6.86 2.11 10.73
5/4/2022 10:45:00 PM 10.74 51.332 0.031 6.86 2.02 10.74
5/4/2022 11:00:00 PM 10.71 51.278 0.031 6.85 1.99 10.75
5/4/2022 11:15:00 PM 10.68 51.224 0.031 6.86 2.02 10.75
5/4/2022 11:30:00 PM 10.64 51.152 0.031 6.86 2.24 10.76
5/4/2022 11:45:00 PM 10.61 51.098 0.031 6.86 2.2 10.77
5/5/2022 12:00:00 AM 10.58 51.044 0.031 6.86 2.14 10.79
5/5/2022 12:15:00 AM 10.56 51.008 0.031 6.85 2.2 10.8
5/5/2022 12:30:00 AM 10.53 50.954 0.031 6.85 1.97 10.8
5/5/2022 12:45:00 AM 10.5 50.9 0.031 6.86 2.05 10.81
5/5/2022 1:00:00 AM 10.47 50.846 0.031 6.85 1.97 10.82
5/5/2022 1:15:00 AM 10.44 50.792 0.031 6.86 1.99 10.82
5/5/2022 1:30:00 AM 10.41 50.738 0.031 6.85 2.49 10.83
5/5/2022 1:45:00 AM 10.37 50.666 0.031 6.84 2.01 10.84
5/5/2022 2:00:00 AM 10.34 50.612 0.031 6.84 1.99 10.84
5/5/2022 2:15:00 AM 10.29 50.522 0.031 6.84 1.94 10.86
5/5/2022 2:30:00 AM 10.22 50.396 0.031 6.84 2.21 10.87
5/5/2022 2:45:00 AM 10.18 50.324 0.031 6.85 1.9 10.88
5/5/2022 3:00:00 AM 10.14 50.252 0.031 6.85 2.15 10.89
5/5/2022 3:15:00 AM 10.08 50.144 0.031 6.85 2.13 10.9
5/5/2022 3:30:00 AM 10.01 50.018 0.031 6.85 1.94 10.92
5/5/2022 3:45:00 AM 9.95 49.91 0.031 6.86 1.92 10.93
5/5/2022 4:00:00 AM 9.88 49.784 0.031 6.85 2.11 10.95
5/5/2022 4:15:00 AM 9.81 49.658 0.031 6.85 1.83 10.96
5/5/2022 4:30:00 AM 9.74 49.532 0.031 6.85 1.87 10.98
5/5/2022 4:45:00 AM 9.68 49.424 0.031 6.83 1.96 11
5/5/2022 5:00:00 AM 9.61 49.298 0.031 6.83 1.95 11.02
5/5/2022 5:15:00 AM 9.54 49.172 0.031 6.85 1.94 11.04
5/5/2022 5:30:00 AM 9.47 49.046 0.031 6.85 2.11 11.05
5/5/2022 5:45:00 AM 9.4 48.92 0.031 6.84 2.02 11.08
5/5/2022 6:00:00 AM 9.35 48.83 0.031 6.85 1.97 11.09
5/5/2022 6:15:00 AM 9.28 48.704 0.031 6.84 1.92 11.11
5/5/2022 6:30:00 AM 9.24 48.632 0.031 6.86 1.86 11.15
5/5/2022 6:45:00 AM 9.22 48.596 0.031 6.87 1.84 11.2
5/5/2022 7:00:00 AM 9.2 48.56 0.031 6.87 1.91 11.24
5/5/2022 7:15:00 AM 9.19 48.542 0.031 6.9 1.93 11.3
5/5/2022 7:30:00 AM 9.18 48.524 0.031 6.92 1.83 11.34
5/5/2022 7:45:00 AM 9.18 48.524 0.031 6.92 1.8 11.37
5/5/2022 8:00:00 AM 9.19 48.542 0.031 6.93 1.77 11.41
5/5/2022 8:15:00 AM 9.22 48.596 0.031 6.96 1.82 11.44
5/5/2022 8:30:00 AM 9.26 48.668 0.031 6.96 1.8 11.46
5/5/2022 8:45:00 AM 9.31 48.758 0.031 6.98 1.72 11.46
5/5/2022 9:00:00 AM 9.36 48.848 0.031 6.99 1.88 11.46
5/5/2022 9:15:00 AM 9.41 48.938 0.031 7 1.79 11.47
5/5/2022 9:30:00 AM 9.48 49.064 0.031 7.04 1.69 11.47
5/5/2022 9:45:00 AM 9.6 49.28 0.031 7.01 1.65 11.46
5/5/2022 10:00:00 AM 9.78 49.604 0.031 7.02 1.76 11.43
5/5/2022 10:15:00 AM 9.9 49.82 0.031 7.03 1.89 11.4
5/5/2022 10:30:00 AM 9.99 49.982 0.031 7.04 1.69 11.38
5/5/2022 10:45:00 AM 10.09 50.162 0.031 7.02 1.78 11.35
5/5/2022 11:00:00 AM 10.24 50.432 0.031 7.04 1.67 11.33
5/5/2022 11:15:00 AM 10.43 50.774 0.031 7.05 1.65 11.29
5/5/2022 11:30:00 AM 10.62 51.116 0.031 7.04 1.62 11.24
5/5/2022 11:45:00 AM 10.79 51.422 0.031 7.05 1.74 11.2
5/5/2022 12:00:00 PM 10.99 51.782 0.031 7.05 1.87 11.16
5/5/2022 12:15:00 PM 11.18 52.124 0.031 7.06 1.81 11.11
5/5/2022 12:30:00 PM 11.43 52.574 0.031 7.06 1.74 11.06
5/5/2022 12:45:00 PM 11.66 52.988 0.031 7.07 1.71 11.01
5/5/2022 1:00:00 PM 11.88 53.384 0.031 7.07 1.72 10.95
5/5/2022 1:15:00 PM 12.12 53.816 0.031 7.07 1.7 10.91
5/5/2022 1:30:00 PM 12.37 54.266 0.031 7.09 2.18 10.85
5/5/2022 1:45:00 PM 12.6 54.68 0.031 7.09 1.81 10.8
5/5/2022 2:00:00 PM 12.82 55.076 0.031 7.09 1.65 10.75
5/5/2022 2:15:00 PM 12.99 55.382 0.03 7.1 1.77 10.69
5/5/2022 2:30:00 PM 13.04 55.472 0.031 7.1 1.88 10.65
5/5/2022 2:45:00 PM 13.23 55.814 0.031 7.1 1.68 10.62
5/5/2022 3:00:00 PM 13.42 56.156 0.031 7.1 1.67 10.57
5/5/2022 3:15:00 PM 13.49 56.282 0.031 7.1 1.7 10.53
5/5/2022 3:30:00 PM 13.5 56.3 0.031 7.1 1.62 10.5
5/5/2022 3:45:00 PM 13.58 56.444 0.031 7.1 1.79 10.49
5/5/2022 4:00:00 PM 13.6 56.48 0.031 7.1 1.78 10.46
5/5/2022 4:15:00 PM 13.57 56.426 0.031 7.1 1.63 10.45
5/5/2022 4:30:00 PM 13.56 56.408 0.031 7.1 1.68 10.44
5/5/2022 4:45:00 PM 13.56 56.408 0.031 7.08 1.66 10.43
5/5/2022 5:00:00 PM 13.54 56.372 0.031 7.09 1.82 10.43
5/5/2022 5:15:00 PM 13.49 56.282 0.031 7.09 1.68 10.42
5/5/2022 5:30:00 PM 13.39 56.102 0.031 7.08 1.71 10.41
5/5/2022 5:45:00 PM 13.3 55.94 0.031 7.07 1.7 10.41
5/5/2022 6:00:00 PM 13.24 55.832 0.031 7.07 1.64 10.41
5/5/2022 6:15:00 PM 13.18 55.724 0.031 7.06 1.63 10.4
5/5/2022 6:30:00 PM 13.11 55.598 0.031 7.04 1.71 10.39
5/5/2022 6:45:00 PM 13.02 55.436 0.031 7.02 1.72 10.38
5/5/2022 7:00:00 PM 12.94 55.292 0.031 7.02 1.59 10.37
5/5/2022 7:15:00 PM 12.84 55.112 0.031 6.99 1.75 10.34
5/5/2022 7:30:00 PM 12.75 54.95 0.031 6.98 1.66 10.32
5/5/2022 7:45:00 PM 12.67 54.806 0.031 6.96 1.73 10.3
5/5/2022 8:00:00 PM 12.58 54.644 0.031 6.95 1.69 10.28
5/5/2022 8:15:00 PM 12.5 54.5 0.032 6.94 1.65 10.28
5/5/2022 8:30:00 PM 12.42 54.356 0.032 6.93 1.7 10.28
5/5/2022 8:45:00 PM 12.34 54.212 0.032 6.91 1.79 10.28
5/5/2022 9:00:00 PM 12.26 54.068 0.032 6.92 1.65 10.3
5/5/2022 9:15:00 PM 12.17 53.906 0.032 6.91 1.66 10.31
5/5/2022 9:30:00 PM 12.1 53.78 0.032 6.91 1.8 10.33
5/5/2022 9:45:00 PM 12.02 53.636 0.032 6.9 1.83 10.33
5/5/2022 10:00:00 PM 11.96 53.528 0.032 6.91 1.79 10.36
5/5/2022 10:15:00 PM 11.89 53.402 0.032 6.89 1.71 10.36
5/5/2022 10:30:00 PM 11.83 53.294 0.032 6.89 1.89 10.39
5/5/2022 10:45:00 PM 11.77 53.186 0.032 6.88 1.79 10.4
5/5/2022 11:00:00 PM 11.7 53.06 0.032 6.89 1.81 10.42
5/5/2022 11:15:00 PM 11.64 52.952 0.032 6.88 1.8 10.43
5/5/2022 11:30:00 PM 11.58 52.844 0.032 6.87 1.91 10.45
5/5/2022 11:45:00 PM 11.53 52.754 0.032 6.88 1.84 10.47
5/6/2022 12:00:00 AM 11.47 52.646 0.032 6.87 1.81 10.47
5/6/2022 12:15:00 AM 11.42 52.556 0.032 6.88 1.89 10.49
5/6/2022 12:30:00 AM 11.36 52.448 0.032 6.88 1.88 10.51
5/6/2022 12:45:00 AM 11.31 52.358 0.032 6.89 2.42 10.52
5/6/2022 1:00:00 AM 11.26 52.268 0.032 6.88 1.83 10.53
5/6/2022 1:15:00 AM 11.21 52.178 0.032 6.87 1.85 10.54
5/6/2022 1:30:00 AM 11.16 52.088 0.032 6.88 1.87 10.56
5/6/2022 1:45:00 AM 11.11 51.998 0.032 6.89 1.91 10.57
5/6/2022 2:00:00 AM 11.05 51.89 0.032 6.89 1.9 10.59
5/6/2022 2:15:00 AM 11 51.8 0.032 6.9 1.86 10.6
5/6/2022 2:30:00 AM 10.95 51.71 0.032 6.9 1.81 10.61
5/6/2022 2:45:00 AM 10.91 51.638 0.032 6.9 1.87 10.63
5/6/2022 3:00:00 AM 10.87 51.566 0.032 6.89 1.86 10.63
5/6/2022 3:15:00 AM 10.82 51.476 0.032 6.9 1.92 10.64
5/6/2022 3:30:00 AM 10.78 51.404 0.032 6.91 1.93 10.65
5/6/2022 3:45:00 AM 10.74 51.332 0.032 6.9 1.96 10.67
5/6/2022 4:00:00 AM 10.69 51.242 0.032 6.91 1.9 10.68
5/6/2022 4:15:00 AM 10.65 51.17 0.032 6.9 1.94 10.68
5/6/2022 4:30:00 AM 10.62 51.116 0.032 6.9 1.88 10.69
5/6/2022 4:45:00 AM 10.58 51.044 0.032 6.9 1.84 10.7
5/6/2022 5:00:00 AM 10.54 50.972 0.032 6.89 1.83 10.69
5/6/2022 5:15:00 AM 10.5 50.9 0.032 6.91 1.9 10.71
5/6/2022 5:30:00 AM 10.47 50.846 0.032 6.9 1.95 10.72
5/6/2022 5:45:00 AM 10.43 50.774 0.032 6.9 1.98 10.73
5/6/2022 6:00:00 AM 10.4 50.72 0.032 6.9 2.05 10.74
5/6/2022 6:15:00 AM 10.36 50.648 0.032 6.91 2.09 10.76
5/6/2022 6:30:00 AM 10.33 50.594 0.032 6.91 2.81 10.77
5/6/2022 6:45:00 AM 10.3 50.54 0.032 6.91 2.04 10.78
5/6/2022 7:00:00 AM 10.27 50.486 0.032 6.91 1.99 10.8
5/6/2022 7:15:00 AM 10.25 50.45 0.032 6.92 2.26 10.83
5/6/2022 7:30:00 AM 10.23 50.414 0.032 6.93 1.99 10.85
5/6/2022 7:45:00 AM 10.21 50.378 0.032 6.94 2.33 10.87
5/6/2022 8:00:00 AM 10.19 50.342 0.032 6.94 2.18 10.89
5/6/2022 8:15:00 AM 10.18 50.324 0.032 6.96 2.16 10.92
5/6/2022 8:30:00 AM 10.17 50.306 0.032 6.96 2.18 10.93
5/6/2022 8:45:00 AM 10.15 50.27 0.032 6.97 2.42 10.93
5/6/2022 9:00:00 AM 10.14 50.252 0.032 6.96 2.15 10.93
5/6/2022 9:15:00 AM 10.13 50.234 0.032 6.96 2.33 10.94
5/6/2022 9:30:00 AM 10.12 50.216 0.031 6.97 2.21 10.96
5/6/2022 9:45:00 AM 10.12 50.216 0.031 6.97 2.17 10.97
5/6/2022 10:00:00 AM 10.11 50.198 0.031 6.99 2.64 11
5/6/2022 10:15:00 AM 10.11 50.198 0.031 7 2.49 11.01
5/6/2022 10:30:00 AM 10.11 50.198 0.031 6.99 2.46 11.02
5/6/2022 10:45:00 AM 10.11 50.198 0.031 7.01 2.8 11.03
5/6/2022 11:00:00 AM 10.11 50.198 0.031 7 3.19 11.03
5/6/2022 11:15:00 AM 10.11 50.198 0.031 7 3.93 11.02
5/6/2022 11:30:00 AM 10.11 50.198 0.031 7 3.88 11.04
5/6/2022 11:45:00 AM 10.12 50.216 0.031 7 4.24 11.04
5/6/2022 12:00:00 PM 10.12 50.216 0.031 7.01 5.66 11.04
5/6/2022 12:15:00 PM 10.13 50.234 0.031 7 5.79 11.03
5/6/2022 12:30:00 PM 10.14 50.252 0.031 7.01 5.72 11.03
5/6/2022 12:45:00 PM 10.16 50.288 0.031 7.01 6.38 11.03
5/6/2022 1:00:00 PM 10.17 50.306 0.031 7.01 7.24 11.02
5/6/2022 1:15:00 PM 10.18 50.324 0.031 7 7.29 11.01
5/6/2022 1:30:00 PM 10.19 50.342 0.03 7.01 8.13 11
5/6/2022 1:45:00 PM 10.2 50.36 0.03 7 8.48 11
5/6/2022 2:00:00 PM 10.21 50.378 0.03 7 9.01 11
5/6/2022 2:15:00 PM 10.22 50.396 0.03 7 10.06 10.99
5/6/2022 2:30:00 PM 10.22 50.396 0.03 6.99 10.28 10.98
5/6/2022 2:45:00 PM 10.23 50.414 0.03 6.99 12.01 10.97
5/6/2022 3:00:00 PM 10.24 50.432 0.03 6.99 11.85 10.97
5/6/2022 3:15:00 PM 10.24 50.432 0.03 6.98 12.66 10.98
5/6/2022 3:30:00 PM 10.24 50.432 0.03 6.98 12.86 10.97
5/6/2022 3:45:00 PM 10.24 50.432 0.03 6.98 12.11 10.97
5/6/2022 4:00:00 PM 10.24 50.432 0.03 6.97 13.68 10.95
5/6/2022 4:15:00 PM 10.24 50.432 0.03 6.96 12.41 10.95
5/6/2022 4:30:00 PM 10.24 50.432 0.03 6.96 12.32 10.95
5/6/2022 4:45:00 PM 10.24 50.432 0.03 6.96 12.31 10.95
5/6/2022 5:00:00 PM 10.24 50.432 0.03 6.95 12.54 10.95
5/6/2022 5:15:00 PM 10.22 50.396 0.03 6.95 12.05 10.93
5/6/2022 5:30:00 PM 10.21 50.378 0.029 6.94 12.53 10.92
5/6/2022 5:45:00 PM 10.2 50.36 0.029 6.93 12.64 10.91
5/6/2022 6:00:00 PM 10.19 50.342 0.029 6.93 12.25 10.92
5/6/2022 6:15:00 PM 10.18 50.324 0.029 6.93 12.67 10.92
5/6/2022 6:30:00 PM 10.17 50.306 0.029 6.92 13.16 10.92
5/6/2022 6:45:00 PM 10.16 50.288 0.029 6.91 12.68 10.92
5/6/2022 7:00:00 PM 10.14 50.252 0.029 6.92 12.22 10.92
5/6/2022 7:15:00 PM 10.13 50.234 0.029 6.9 12.1 10.91
5/6/2022 7:30:00 PM 10.11 50.198 0.029 6.9 12.05 10.91
5/6/2022 7:45:00 PM 10.09 50.162 0.029 6.89 12.02 10.9
5/6/2022 8:00:00 PM 10.07 50.126 0.029 6.88 11.93 10.89
5/6/2022 8:15:00 PM 10.05 50.09 0.029 6.89 10.89 10.9
5/6/2022 8:30:00 PM 10.02 50.036 0.029 6.88 10.53 10.9
5/6/2022 8:45:00 PM 10 50 0.029 6.87 10.26 10.91
5/6/2022 9:00:00 PM 9.98 49.964 0.029 6.87 10.94 10.91
5/6/2022 9:15:00 PM 9.95 49.91 0.029 6.86 10.11 10.92
5/6/2022 9:30:00 PM 9.93 49.874 0.029 6.86 9.9 10.93
5/6/2022 9:45:00 PM 9.9 49.82 0.029 6.86 9.21 10.94
5/6/2022 10:00:00 PM 9.88 49.784 0.029 6.85 9.58 10.94
5/6/2022 10:15:00 PM 9.85 49.73 0.029 6.86 8.95 10.95
5/6/2022 10:30:00 PM 9.83 49.694 0.029 6.86 9.4 10.96
5/6/2022 10:45:00 PM 9.8 49.64 0.029 6.86 10.18 10.96
5/6/2022 11:00:00 PM 9.77 49.586 0.029 6.86 8.73 10.97
5/6/2022 11:15:00 PM 9.75 49.55 0.029 6.87 8.78 10.98
5/6/2022 11:30:00 PM 9.72 49.496 0.029 6.87 9.45 10.98
5/6/2022 11:45:00 PM 9.69 49.442 0.029 6.86 9.2 10.99
5/7/2022 12:00:00 AM 9.67 49.406 0.029 6.86 9.38 11
5/7/2022 12:15:00 AM 9.64 49.352 0.029 6.85 9.71 11
5/7/2022 12:30:00 AM 9.61 49.298 0.029 6.86 10 11.01
5/7/2022 12:45:00 AM 9.59 49.262 0.029 6.86 9.2 11.02
5/7/2022 1:00:00 AM 9.56 49.208 0.029 6.85 10.07 11.03
5/7/2022 1:15:00 AM 9.54 49.172 0.029 6.86 10.56 11.03
5/7/2022 1:30:00 AM 9.51 49.118 0.029 6.86 10.35 11.04
5/7/2022 1:45:00 AM 9.49 49.082 0.029 6.86 11.16 11.04
5/7/2022 2:00:00 AM 9.47 49.046 0.029 6.86 11.29 11.05
5/7/2022 2:15:00 AM 9.44 48.992 0.029 6.86 10.72 11.06
5/7/2022 2:30:00 AM 9.42 48.956 0.029 6.87 11.44 11.06
5/7/2022 2:45:00 AM 9.4 48.92 0.029 6.86 11.7 11.06
5/7/2022 3:00:00 AM 9.38 48.884 0.029 6.85 13.51 11.06
5/7/2022 3:15:00 AM 9.36 48.848 0.029 6.84 12.19 11.07
5/7/2022 3:30:00 AM 9.34 48.812 0.029 6.85 11.8 11.08
5/7/2022 3:45:00 AM 9.33 48.794 0.029 6.84 11.95 11.09
5/7/2022 4:00:00 AM 9.31 48.758 0.029 6.83 11.64 11.09
5/7/2022 4:15:00 AM 9.29 48.722 0.029 6.85 11.99 11.09
5/7/2022 4:30:00 AM 9.28 48.704 0.029 6.84 12.5 11.1
5/7/2022 4:45:00 AM 9.26 48.668 0.029 6.83 11.49 11.1
5/7/2022 5:00:00 AM 9.24 48.632 0.029 6.84 11.76 11.11
5/7/2022 5:15:00 AM 9.23 48.614 0.029 6.84 12.1 11.11
5/7/2022 5:30:00 AM 9.21 48.578 0.029 6.84 12.01 11.13
5/7/2022 5:45:00 AM 9.19 48.542 0.029 6.83 11.25 11.13
5/7/2022 6:00:00 AM 9.18 48.524 0.029 6.83 10.96 11.13
5/7/2022 6:15:00 AM 9.16 48.488 0.029 6.82 10.75 11.14
5/7/2022 6:30:00 AM 9.14 48.452 0.029 6.83 11.13 11.16
5/7/2022 6:45:00 AM 9.12 48.416 0.029 6.82 11.62 11.16
5/7/2022 7:00:00 AM 9.1 48.38 0.029 6.83 11.17 11.17
5/7/2022 7:15:00 AM 9.09 48.362 0.029 6.83 10.79 11.18
5/7/2022 7:30:00 AM 9.07 48.326 0.029 6.83 10.18 11.2
5/7/2022 7:45:00 AM 9.06 48.308 0.029 6.83 10.4 11.2
5/7/2022 8:00:00 AM 9.05 48.29 0.029 6.83 9.78 11.23
5/7/2022 8:15:00 AM 9.04 48.272 0.029 6.84 9.82 11.22
5/7/2022 8:30:00 AM 9.04 48.272 0.029 6.85 9.87 11.24
5/7/2022 8:45:00 AM 9.04 48.272 0.029 6.85 10.73 11.25
5/7/2022 9:00:00 AM 9.03 48.254 0.029 6.85 9.55 11.27
5/7/2022 9:15:00 AM 9.03 48.254 0.029 6.86 9.64 11.27
5/7/2022 9:30:00 AM 9.04 48.272 0.029 6.86 8.89 11.28
5/7/2022 9:45:00 AM 9.04 48.272 0.029 6.88 9.47 11.29
5/7/2022 10:00:00 AM 9.04 48.272 0.029 6.89 9.31 11.3
5/7/2022 10:15:00 AM 9.05 48.29 0.029 6.9 8.55 11.31
5/7/2022 10:30:00 AM 9.06 48.308 0.029 6.91 9.49 11.32
5/7/2022 10:45:00 AM 9.06 48.308 0.029 6.9